<?xml version='1.0' encoding='UTF-8'?><gpx version="1.1" creator="JPX - https://github.com/jenetics/jpx" xmlns="http://www.topografix.com/GPX/1/1"><trk><trkseg><trkpt lat="43.3510029" lon="11.9886506"><ele>299.0</ele><time>2026-05-03T07:12:10.385Z</time></trkpt><trkpt lat="43.3502006" lon="11.9888106"><ele>290.0</ele><time>2026-05-03T07:16:26.23Z</time></trkpt><trkpt lat="43.3536628" lon="11.9792366"><ele>287.0</ele><time>2026-05-03T07:18:40.918Z</time></trkpt><trkpt lat="43.3451674" lon="11.9746825"><ele>288.0</ele><time>2026-05-03T07:19:51.466Z</time></trkpt><trkpt lat="43.3447449" lon="11.973573"><ele>293.0</ele><time>2026-05-03T07:20:30.11Z</time></trkpt><trkpt lat="43.343456" lon="11.9706024"><ele>279.0</ele><time>2026-05-03T07:21:15.108Z</time></trkpt><trkpt lat="43.3429812" lon="11.9673195"><ele>288.0</ele><time>2026-05-03T07:21:41.068Z</time></trkpt><trkpt lat="43.3397194" lon="11.9603535"><ele>309.0</ele><time>2026-05-03T07:22:58.856Z</time></trkpt><trkpt lat="43.3385116" lon="11.9586234"><ele>268.0</ele><time>2026-05-03T07:23:24.705Z</time></trkpt><trkpt lat="43.3412671" lon="11.9546031"><ele>301.0</ele><time>2026-05-03T07:24:22.803Z</time></trkpt><trkpt lat="43.3386467" lon="11.9582077"><ele>301.0</ele><time>2026-05-03T07:25:45.072Z</time></trkpt><trkpt lat="43.3384536" lon="11.9576776"><ele>301.0</ele><time>2026-05-03T07:26:11.178Z</time></trkpt><trkpt lat="43.3384874" lon="11.9459634"><ele>263.0</ele><time>2026-05-03T07:26:17.635Z</time></trkpt><trkpt lat="43.3399541" lon="11.9451004"><ele>262.0</ele><time>2026-05-03T07:26:50.855Z</time></trkpt><trkpt lat="43.3408084" lon="11.9441198"><ele>264.0</ele><time>2026-05-03T07:27:16.686Z</time></trkpt><trkpt lat="43.3407943" lon="11.9457673"><ele>262.0</ele><time>2026-05-03T07:27:42.46Z</time></trkpt><trkpt lat="43.340785" lon="11.9439623"><ele>262.0</ele><time>2026-05-03T07:27:55.431Z</time></trkpt><trkpt lat="43.3412069" lon="11.9405049"><ele>262.0</ele><time>2026-05-03T07:28:13.648Z</time></trkpt><trkpt lat="43.3407576" lon="11.939278"><ele>265.0</ele><time>2026-05-03T07:28:53.575Z</time></trkpt><trkpt lat="43.3422972" lon="11.9394237"><ele>261.0</ele><time>2026-05-03T07:29:06.455Z</time></trkpt><trkpt lat="43.3419678" lon="11.935938"><ele>263.0</ele><time>2026-05-03T07:29:38.455Z</time></trkpt><trkpt lat="43.3416502" lon="11.932753"><ele>264.0</ele><time>2026-05-03T07:29:44.987Z</time></trkpt><trkpt lat="43.3423658" lon="11.9349309"><ele>263.0</ele><time>2026-05-03T07:29:57.902Z</time></trkpt><trkpt lat="43.3419428" lon="11.9330376"><ele>263.0</ele><time>2026-05-03T07:30:22.966Z</time></trkpt><trkpt lat="43.3416516" lon="11.9327605"><ele>263.0</ele><time>2026-05-03T07:30:30.389Z</time></trkpt><trkpt lat="43.3408569" lon="11.9316295"><ele>263.5</ele><time>2026-05-03T07:30:56.274Z</time></trkpt><trkpt lat="43.3408631" lon="11.9311947"><ele>264.0</ele><time>2026-05-03T07:31:09.244Z</time></trkpt><trkpt lat="43.3407076" lon="11.9311768"><ele>264.0</ele><time>2026-05-03T07:31:22.216Z</time></trkpt><trkpt lat="43.3402037" lon="11.930605"><ele>264.0</ele><time>2026-05-03T07:31:28.751Z</time></trkpt><trkpt lat="43.3400509" lon="11.9304167"><ele>264.0</ele><time>2026-05-03T07:31:35.249Z</time></trkpt><trkpt lat="43.3400763" lon="11.9279168"><ele>265.0</ele><time>2026-05-03T07:32:06.937Z</time></trkpt><trkpt lat="43.3399574" lon="11.9276913"><ele>266.0</ele><time>2026-05-03T07:32:13.227Z</time></trkpt><trkpt lat="43.3399137" lon="11.9276037"><ele>267.0</ele><time>2026-05-03T07:32:27.446Z</time></trkpt><trkpt lat="43.3393305" lon="11.9257163"><ele>267.0</ele><time>2026-05-03T07:32:46.742Z</time></trkpt><trkpt lat="43.3392699" lon="11.9255957"><ele>267.0</ele><time>2026-05-03T07:33:12.916Z</time></trkpt><trkpt lat="43.3392093" lon="11.925465"><ele>267.0</ele><time>2026-05-03T07:33:19.393Z</time></trkpt><trkpt lat="43.3391803" lon="11.9253687"><ele>267.0</ele><time>2026-05-03T07:33:25.795Z</time></trkpt><trkpt lat="43.3434391" lon="11.9312676"><ele>265.0</ele><time>2026-05-03T07:33:38.716Z</time></trkpt><trkpt lat="43.3386688" lon="11.9244985"><ele>256.0</ele><time>2026-05-03T07:33:45.106Z</time></trkpt><trkpt lat="43.3336206" lon="11.9239574"><ele>256.0</ele><time>2026-05-03T07:34:10.999Z</time></trkpt><trkpt lat="43.3334117" lon="11.9236999"><ele>256.0</ele><time>2026-05-03T07:34:17.482Z</time></trkpt><trkpt lat="43.338319" lon="11.922436"><ele>259.3333333333333</ele><time>2026-05-03T07:34:30.276Z</time></trkpt><trkpt lat="43.3384826" lon="11.9220622"><ele>262.6666666666667</ele><time>2026-05-03T07:34:42.711Z</time></trkpt><trkpt lat="43.338491" lon="11.9219683"><ele>266.0</ele><time>2026-05-03T07:34:56.382Z</time></trkpt><trkpt lat="43.3386025" lon="11.9211812"><ele>270.0</ele><time>2026-05-03T07:35:02.923Z</time></trkpt><trkpt lat="43.3389622" lon="11.920653"><ele>270.0</ele><time>2026-05-03T07:35:21.613Z</time></trkpt><trkpt lat="43.3390522" lon="11.9206292"><ele>270.0</ele><time>2026-05-03T07:35:35.626Z</time></trkpt><trkpt lat="43.3387537" lon="11.9194447"><ele>269.0</ele><time>2026-05-03T07:35:42.109Z</time></trkpt><trkpt lat="43.3399121" lon="11.9193244"><ele>263.0</ele><time>2026-05-03T07:35:53.78Z</time></trkpt><trkpt lat="43.3400962" lon="11.9186875"><ele>263.0</ele><time>2026-05-03T07:36:06.992Z</time></trkpt><trkpt lat="43.3402121" lon="11.918513"><ele>263.0</ele><time>2026-05-03T07:36:13.647Z</time></trkpt><trkpt lat="43.340468" lon="11.9183279"><ele>265.0</ele><time>2026-05-03T07:36:21.117Z</time></trkpt><trkpt lat="43.3406958" lon="11.9176914"><ele>265.0</ele><time>2026-05-03T07:36:33.889Z</time></trkpt><trkpt lat="43.3409466" lon="11.9176234"><ele>265.0</ele><time>2026-05-03T07:36:41.464Z</time></trkpt><trkpt lat="43.3411018" lon="11.9174887"><ele>265.0</ele><time>2026-05-03T07:36:47.189Z</time></trkpt><trkpt lat="43.3410731" lon="11.9173679"><ele>265.0</ele><time>2026-05-03T07:36:54.776Z</time></trkpt><trkpt lat="43.3412825" lon="11.9172092"><ele>265.0</ele><time>2026-05-03T07:37:02.019Z</time></trkpt><trkpt lat="43.3414795" lon="11.9168336"><ele>265.0</ele><time>2026-05-03T07:37:08.641Z</time></trkpt><trkpt lat="43.3415115" lon="11.9166292"><ele>265.0</ele><time>2026-05-03T07:37:14.328Z</time></trkpt><trkpt lat="43.3417477" lon="11.9164958"><ele>265.0</ele><time>2026-05-03T07:37:20.995Z</time></trkpt><trkpt lat="43.3418286" lon="11.916075"><ele>265.0</ele><time>2026-05-03T07:37:27.693Z</time></trkpt><trkpt lat="43.3418519" lon="11.9159549"><ele>265.0</ele><time>2026-05-03T07:37:34.182Z</time></trkpt><trkpt lat="43.3424303" lon="11.9157306"><ele>266.0</ele><time>2026-05-03T07:37:53.958Z</time></trkpt><trkpt lat="43.3425468" lon="11.9157223"><ele>267.0</ele><time>2026-05-03T07:38:00.472Z</time></trkpt><trkpt lat="43.3426876" lon="11.9157218"><ele>268.0</ele><time>2026-05-03T07:38:07.374Z</time></trkpt><trkpt lat="43.3428011" lon="11.9157084"><ele>269.0</ele><time>2026-05-03T07:38:14.028Z</time></trkpt><trkpt lat="43.3429229" lon="11.9159359"><ele>271.0</ele><time>2026-05-03T07:38:21.066Z</time></trkpt><trkpt lat="43.3430876" lon="11.9160628"><ele>273.0</ele><time>2026-05-03T07:38:27.822Z</time></trkpt><trkpt lat="43.3432529" lon="11.9161897"><ele>275.0</ele><time>2026-05-03T07:38:35.14Z</time></trkpt><trkpt lat="43.3434104" lon="11.9162358"><ele>275.0</ele><time>2026-05-03T07:38:40.713Z</time></trkpt><trkpt lat="43.343563" lon="11.9163285"><ele>275.0</ele><time>2026-05-03T07:38:47.782Z</time></trkpt><trkpt lat="43.3436268" lon="11.9164539"><ele>275.0</ele><time>2026-05-03T07:38:54.44Z</time></trkpt><trkpt lat="43.3437792" lon="11.9164991"><ele>275.0</ele><time>2026-05-03T07:39:01.573Z</time></trkpt><trkpt lat="43.3438885" lon="11.91656"><ele>277.33333333333337</ele><time>2026-05-03T07:39:08.127Z</time></trkpt><trkpt lat="43.3441053" lon="11.9168036"><ele>279.6666666666667</ele><time>2026-05-03T07:39:14.613Z</time></trkpt><trkpt lat="43.3442404" lon="11.9168484"><ele>282.0</ele><time>2026-05-03T07:39:21.668Z</time></trkpt><trkpt lat="43.3442555" lon="11.9169639"><ele>282.0</ele><time>2026-05-03T07:39:29.145Z</time></trkpt><trkpt lat="43.3444526" lon="11.9170694"><ele>282.0</ele><time>2026-05-03T07:39:35.57Z</time></trkpt><trkpt lat="43.3445512" lon="11.9171657"><ele>282.0</ele><time>2026-05-03T07:39:55.566Z</time></trkpt><trkpt lat="43.3449985" lon="11.9173217"><ele>283.5</ele><time>2026-05-03T07:40:01.903Z</time></trkpt><trkpt lat="43.3450764" lon="11.9174025"><ele>285.0</ele><time>2026-05-03T07:40:09.553Z</time></trkpt><trkpt lat="43.34513" lon="11.9174523"><ele>286.5</ele><time>2026-05-03T07:40:16.256Z</time></trkpt><trkpt lat="43.3451637" lon="11.917542"><ele>288.0</ele><time>2026-05-03T07:40:22.943Z</time></trkpt><trkpt lat="43.345193" lon="11.9178482"><ele>289.6666666666667</ele><time>2026-05-03T07:40:29.595Z</time></trkpt><trkpt lat="43.3450853" lon="11.9180847"><ele>291.33333333333337</ele><time>2026-05-03T07:40:36.193Z</time></trkpt><trkpt lat="43.3450658" lon="11.9182187"><ele>293.0</ele><time>2026-05-03T07:40:42.773Z</time></trkpt><trkpt lat="43.3447578" lon="11.9182302"><ele>293.0</ele><time>2026-05-03T07:40:49.355Z</time></trkpt><trkpt lat="43.3446585" lon="11.9184827"><ele>293.0</ele><time>2026-05-03T07:41:02.598Z</time></trkpt><trkpt lat="43.3446359" lon="11.918781"><ele>293.0</ele><time>2026-05-03T07:41:09.205Z</time></trkpt><trkpt lat="43.3445759" lon="11.9188314"><ele>293.0</ele><time>2026-05-03T07:41:22.329Z</time></trkpt><trkpt lat="43.3441266" lon="11.9192242"><ele>289.0</ele><time>2026-05-03T07:41:28.869Z</time></trkpt><trkpt lat="43.3434931" lon="11.9200576"><ele>301.0</ele><time>2026-05-03T07:41:55.119Z</time></trkpt><trkpt lat="43.3427194" lon="11.9205654"><ele>301.0</ele><time>2026-05-03T07:42:13.334Z</time></trkpt><trkpt lat="43.3424985" lon="11.9207742"><ele>301.0</ele><time>2026-05-03T07:42:20.87Z</time></trkpt><trkpt lat="43.3423781" lon="11.9207954"><ele>301.0</ele><time>2026-05-03T07:42:26.649Z</time></trkpt><trkpt lat="43.3422134" lon="11.9208331"><ele>306.3333333333333</ele><time>2026-05-03T07:42:33.298Z</time></trkpt><trkpt lat="43.3419949" lon="11.9209668"><ele>311.6666666666667</ele><time>2026-05-03T07:42:41.167Z</time></trkpt><trkpt lat="43.3418582" lon="11.9209321"><ele>317.0</ele><time>2026-05-03T07:42:46.257Z</time></trkpt><trkpt lat="43.341808" lon="11.9212631"><ele>317.0</ele><time>2026-05-03T07:42:59.366Z</time></trkpt><trkpt lat="43.34141" lon="11.9214876"><ele>317.0</ele><time>2026-05-03T07:43:07.515Z</time></trkpt><trkpt lat="43.3410852" lon="11.9213846"><ele>315.0</ele><time>2026-05-03T07:43:27.572Z</time></trkpt><trkpt lat="43.3408239" lon="11.9214759"><ele>313.0</ele><time>2026-05-03T07:43:33.274Z</time></trkpt><trkpt lat="43.34072" lon="11.9216498"><ele>311.0</ele><time>2026-05-03T07:43:40.874Z</time></trkpt><trkpt lat="43.3408441" lon="11.9214856"><ele>292.0</ele><time>2026-05-03T07:43:53.859Z</time></trkpt><trkpt lat="43.3393748" lon="11.9220327"><ele>292.5</ele><time>2026-05-03T07:44:00.331Z</time></trkpt><trkpt lat="43.3392383" lon="11.9225673"><ele>293.0</ele><time>2026-05-03T07:44:05.957Z</time></trkpt><trkpt lat="43.3392492" lon="11.9228196"><ele>293.0</ele><time>2026-05-03T07:44:13.478Z</time></trkpt><trkpt lat="43.3394226" lon="11.9233147"><ele>293.0</ele><time>2026-05-03T07:44:19.598Z</time></trkpt><trkpt lat="43.3395641" lon="11.9236701"><ele>289.5</ele><time>2026-05-03T07:44:25.148Z</time></trkpt><trkpt lat="43.3395637" lon="11.9238775"><ele>286.0</ele><time>2026-05-03T07:44:39.37Z</time></trkpt><trkpt lat="43.3397915" lon="11.9241797"><ele>290.0</ele><time>2026-05-03T07:44:45.108Z</time></trkpt><trkpt lat="43.3399509" lon="11.9245394"><ele>294.0</ele><time>2026-05-03T07:45:18.598Z</time></trkpt><trkpt lat="43.3401665" lon="11.9248416"><ele>260.0</ele><time>2026-05-03T07:45:25.117Z</time></trkpt><trkpt lat="43.3401379" lon="11.9277817"><ele>256.0</ele><time>2026-05-03T07:45:37.504Z</time></trkpt><trkpt lat="43.3370468" lon="11.9271884"><ele>260.0</ele><time>2026-05-03T07:45:44.618Z</time></trkpt><trkpt lat="43.3399428" lon="11.927656"><ele>276.0</ele><time>2026-05-03T07:45:57.715Z</time></trkpt><trkpt lat="43.340825" lon="11.9262325"><ele>276.0</ele><time>2026-05-03T07:46:04.287Z</time></trkpt><trkpt lat="43.3413439" lon="11.9261112"><ele>276.5</ele><time>2026-05-03T07:46:10.907Z</time></trkpt><trkpt lat="43.3415585" lon="11.9260782"><ele>277.0</ele><time>2026-05-03T07:46:16.185Z</time></trkpt><trkpt lat="43.3422422" lon="11.9288358"><ele>275.0</ele><time>2026-05-03T07:46:42.775Z</time></trkpt><trkpt lat="43.3422303" lon="11.9265672"><ele>266.0</ele><time>2026-05-03T07:47:09.394Z</time></trkpt><trkpt lat="43.3422821" lon="11.9286544"><ele>264.0</ele><time>2026-05-03T07:47:29.061Z</time></trkpt><trkpt lat="43.3421854" lon="11.9293566"><ele>265.0</ele><time>2026-05-03T07:47:35.613Z</time></trkpt><trkpt lat="43.3422313" lon="11.9290183"><ele>266.0</ele><time>2026-05-03T07:48:02.232Z</time></trkpt><trkpt lat="43.3422988" lon="11.9281211"><ele>266.0</ele><time>2026-05-03T07:48:09.787Z</time></trkpt><trkpt lat="43.3422199" lon="11.9289484"><ele>266.0</ele><time>2026-05-03T07:48:15.442Z</time></trkpt><trkpt lat="43.3422218" lon="11.9290466"><ele>266.0</ele><time>2026-05-03T07:48:21.904Z</time></trkpt><trkpt lat="43.342312" lon="11.9245107"><ele>264.0</ele><time>2026-05-03T07:48:41.863Z</time></trkpt><trkpt lat="43.3421147" lon="11.9293327"><ele>313.0</ele><time>2026-05-03T07:49:02.448Z</time></trkpt><trkpt lat="43.3420994" lon="11.9247803"><ele>313.0</ele><time>2026-05-03T07:49:07.974Z</time></trkpt><trkpt lat="43.3423391" lon="11.9242766"><ele>313.0</ele><time>2026-05-03T07:49:14.431Z</time></trkpt><trkpt lat="43.3420984" lon="11.924777"><ele>264.0</ele><time>2026-05-03T07:49:21.082Z</time></trkpt><trkpt lat="43.3421659" lon="11.9293279"><ele>314.0</ele><time>2026-05-03T07:49:27.634Z</time></trkpt><trkpt lat="43.3422968" lon="11.9236957"><ele>312.5</ele><time>2026-05-03T07:49:48.226Z</time></trkpt><trkpt lat="43.3425387" lon="11.923201"><ele>311.0</ele><time>2026-05-03T07:49:54.754Z</time></trkpt><trkpt lat="43.3436965" lon="11.9235718"><ele>316.0</ele><time>2026-05-03T07:50:53.868Z</time></trkpt><trkpt lat="43.343545" lon="11.9230259"><ele>321.0</ele><time>2026-05-03T07:51:12.934Z</time></trkpt><trkpt lat="43.3436292" lon="11.9231081"><ele>329.0</ele><time>2026-05-03T07:51:46.16Z</time></trkpt><trkpt lat="43.344964" lon="11.9231716"><ele>329.0</ele><time>2026-05-03T07:51:52.74Z</time></trkpt><trkpt lat="43.3450112" lon="11.9232386"><ele>329.0</ele><time>2026-05-03T07:51:59.252Z</time></trkpt><trkpt lat="43.3440021" lon="11.9219241"><ele>318.0</ele><time>2026-05-03T07:52:18.136Z</time></trkpt><trkpt lat="43.3454217" lon="11.9241044"><ele>317.5</ele><time>2026-05-03T07:52:25.526Z</time></trkpt><trkpt lat="43.3454856" lon="11.9244073"><ele>317.0</ele><time>2026-05-03T07:52:32.04Z</time></trkpt><trkpt lat="43.345636" lon="11.9246396"><ele>317.0</ele><time>2026-05-03T07:52:38.587Z</time></trkpt><trkpt lat="43.34637" lon="11.9248279"><ele>315.5</ele><time>2026-05-03T07:52:57.277Z</time></trkpt><trkpt lat="43.3464965" lon="11.9251328"><ele>314.0</ele><time>2026-05-03T07:53:04.765Z</time></trkpt><trkpt lat="43.3466845" lon="11.925267"><ele>320.0</ele><time>2026-05-03T07:53:10.714Z</time></trkpt><trkpt lat="43.3472252" lon="11.9255973"><ele>336.0</ele><time>2026-05-03T07:53:36.019Z</time></trkpt><trkpt lat="43.3484902" lon="11.9250352"><ele>320.0</ele><time>2026-05-03T07:54:49.259Z</time></trkpt><trkpt lat="43.3482731" lon="11.9258448"><ele>278.0</ele><time>2026-05-03T07:54:55.815Z</time></trkpt><trkpt lat="43.3455472" lon="11.9322757"><ele>350.0</ele><time>2026-05-03T07:55:34.851Z</time></trkpt><trkpt lat="43.3511136" lon="11.9245363"><ele>342.0</ele><time>2026-05-03T07:56:26.63Z</time></trkpt><trkpt lat="43.3513531" lon="11.9254471"><ele>342.0</ele><time>2026-05-03T07:56:46.049Z</time></trkpt><trkpt lat="43.3513662" lon="11.9255886"><ele>342.0</ele><time>2026-05-03T07:56:52.52Z</time></trkpt><trkpt lat="43.3514148" lon="11.9259329"><ele>342.0</ele><time>2026-05-03T07:56:59.014Z</time></trkpt><trkpt lat="43.3511211" lon="11.9245682"><ele>351.0</ele><time>2026-05-03T07:57:11.977Z</time></trkpt><trkpt lat="43.3511938" lon="11.9274657"><ele>350.0</ele><time>2026-05-03T07:57:18.464Z</time></trkpt><trkpt lat="43.3511211" lon="11.9245682"><ele>335.0</ele><time>2026-05-03T07:57:37.988Z</time></trkpt><trkpt lat="43.3496785" lon="11.9254521"><ele>314.0</ele><time>2026-05-03T07:58:03.798Z</time></trkpt><trkpt lat="43.3505941" lon="11.9308425"><ele>314.0</ele><time>2026-05-03T07:58:23.135Z</time></trkpt><trkpt lat="43.3508299" lon="11.9308485"><ele>314.0</ele><time>2026-05-03T07:58:29.564Z</time></trkpt><trkpt lat="43.3526399" lon="11.9307614"><ele>351.0</ele><time>2026-05-03T08:00:25.582Z</time></trkpt><trkpt lat="43.3530272" lon="11.9315547"><ele>366.0</ele><time>2026-05-03T08:00:51.602Z</time></trkpt><trkpt lat="43.3527517" lon="11.9332363"><ele>366.0</ele><time>2026-05-03T08:01:43.797Z</time></trkpt><trkpt lat="43.3527853" lon="11.9333174"><ele>366.0</ele><time>2026-05-03T08:01:50.297Z</time></trkpt><trkpt lat="43.3528259" lon="11.9335998"><ele>366.0</ele><time>2026-05-03T08:01:56.783Z</time></trkpt><trkpt lat="43.3529192" lon="11.9336227"><ele>366.0</ele><time>2026-05-03T08:02:09.806Z</time></trkpt><trkpt lat="43.3421846" lon="11.9293528"><ele>426.0</ele><time>2026-05-03T08:04:44.216Z</time></trkpt><trkpt lat="43.3569235" lon="11.9414516"><ele>273.0</ele><time>2026-05-03T08:08:16.51Z</time></trkpt><trkpt lat="43.3447511" lon="11.9403617"><ele>476.0</ele><time>2026-05-03T08:11:30.995Z</time></trkpt><trkpt lat="43.3592295" lon="11.9483211"><ele>508.0</ele><time>2026-05-03T08:15:35.895Z</time></trkpt><trkpt lat="43.3592676" lon="11.9497503"><ele>502.0</ele><time>2026-05-03T08:16:00.879Z</time></trkpt><trkpt lat="43.3577592" lon="11.9492498"><ele>256.0</ele><time>2026-05-03T08:17:19.215Z</time></trkpt><trkpt lat="43.3334129" lon="11.9236884"><ele>510.0</ele><time>2026-05-03T08:19:41.332Z</time></trkpt><trkpt lat="43.3581696" lon="11.9510891"><ele>581.0</ele><time>2026-05-03T08:22:34.494Z</time></trkpt><trkpt lat="43.3675283" lon="11.9516833"><ele>581.0</ele><time>2026-05-03T08:31:31.549Z</time></trkpt><trkpt lat="43.36762" lon="11.9517"><ele>581.0</ele><time>2026-05-03T08:31:34.778Z</time></trkpt><trkpt lat="43.3676483" lon="11.9517833"><ele>581.0</ele><time>2026-05-03T08:31:55.759Z</time></trkpt><trkpt lat="43.3675917" lon="11.9518633"><ele>581.0</ele><time>2026-05-03T08:32:33.751Z</time></trkpt><trkpt lat="43.3675167" lon="11.9519467"><ele>581.0</ele><time>2026-05-03T08:33:45.752Z</time></trkpt><trkpt lat="43.3674417" lon="11.952005"><ele>581.0</ele><time>2026-05-03T08:33:47.752Z</time></trkpt><trkpt lat="43.3673717" lon="11.9520367"><ele>579.2</ele><time>2026-05-03T08:33:49.749Z</time></trkpt><trkpt lat="43.3672817" lon="11.9520883"><ele>577.4000000000001</ele><time>2026-05-03T08:33:51.751Z</time></trkpt><trkpt lat="43.36718" lon="11.95216"><ele>575.6</ele><time>2026-05-03T08:33:53.756Z</time></trkpt><trkpt lat="43.367055" lon="11.95224"><ele>573.8000000000001</ele><time>2026-05-03T08:33:55.756Z</time></trkpt><trkpt lat="43.36699" lon="11.9522733"><ele>572.0</ele><time>2026-05-03T08:33:56.757Z</time></trkpt><trkpt lat="43.3669217" lon="11.9522983"><ele>571.2857142857142</ele><time>2026-05-03T08:33:57.748Z</time></trkpt><trkpt lat="43.3668533" lon="11.9523183"><ele>570.5714285714286</ele><time>2026-05-03T08:33:58.759Z</time></trkpt><trkpt lat="43.3667833" lon="11.9523283"><ele>569.8571428571429</ele><time>2026-05-03T08:33:59.753Z</time></trkpt><trkpt lat="43.3667133" lon="11.9523367"><ele>569.1428571428571</ele><time>2026-05-03T08:34:00.752Z</time></trkpt><trkpt lat="43.366645" lon="11.952355"><ele>568.4285714285714</ele><time>2026-05-03T08:34:01.753Z</time></trkpt><trkpt lat="43.3665767" lon="11.9523767"><ele>567.7142857142857</ele><time>2026-05-03T08:34:02.751Z</time></trkpt><trkpt lat="43.3665033" lon="11.95241"><ele>567.0</ele><time>2026-05-03T08:34:03.753Z</time></trkpt><trkpt lat="43.3664383" lon="11.9524417"><ele>567.0</ele><time>2026-05-03T08:34:04.754Z</time></trkpt><trkpt lat="43.3663617" lon="11.9524833"><ele>567.0</ele><time>2026-05-03T08:34:05.759Z</time></trkpt><trkpt lat="43.3662933" lon="11.9525017"><ele>567.0</ele><time>2026-05-03T08:34:06.756Z</time></trkpt><trkpt lat="43.36622" lon="11.9525083"><ele>567.0</ele><time>2026-05-03T08:34:07.755Z</time></trkpt><trkpt lat="43.366145" lon="11.952495"><ele>567.0</ele><time>2026-05-03T08:34:08.751Z</time></trkpt><trkpt lat="43.366075" lon="11.9524517"><ele>567.0</ele><time>2026-05-03T08:34:09.755Z</time></trkpt><trkpt lat="43.3660167" lon="11.95239"><ele>564.2857142857143</ele><time>2026-05-03T08:34:10.754Z</time></trkpt><trkpt lat="43.365975" lon="11.9523117"><ele>561.5714285714286</ele><time>2026-05-03T08:34:11.765Z</time></trkpt><trkpt lat="43.3659517" lon="11.95222"><ele>558.8571428571429</ele><time>2026-05-03T08:34:12.75Z</time></trkpt><trkpt lat="43.3659433" lon="11.9521067"><ele>556.1428571428571</ele><time>2026-05-03T08:34:13.77Z</time></trkpt><trkpt lat="43.365935" lon="11.952005"><ele>553.4285714285714</ele><time>2026-05-03T08:34:14.747Z</time></trkpt><trkpt lat="43.3659283" lon="11.9519067"><ele>550.7142857142858</ele><time>2026-05-03T08:34:15.747Z</time></trkpt><trkpt lat="43.3659233" lon="11.9518117"><ele>548.0</ele><time>2026-05-03T08:34:16.749Z</time></trkpt><trkpt lat="43.3659167" lon="11.95172"><ele>549.8571428571429</ele><time>2026-05-03T08:34:17.748Z</time></trkpt><trkpt lat="43.3659017" lon="11.951625"><ele>551.7142857142858</ele><time>2026-05-03T08:34:18.753Z</time></trkpt><trkpt lat="43.3658783" lon="11.9515333"><ele>553.5714285714286</ele><time>2026-05-03T08:34:19.749Z</time></trkpt><trkpt lat="43.365845" lon="11.951445"><ele>555.4285714285714</ele><time>2026-05-03T08:34:20.76Z</time></trkpt><trkpt lat="43.36581" lon="11.9513683"><ele>557.2857142857142</ele><time>2026-05-03T08:34:21.751Z</time></trkpt><trkpt lat="43.3657683" lon="11.951285"><ele>559.1428571428571</ele><time>2026-05-03T08:34:22.756Z</time></trkpt><trkpt lat="43.3657283" lon="11.9512033"><ele>561.0</ele><time>2026-05-03T08:34:23.75Z</time></trkpt><trkpt lat="43.3656917" lon="11.9511183"><ele>561.0</ele><time>2026-05-03T08:34:24.755Z</time></trkpt><trkpt lat="43.3656617" lon="11.9510383"><ele>561.0</ele><time>2026-05-03T08:34:25.751Z</time></trkpt><trkpt lat="43.365625" lon="11.950965"><ele>561.0</ele><time>2026-05-03T08:34:26.755Z</time></trkpt><trkpt lat="43.36554" lon="11.9508433"><ele>561.0</ele><time>2026-05-03T08:34:28.757Z</time></trkpt><trkpt lat="43.36543" lon="11.9507583"><ele>561.0</ele><time>2026-05-03T08:34:30.746Z</time></trkpt><trkpt lat="43.3653533" lon="11.9507467"><ele>560.1428571428571</ele><time>2026-05-03T08:34:31.752Z</time></trkpt><trkpt lat="43.3652817" lon="11.9507417"><ele>559.2857142857142</ele><time>2026-05-03T08:34:32.747Z</time></trkpt><trkpt lat="43.3652167" lon="11.9507417"><ele>558.4285714285714</ele><time>2026-05-03T08:34:33.752Z</time></trkpt><trkpt lat="43.3651517" lon="11.9507433"><ele>557.5714285714286</ele><time>2026-05-03T08:34:34.756Z</time></trkpt><trkpt lat="43.365085" lon="11.9507583"><ele>556.7142857142858</ele><time>2026-05-03T08:34:35.75Z</time></trkpt><trkpt lat="43.3650133" lon="11.9507767"><ele>555.8571428571429</ele><time>2026-05-03T08:34:36.76Z</time></trkpt><trkpt lat="43.3649433" lon="11.95078"><ele>555.0</ele><time>2026-05-03T08:34:37.751Z</time></trkpt><trkpt lat="43.3648717" lon="11.9507833"><ele>555.0000000000001</ele><time>2026-05-03T08:34:38.755Z</time></trkpt><trkpt lat="43.3648" lon="11.9507883"><ele>555.0</ele><time>2026-05-03T08:34:39.752Z</time></trkpt><trkpt lat="43.3647317" lon="11.950795"><ele>555.0</ele><time>2026-05-03T08:34:40.756Z</time></trkpt><trkpt lat="43.3646567" lon="11.95081"><ele>555.0</ele><time>2026-05-03T08:34:41.753Z</time></trkpt><trkpt lat="43.3645817" lon="11.9508083"><ele>555.0</ele><time>2026-05-03T08:34:42.756Z</time></trkpt><trkpt lat="43.3645017" lon="11.9507917"><ele>555.0000000000001</ele><time>2026-05-03T08:34:43.753Z</time></trkpt><trkpt lat="43.3644283" lon="11.9507583"><ele>555.0</ele><time>2026-05-03T08:34:44.766Z</time></trkpt><trkpt lat="43.3643633" lon="11.9507117"><ele>553.0</ele><time>2026-05-03T08:34:45.759Z</time></trkpt><trkpt lat="43.3643067" lon="11.95065"><ele>551.0</ele><time>2026-05-03T08:34:46.751Z</time></trkpt><trkpt lat="43.3642567" lon="11.9505867"><ele>549.0</ele><time>2026-05-03T08:34:47.752Z</time></trkpt><trkpt lat="43.364205" lon="11.950535"><ele>547.0</ele><time>2026-05-03T08:34:48.751Z</time></trkpt><trkpt lat="43.3641017" lon="11.950465"><ele>545.0</ele><time>2026-05-03T08:34:50.755Z</time></trkpt><trkpt lat="43.3640133" lon="11.9504517"><ele>543.0</ele><time>2026-05-03T08:34:52.761Z</time></trkpt><trkpt lat="43.3639517" lon="11.9505183"><ele>543.0</ele><time>2026-05-03T08:34:54.759Z</time></trkpt><trkpt lat="43.3639017" lon="11.9505967"><ele>543.0</ele><time>2026-05-03T08:34:56.75Z</time></trkpt><trkpt lat="43.3638417" lon="11.95071"><ele>543.0</ele><time>2026-05-03T08:34:58.752Z</time></trkpt><trkpt lat="43.3638" lon="11.95078"><ele>543.0</ele><time>2026-05-03T08:34:59.756Z</time></trkpt><trkpt lat="43.3636883" lon="11.9508633"><ele>543.0</ele><time>2026-05-03T08:35:01.757Z</time></trkpt><trkpt lat="43.3636233" lon="11.9508667"><ele>543.0</ele><time>2026-05-03T08:35:02.756Z</time></trkpt><trkpt lat="43.36355" lon="11.950825"><ele>542.6666666666666</ele><time>2026-05-03T08:35:03.755Z</time></trkpt><trkpt lat="43.3634867" lon="11.9507633"><ele>542.3333333333334</ele><time>2026-05-03T08:35:04.758Z</time></trkpt><trkpt lat="43.3634333" lon="11.9506967"><ele>542.0</ele><time>2026-05-03T08:35:05.751Z</time></trkpt><trkpt lat="43.3633867" lon="11.9506283"><ele>541.6666666666667</ele><time>2026-05-03T08:35:06.759Z</time></trkpt><trkpt lat="43.36334" lon="11.9505683"><ele>541.3333333333334</ele><time>2026-05-03T08:35:07.753Z</time></trkpt><trkpt lat="43.363235" lon="11.9504783"><ele>541.0</ele><time>2026-05-03T08:35:09.75Z</time></trkpt><trkpt lat="43.3631233" lon="11.950415"><ele>542.4</ele><time>2026-05-03T08:35:11.748Z</time></trkpt><trkpt lat="43.36301" lon="11.950405"><ele>543.8</ele><time>2026-05-03T08:35:13.757Z</time></trkpt><trkpt lat="43.3628967" lon="11.9504733"><ele>545.1999999999999</ele><time>2026-05-03T08:35:15.757Z</time></trkpt><trkpt lat="43.3628167" lon="11.9506083"><ele>546.6</ele><time>2026-05-03T08:35:17.756Z</time></trkpt><trkpt lat="43.3627767" lon="11.9506917"><ele>548.0</ele><time>2026-05-03T08:35:18.756Z</time></trkpt><trkpt lat="43.3627117" lon="11.9508133"><ele>540.6</ele><time>2026-05-03T08:35:20.753Z</time></trkpt><trkpt lat="43.36267" lon="11.9508783"><ele>533.1999999999999</ele><time>2026-05-03T08:35:21.756Z</time></trkpt><trkpt lat="43.3625933" lon="11.9509967"><ele>525.8</ele><time>2026-05-03T08:35:23.751Z</time></trkpt><trkpt lat="43.36249" lon="11.9510933"><ele>518.4</ele><time>2026-05-03T08:35:25.748Z</time></trkpt><trkpt lat="43.362425" lon="11.9511267"><ele>511.0</ele><time>2026-05-03T08:35:26.752Z</time></trkpt><trkpt lat="43.3623067" lon="11.951155"><ele>511.00000000000006</ele><time>2026-05-03T08:35:28.754Z</time></trkpt><trkpt lat="43.362205" lon="11.951165"><ele>511.0</ele><time>2026-05-03T08:35:30.756Z</time></trkpt><trkpt lat="43.3621333" lon="11.9511817"><ele>511.0</ele><time>2026-05-03T08:35:32.748Z</time></trkpt><trkpt lat="43.3620517" lon="11.9512067"><ele>511.0</ele><time>2026-05-03T08:35:35.771Z</time></trkpt><trkpt lat="43.3620033" lon="11.951285"><ele>511.00000000000006</ele><time>2026-05-03T08:36:33.753Z</time></trkpt><trkpt lat="43.3619783" lon="11.951365"><ele>511.0</ele><time>2026-05-03T08:36:35.749Z</time></trkpt><trkpt lat="43.3619367" lon="11.9514633"><ele>508.4</ele><time>2026-05-03T08:36:37.758Z</time></trkpt><trkpt lat="43.3618533" lon="11.9515817"><ele>505.8</ele><time>2026-05-03T08:36:39.753Z</time></trkpt><trkpt lat="43.3618033" lon="11.951645"><ele>503.19999999999993</ele><time>2026-05-03T08:36:40.754Z</time></trkpt><trkpt lat="43.361745" lon="11.9516967"><ele>500.59999999999997</ele><time>2026-05-03T08:36:41.753Z</time></trkpt><trkpt lat="43.361625" lon="11.9517783"><ele>498.0</ele><time>2026-05-03T08:36:43.751Z</time></trkpt><trkpt lat="43.361555" lon="11.9517967"><ele>498.0</ele><time>2026-05-03T08:36:44.751Z</time></trkpt><trkpt lat="43.3614883" lon="11.9518167"><ele>498.0</ele><time>2026-05-03T08:36:45.75Z</time></trkpt><trkpt lat="43.3614167" lon="11.9518383"><ele>498.0</ele><time>2026-05-03T08:36:46.764Z</time></trkpt><trkpt lat="43.3613483" lon="11.9518517"><ele>498.0</ele><time>2026-05-03T08:36:47.762Z</time></trkpt><trkpt lat="43.36123" lon="11.9518733"><ele>498.0</ele><time>2026-05-03T08:36:49.755Z</time></trkpt><trkpt lat="43.361115" lon="11.95185"><ele>498.0</ele><time>2026-05-03T08:36:51.751Z</time></trkpt><trkpt lat="43.361" lon="11.9517817"><ele>497.6666666666667</ele><time>2026-05-03T08:36:53.756Z</time></trkpt><trkpt lat="43.3609467" lon="11.9517333"><ele>497.33333333333337</ele><time>2026-05-03T08:36:54.759Z</time></trkpt><trkpt lat="43.3608917" lon="11.951685"><ele>497.0</ele><time>2026-05-03T08:36:55.748Z</time></trkpt><trkpt lat="43.360835" lon="11.95164"><ele>496.6666666666667</ele><time>2026-05-03T08:36:56.757Z</time></trkpt><trkpt lat="43.360725" lon="11.9515633"><ele>496.33333333333337</ele><time>2026-05-03T08:36:58.756Z</time></trkpt><trkpt lat="43.3606083" lon="11.9515133"><ele>496.0</ele><time>2026-05-03T08:37:00.751Z</time></trkpt><trkpt lat="43.360485" lon="11.9514933"><ele>501.0</ele><time>2026-05-03T08:37:02.763Z</time></trkpt><trkpt lat="43.36037" lon="11.9515017"><ele>506.0</ele><time>2026-05-03T08:37:04.751Z</time></trkpt><trkpt lat="43.3602533" lon="11.951525"><ele>511.0</ele><time>2026-05-03T08:37:06.75Z</time></trkpt><trkpt lat="43.36014" lon="11.9515367"><ele>516.0</ele><time>2026-05-03T08:37:08.757Z</time></trkpt><trkpt lat="43.36002" lon="11.9515533"><ele>516.0</ele><time>2026-05-03T08:37:10.753Z</time></trkpt><trkpt lat="43.3599567" lon="11.9515633"><ele>516.0</ele><time>2026-05-03T08:37:11.751Z</time></trkpt><trkpt lat="43.35989" lon="11.9515767"><ele>516.0</ele><time>2026-05-03T08:37:12.757Z</time></trkpt><trkpt lat="43.3598233" lon="11.9515733"><ele>516.0</ele><time>2026-05-03T08:37:13.745Z</time></trkpt><trkpt lat="43.3597583" lon="11.9515583"><ele>516.0</ele><time>2026-05-03T08:37:14.756Z</time></trkpt><trkpt lat="43.359635" lon="11.9515233"><ele>516.0</ele><time>2026-05-03T08:37:16.748Z</time></trkpt><trkpt lat="43.3595233" lon="11.95147"><ele>514.0</ele><time>2026-05-03T08:37:18.748Z</time></trkpt><trkpt lat="43.35943" lon="11.951395"><ele>512.0</ele><time>2026-05-03T08:37:20.753Z</time></trkpt><trkpt lat="43.359325" lon="11.9513383"><ele>510.0</ele><time>2026-05-03T08:37:22.758Z</time></trkpt><trkpt lat="43.3592617" lon="11.9513283"><ele>508.0</ele><time>2026-05-03T08:37:23.753Z</time></trkpt><trkpt lat="43.3591433" lon="11.95131"><ele>506.0</ele><time>2026-05-03T08:37:25.75Z</time></trkpt><trkpt lat="43.3590783" lon="11.95131"><ele>505.99999999999994</ele><time>2026-05-03T08:37:26.747Z</time></trkpt><trkpt lat="43.3589583" lon="11.95133"><ele>506.0</ele><time>2026-05-03T08:37:28.758Z</time></trkpt><trkpt lat="43.358835" lon="11.95134"><ele>506.0</ele><time>2026-05-03T08:37:30.753Z</time></trkpt><trkpt lat="43.3587717" lon="11.9513467"><ele>506.0</ele><time>2026-05-03T08:37:31.744Z</time></trkpt><trkpt lat="43.3587017" lon="11.9513533"><ele>505.99999999999994</ele><time>2026-05-03T08:37:32.748Z</time></trkpt><trkpt lat="43.3586383" lon="11.9513617"><ele>506.0</ele><time>2026-05-03T08:37:33.754Z</time></trkpt><trkpt lat="43.35852" lon="11.9513667"><ele>507.0</ele><time>2026-05-03T08:37:35.765Z</time></trkpt><trkpt lat="43.3584033" lon="11.9513517"><ele>508.0</ele><time>2026-05-03T08:37:37.754Z</time></trkpt><trkpt lat="43.3582917" lon="11.9513517"><ele>509.0</ele><time>2026-05-03T08:37:39.756Z</time></trkpt><trkpt lat="43.3581833" lon="11.9513833"><ele>510.0</ele><time>2026-05-03T08:37:41.747Z</time></trkpt><trkpt lat="43.3580783" lon="11.9514467"><ele>508.4</ele><time>2026-05-03T08:37:43.753Z</time></trkpt><trkpt lat="43.3579917" lon="11.951535"><ele>506.8</ele><time>2026-05-03T08:37:45.75Z</time></trkpt><trkpt lat="43.357925" lon="11.9516483"><ele>505.20000000000005</ele><time>2026-05-03T08:37:47.756Z</time></trkpt><trkpt lat="43.3578733" lon="11.9517517"><ele>503.6</ele><time>2026-05-03T08:37:49.753Z</time></trkpt><trkpt lat="43.3578217" lon="11.9518817"><ele>502.0</ele><time>2026-05-03T08:37:51.756Z</time></trkpt><trkpt lat="43.3577767" lon="11.9520233"><ele>502.0</ele><time>2026-05-03T08:37:53.747Z</time></trkpt><trkpt lat="43.3577367" lon="11.952155"><ele>502.00000000000006</ele><time>2026-05-03T08:37:55.749Z</time></trkpt><trkpt lat="43.3576817" lon="11.9522833"><ele>502.00000000000006</ele><time>2026-05-03T08:37:57.74Z</time></trkpt><trkpt lat="43.3576" lon="11.9523917"><ele>502.0</ele><time>2026-05-03T08:37:59.754Z</time></trkpt><trkpt lat="43.3574917" lon="11.9524433"><ele>502.0</ele><time>2026-05-03T08:38:01.752Z</time></trkpt><trkpt lat="43.35738" lon="11.9523967"><ele>502.0</ele><time>2026-05-03T08:38:03.757Z</time></trkpt><trkpt lat="43.3573183" lon="11.9523567"><ele>502.00000000000006</ele><time>2026-05-03T08:38:04.765Z</time></trkpt><trkpt lat="43.3572633" lon="11.9523033"><ele>502.00000000000006</ele><time>2026-05-03T08:38:05.758Z</time></trkpt><trkpt lat="43.3571683" lon="11.9522"><ele>502.0</ele><time>2026-05-03T08:38:07.757Z</time></trkpt><trkpt lat="43.3570867" lon="11.9520883"><ele>502.0</ele><time>2026-05-03T08:38:09.759Z</time></trkpt><trkpt lat="43.35701" lon="11.9519917"><ele>498.83333333333337</ele><time>2026-05-03T08:38:11.756Z</time></trkpt><trkpt lat="43.3569267" lon="11.951915"><ele>495.6666666666667</ele><time>2026-05-03T08:38:13.748Z</time></trkpt><trkpt lat="43.35687" lon="11.9518683"><ele>492.5</ele><time>2026-05-03T08:38:15.746Z</time></trkpt><trkpt lat="43.3568" lon="11.951835"><ele>489.33333333333337</ele><time>2026-05-03T08:38:33.754Z</time></trkpt><trkpt lat="43.35673" lon="11.9518217"><ele>486.1666666666667</ele><time>2026-05-03T08:38:36.755Z</time></trkpt><trkpt lat="43.3566567" lon="11.951825"><ele>483.0</ele><time>2026-05-03T08:38:38.752Z</time></trkpt><trkpt lat="43.3565683" lon="11.9518233"><ele>483.0</ele><time>2026-05-03T08:38:40.755Z</time></trkpt><trkpt lat="43.3564683" lon="11.9517967"><ele>483.0</ele><time>2026-05-03T08:38:42.746Z</time></trkpt><trkpt lat="43.3563517" lon="11.9517817"><ele>483.0</ele><time>2026-05-03T08:38:44.754Z</time></trkpt><trkpt lat="43.356225" lon="11.9517683"><ele>483.0</ele><time>2026-05-03T08:38:46.753Z</time></trkpt><trkpt lat="43.3561083" lon="11.95174"><ele>486.0</ele><time>2026-05-03T08:38:48.747Z</time></trkpt><trkpt lat="43.3560033" lon="11.9516633"><ele>489.0</ele><time>2026-05-03T08:38:50.757Z</time></trkpt><trkpt lat="43.3559133" lon="11.9515617"><ele>492.0</ele><time>2026-05-03T08:38:52.746Z</time></trkpt><trkpt lat="43.35584" lon="11.95143"><ele>495.0</ele><time>2026-05-03T08:38:54.768Z</time></trkpt><trkpt lat="43.3557817" lon="11.9512767"><ele>495.0</ele><time>2026-05-03T08:38:56.76Z</time></trkpt><trkpt lat="43.3557383" lon="11.9511133"><ele>495.0</ele><time>2026-05-03T08:38:58.751Z</time></trkpt><trkpt lat="43.3557283" lon="11.951025"><ele>495.0</ele><time>2026-05-03T08:38:59.757Z</time></trkpt><trkpt lat="43.3557317" lon="11.9509383"><ele>495.0</ele><time>2026-05-03T08:39:00.752Z</time></trkpt><trkpt lat="43.3557417" lon="11.9507783"><ele>495.0</ele><time>2026-05-03T08:39:02.754Z</time></trkpt><trkpt lat="43.3557433" lon="11.9506133"><ele>495.3333333333333</ele><time>2026-05-03T08:39:04.758Z</time></trkpt><trkpt lat="43.355735" lon="11.9504583"><ele>495.66666666666663</ele><time>2026-05-03T08:39:06.754Z</time></trkpt><trkpt lat="43.3557183" lon="11.9503733"><ele>496.0</ele><time>2026-05-03T08:39:07.755Z</time></trkpt><trkpt lat="43.3557083" lon="11.9502817"><ele>496.3333333333333</ele><time>2026-05-03T08:39:08.754Z</time></trkpt><trkpt lat="43.3557317" lon="11.9501133"><ele>496.66666666666663</ele><time>2026-05-03T08:39:10.757Z</time></trkpt><trkpt lat="43.3557633" lon="11.950035"><ele>497.0</ele><time>2026-05-03T08:39:11.754Z</time></trkpt><trkpt lat="43.3558017" lon="11.949965"><ele>496.0</ele><time>2026-05-03T08:39:12.755Z</time></trkpt><trkpt lat="43.3558517" lon="11.9499117"><ele>495.00000000000006</ele><time>2026-05-03T08:39:13.759Z</time></trkpt><trkpt lat="43.3559533" lon="11.9498367"><ele>494.00000000000006</ele><time>2026-05-03T08:39:15.756Z</time></trkpt><trkpt lat="43.35606" lon="11.9497667"><ele>493.0</ele><time>2026-05-03T08:39:17.753Z</time></trkpt><trkpt lat="43.3561533" lon="11.9496817"><ele>492.0</ele><time>2026-05-03T08:39:19.751Z</time></trkpt><trkpt lat="43.3562" lon="11.9496217"><ele>492.0</ele><time>2026-05-03T08:39:20.76Z</time></trkpt><trkpt lat="43.3562483" lon="11.9495583"><ele>492.00000000000006</ele><time>2026-05-03T08:39:21.753Z</time></trkpt><trkpt lat="43.3563533" lon="11.94948"><ele>492.00000000000006</ele><time>2026-05-03T08:39:23.751Z</time></trkpt><trkpt lat="43.35647" lon="11.94946"><ele>492.0</ele><time>2026-05-03T08:39:25.753Z</time></trkpt><trkpt lat="43.35657" lon="11.949455"><ele>492.0</ele><time>2026-05-03T08:39:27.754Z</time></trkpt><trkpt lat="43.3566817" lon="11.9494533"><ele>494.6</ele><time>2026-05-03T08:39:29.756Z</time></trkpt><trkpt lat="43.3567883" lon="11.949455"><ele>497.20000000000005</ele><time>2026-05-03T08:39:31.753Z</time></trkpt><trkpt lat="43.3568917" lon="11.949435"><ele>499.8</ele><time>2026-05-03T08:39:33.756Z</time></trkpt><trkpt lat="43.3570033" lon="11.94942"><ele>502.4</ele><time>2026-05-03T08:39:35.764Z</time></trkpt><trkpt lat="43.357095" lon="11.94942"><ele>505.0</ele><time>2026-05-03T08:39:37.757Z</time></trkpt><trkpt lat="43.3571867" lon="11.949425"><ele>504.4</ele><time>2026-05-03T08:39:39.749Z</time></trkpt><trkpt lat="43.3572767" lon="11.9494"><ele>503.8</ele><time>2026-05-03T08:39:41.747Z</time></trkpt><trkpt lat="43.3573867" lon="11.949325"><ele>503.20000000000005</ele><time>2026-05-03T08:39:43.748Z</time></trkpt><trkpt lat="43.3574467" lon="11.9492783"><ele>502.6</ele><time>2026-05-03T08:39:44.75Z</time></trkpt><trkpt lat="43.3575067" lon="11.9492233"><ele>502.0</ele><time>2026-05-03T08:39:45.75Z</time></trkpt><trkpt lat="43.3576283" lon="11.9491267"><ele>497.8</ele><time>2026-05-03T08:39:47.776Z</time></trkpt><trkpt lat="43.3576883" lon="11.9490817"><ele>493.6</ele><time>2026-05-03T08:39:48.751Z</time></trkpt><trkpt lat="43.357805" lon="11.949065"><ele>489.40000000000003</ele><time>2026-05-03T08:39:50.749Z</time></trkpt><trkpt lat="43.3579067" lon="11.94908"><ele>485.20000000000005</ele><time>2026-05-03T08:39:52.755Z</time></trkpt><trkpt lat="43.3580117" lon="11.9491067"><ele>481.0</ele><time>2026-05-03T08:39:54.756Z</time></trkpt><trkpt lat="43.3581133" lon="11.9491367"><ele>481.0</ele><time>2026-05-03T08:39:56.751Z</time></trkpt><trkpt lat="43.358215" lon="11.9491567"><ele>481.0</ele><time>2026-05-03T08:39:58.752Z</time></trkpt><trkpt lat="43.3582783" lon="11.9491583"><ele>481.0</ele><time>2026-05-03T08:39:59.761Z</time></trkpt><trkpt lat="43.358385" lon="11.9491733"><ele>481.0</ele><time>2026-05-03T08:40:01.754Z</time></trkpt><trkpt lat="43.3584883" lon="11.9491767"><ele>481.0</ele><time>2026-05-03T08:40:03.755Z</time></trkpt><trkpt lat="43.3585983" lon="11.9491683"><ele>481.0</ele><time>2026-05-03T08:40:05.755Z</time></trkpt><trkpt lat="43.3586617" lon="11.949155"><ele>481.0</ele><time>2026-05-03T08:40:06.751Z</time></trkpt><trkpt lat="43.3587817" lon="11.94912"><ele>481.0</ele><time>2026-05-03T08:40:08.753Z</time></trkpt><trkpt lat="43.3589033" lon="11.9490567"><ele>481.0</ele><time>2026-05-03T08:40:10.744Z</time></trkpt><trkpt lat="43.3589683" lon="11.949015"><ele>481.0</ele><time>2026-05-03T08:40:11.743Z</time></trkpt><trkpt lat="43.3590283" lon="11.9489717"><ele>482.0</ele><time>2026-05-03T08:40:12.755Z</time></trkpt><trkpt lat="43.3590767" lon="11.94891"><ele>483.0</ele><time>2026-05-03T08:40:13.752Z</time></trkpt><trkpt lat="43.3591217" lon="11.9488483"><ele>484.0</ele><time>2026-05-03T08:40:14.76Z</time></trkpt><trkpt lat="43.3591867" lon="11.9487067"><ele>485.0</ele><time>2026-05-03T08:40:16.762Z</time></trkpt><trkpt lat="43.359195" lon="11.94856"><ele>486.0</ele><time>2026-05-03T08:40:18.746Z</time></trkpt><trkpt lat="43.3591317" lon="11.9484333"><ele>484.0</ele><time>2026-05-03T08:40:20.761Z</time></trkpt><trkpt lat="43.3590433" lon="11.9483133"><ele>482.0</ele><time>2026-05-03T08:40:22.753Z</time></trkpt><trkpt lat="43.3589633" lon="11.948175"><ele>480.0</ele><time>2026-05-03T08:40:24.752Z</time></trkpt><trkpt lat="43.3589267" lon="11.9481017"><ele>478.0</ele><time>2026-05-03T08:40:25.746Z</time></trkpt><trkpt lat="43.358895" lon="11.948025"><ele>476.0</ele><time>2026-05-03T08:40:26.756Z</time></trkpt><trkpt lat="43.3588267" lon="11.9478817"><ele>472.8333333333333</ele><time>2026-05-03T08:40:28.756Z</time></trkpt><trkpt lat="43.3587883" lon="11.9478117"><ele>469.66666666666663</ele><time>2026-05-03T08:40:29.75Z</time></trkpt><trkpt lat="43.3587533" lon="11.9477383"><ele>466.5</ele><time>2026-05-03T08:40:30.753Z</time></trkpt><trkpt lat="43.3587217" lon="11.94766"><ele>463.33333333333337</ele><time>2026-05-03T08:40:31.749Z</time></trkpt><trkpt lat="43.358655" lon="11.9475117"><ele>460.1666666666667</ele><time>2026-05-03T08:40:33.756Z</time></trkpt><trkpt lat="43.3586317" lon="11.9474267"><ele>457.0</ele><time>2026-05-03T08:40:34.743Z</time></trkpt><trkpt lat="43.3585867" lon="11.9472683"><ele>456.50000000000006</ele><time>2026-05-03T08:40:36.747Z</time></trkpt><trkpt lat="43.3585283" lon="11.94712"><ele>456.0</ele><time>2026-05-03T08:40:38.758Z</time></trkpt><trkpt lat="43.358485" lon="11.94705"><ele>455.5</ele><time>2026-05-03T08:40:39.751Z</time></trkpt><trkpt lat="43.3584333" lon="11.9469733"><ele>455.0</ele><time>2026-05-03T08:40:40.752Z</time></trkpt><trkpt lat="43.35838" lon="11.946905"><ele>454.50000000000006</ele><time>2026-05-03T08:40:41.762Z</time></trkpt><trkpt lat="43.3583283" lon="11.94683"><ele>454.0</ele><time>2026-05-03T08:40:42.747Z</time></trkpt><trkpt lat="43.3582817" lon="11.9467617"><ele>456.28571428571433</ele><time>2026-05-03T08:40:43.765Z</time></trkpt><trkpt lat="43.358235" lon="11.9467017"><ele>458.5714285714286</ele><time>2026-05-03T08:40:44.753Z</time></trkpt><trkpt lat="43.3581917" lon="11.9466367"><ele>460.8571428571429</ele><time>2026-05-03T08:40:45.75Z</time></trkpt><trkpt lat="43.3581383" lon="11.946565"><ele>463.1428571428571</ele><time>2026-05-03T08:40:46.749Z</time></trkpt><trkpt lat="43.35808" lon="11.9465117"><ele>465.4285714285714</ele><time>2026-05-03T08:40:47.752Z</time></trkpt><trkpt lat="43.3580217" lon="11.946455"><ele>467.71428571428567</ele><time>2026-05-03T08:40:48.757Z</time></trkpt><trkpt lat="43.3579717" lon="11.9463933"><ele>470.0</ele><time>2026-05-03T08:40:49.749Z</time></trkpt><trkpt lat="43.3579233" lon="11.9463317"><ele>465.0</ele><time>2026-05-03T08:40:50.752Z</time></trkpt><trkpt lat="43.3578367" lon="11.946205"><ele>460.0</ele><time>2026-05-03T08:40:52.754Z</time></trkpt><trkpt lat="43.3577783" lon="11.946065"><ele>455.0</ele><time>2026-05-03T08:40:54.746Z</time></trkpt><trkpt lat="43.357765" lon="11.945905"><ele>450.0</ele><time>2026-05-03T08:40:56.753Z</time></trkpt><trkpt lat="43.357745" lon="11.945745"><ele>450.0</ele><time>2026-05-03T08:40:58.75Z</time></trkpt><trkpt lat="43.35767" lon="11.9456283"><ele>450.0</ele><time>2026-05-03T08:41:00.749Z</time></trkpt><trkpt lat="43.3575483" lon="11.9455667"><ele>450.0</ele><time>2026-05-03T08:41:02.75Z</time></trkpt><trkpt lat="43.3574767" lon="11.9455433"><ele>450.0</ele><time>2026-05-03T08:41:03.751Z</time></trkpt><trkpt lat="43.3574033" lon="11.9455083"><ele>450.0</ele><time>2026-05-03T08:41:04.751Z</time></trkpt><trkpt lat="43.35734" lon="11.9454533"><ele>450.00000000000006</ele><time>2026-05-03T08:41:05.761Z</time></trkpt><trkpt lat="43.3572933" lon="11.94539"><ele>450.0</ele><time>2026-05-03T08:41:06.756Z</time></trkpt><trkpt lat="43.3572433" lon="11.9453167"><ele>450.00000000000006</ele><time>2026-05-03T08:41:07.761Z</time></trkpt><trkpt lat="43.3572" lon="11.945245"><ele>450.00000000000006</ele><time>2026-05-03T08:41:08.745Z</time></trkpt><trkpt lat="43.3571583" lon="11.9451683"><ele>450.0</ele><time>2026-05-03T08:41:09.744Z</time></trkpt><trkpt lat="43.3571183" lon="11.9450833"><ele>450.00000000000006</ele><time>2026-05-03T08:41:10.753Z</time></trkpt><trkpt lat="43.3570867" lon="11.9449967"><ele>450.00000000000006</ele><time>2026-05-03T08:41:11.757Z</time></trkpt><trkpt lat="43.3570383" lon="11.9448517"><ele>446.0</ele><time>2026-05-03T08:41:13.753Z</time></trkpt><trkpt lat="43.356995" lon="11.9447233"><ele>442.0</ele><time>2026-05-03T08:41:15.752Z</time></trkpt><trkpt lat="43.3569383" lon="11.9446133"><ele>438.0</ele><time>2026-05-03T08:41:17.754Z</time></trkpt><trkpt lat="43.3568733" lon="11.9445067"><ele>434.0</ele><time>2026-05-03T08:41:19.754Z</time></trkpt><trkpt lat="43.3567867" lon="11.9444017"><ele>430.0</ele><time>2026-05-03T08:41:21.749Z</time></trkpt><trkpt lat="43.3567033" lon="11.9443033"><ele>430.0</ele><time>2026-05-03T08:41:23.751Z</time></trkpt><trkpt lat="43.3566233" lon="11.9442133"><ele>430.0</ele><time>2026-05-03T08:41:25.759Z</time></trkpt><trkpt lat="43.35654" lon="11.94413"><ele>430.0</ele><time>2026-05-03T08:41:27.757Z</time></trkpt><trkpt lat="43.356455" lon="11.944035"><ele>430.0</ele><time>2026-05-03T08:41:29.753Z</time></trkpt><trkpt lat="43.3563683" lon="11.94394"><ele>430.0</ele><time>2026-05-03T08:41:31.75Z</time></trkpt><trkpt lat="43.3562717" lon="11.9438417"><ele>428.83333333333337</ele><time>2026-05-03T08:41:33.761Z</time></trkpt><trkpt lat="43.356165" lon="11.9437633"><ele>427.6666666666667</ele><time>2026-05-03T08:41:35.754Z</time></trkpt><trkpt lat="43.35611" lon="11.9437183"><ele>426.5</ele><time>2026-05-03T08:41:36.746Z</time></trkpt><trkpt lat="43.356045" lon="11.9436667"><ele>425.33333333333337</ele><time>2026-05-03T08:41:37.756Z</time></trkpt><trkpt lat="43.35599" lon="11.9436233"><ele>424.1666666666667</ele><time>2026-05-03T08:41:38.753Z</time></trkpt><trkpt lat="43.3559333" lon="11.9435767"><ele>423.0</ele><time>2026-05-03T08:41:39.756Z</time></trkpt><trkpt lat="43.3558767" lon="11.9435283"><ele>423.0</ele><time>2026-05-03T08:41:40.759Z</time></trkpt><trkpt lat="43.3558217" lon="11.9434783"><ele>423.0</ele><time>2026-05-03T08:41:41.752Z</time></trkpt><trkpt lat="43.3557633" lon="11.943435"><ele>423.0</ele><time>2026-05-03T08:41:42.749Z</time></trkpt><trkpt lat="43.3557033" lon="11.94339"><ele>423.0</ele><time>2026-05-03T08:41:43.747Z</time></trkpt><trkpt lat="43.355645" lon="11.943345"><ele>423.0</ele><time>2026-05-03T08:41:44.758Z</time></trkpt><trkpt lat="43.355585" lon="11.9433017"><ele>423.0</ele><time>2026-05-03T08:41:45.752Z</time></trkpt><trkpt lat="43.355525" lon="11.9432583"><ele>423.0</ele><time>2026-05-03T08:41:46.752Z</time></trkpt><trkpt lat="43.3554667" lon="11.9432183"><ele>422.6666666666667</ele><time>2026-05-03T08:41:47.756Z</time></trkpt><trkpt lat="43.3554067" lon="11.94318"><ele>422.33333333333337</ele><time>2026-05-03T08:41:48.758Z</time></trkpt><trkpt lat="43.3553483" lon="11.943145"><ele>422.0</ele><time>2026-05-03T08:41:49.747Z</time></trkpt><trkpt lat="43.3552367" lon="11.9430667"><ele>421.6666666666667</ele><time>2026-05-03T08:41:51.748Z</time></trkpt><trkpt lat="43.355175" lon="11.9430233"><ele>421.33333333333337</ele><time>2026-05-03T08:41:52.754Z</time></trkpt><trkpt lat="43.3550817" lon="11.942925"><ele>421.0</ele><time>2026-05-03T08:41:54.759Z</time></trkpt><trkpt lat="43.3550133" lon="11.942795"><ele>421.00000000000006</ele><time>2026-05-03T08:41:56.748Z</time></trkpt><trkpt lat="43.35501" lon="11.942645"><ele>421.0</ele><time>2026-05-03T08:41:58.756Z</time></trkpt><trkpt lat="43.355095" lon="11.9425433"><ele>421.0</ele><time>2026-05-03T08:42:00.754Z</time></trkpt><trkpt lat="43.355155" lon="11.942515"><ele>421.0</ele><time>2026-05-03T08:42:01.759Z</time></trkpt><trkpt lat="43.3552183" lon="11.9424867"><ele>421.00000000000006</ele><time>2026-05-03T08:42:02.754Z</time></trkpt><trkpt lat="43.3552867" lon="11.94246"><ele>421.0</ele><time>2026-05-03T08:42:03.757Z</time></trkpt><trkpt lat="43.3553583" lon="11.9424333"><ele>421.1666666666667</ele><time>2026-05-03T08:42:04.755Z</time></trkpt><trkpt lat="43.3554317" lon="11.94241"><ele>421.33333333333337</ele><time>2026-05-03T08:42:05.759Z</time></trkpt><trkpt lat="43.3555017" lon="11.9423767"><ele>421.5</ele><time>2026-05-03T08:42:06.751Z</time></trkpt><trkpt lat="43.3555717" lon="11.94234"><ele>421.66666666666663</ele><time>2026-05-03T08:42:07.749Z</time></trkpt><trkpt lat="43.3556433" lon="11.942305"><ele>421.8333333333333</ele><time>2026-05-03T08:42:08.75Z</time></trkpt><trkpt lat="43.3557267" lon="11.9422683"><ele>422.0</ele><time>2026-05-03T08:42:09.75Z</time></trkpt><trkpt lat="43.3558183" lon="11.9422267"><ele>423.66666666666663</ele><time>2026-05-03T08:42:10.753Z</time></trkpt><trkpt lat="43.3559033" lon="11.9421783"><ele>425.3333333333333</ele><time>2026-05-03T08:42:11.753Z</time></trkpt><trkpt lat="43.3559883" lon="11.942145"><ele>427.0</ele><time>2026-05-03T08:42:12.759Z</time></trkpt><trkpt lat="43.3560717" lon="11.9421183"><ele>428.66666666666663</ele><time>2026-05-03T08:42:13.765Z</time></trkpt><trkpt lat="43.356145" lon="11.94209"><ele>430.3333333333333</ele><time>2026-05-03T08:42:14.762Z</time></trkpt><trkpt lat="43.3562117" lon="11.9420517"><ele>432.0</ele><time>2026-05-03T08:42:15.762Z</time></trkpt><trkpt lat="43.3562683" lon="11.9420133"><ele>431.0</ele><time>2026-05-03T08:42:16.759Z</time></trkpt><trkpt lat="43.356375" lon="11.941925"><ele>430.0</ele><time>2026-05-03T08:42:18.749Z</time></trkpt><trkpt lat="43.35643" lon="11.94187"><ele>429.0</ele><time>2026-05-03T08:42:19.746Z</time></trkpt><trkpt lat="43.356495" lon="11.9418117"><ele>428.0</ele><time>2026-05-03T08:42:20.751Z</time></trkpt><trkpt lat="43.3565567" lon="11.9417533"><ele>427.0</ele><time>2026-05-03T08:42:21.762Z</time></trkpt><trkpt lat="43.3566183" lon="11.941695"><ele>426.0</ele><time>2026-05-03T08:42:22.748Z</time></trkpt><trkpt lat="43.3566767" lon="11.94163"><ele>426.0</ele><time>2026-05-03T08:42:23.751Z</time></trkpt><trkpt lat="43.3567367" lon="11.9415733"><ele>426.0</ele><time>2026-05-03T08:42:24.758Z</time></trkpt><trkpt lat="43.3568383" lon="11.94148"><ele>426.0</ele><time>2026-05-03T08:42:26.752Z</time></trkpt><trkpt lat="43.3569433" lon="11.9413917"><ele>426.0</ele><time>2026-05-03T08:42:28.747Z</time></trkpt><trkpt lat="43.3569967" lon="11.941345"><ele>426.0</ele><time>2026-05-03T08:42:29.747Z</time></trkpt><trkpt lat="43.3570467" lon="11.94122"><ele>426.0</ele><time>2026-05-03T08:42:31.759Z</time></trkpt><trkpt lat="43.3570533" lon="11.9410833"><ele>426.0</ele><time>2026-05-03T08:42:33.746Z</time></trkpt><trkpt lat="43.3570067" lon="11.9409933"><ele>426.0</ele><time>2026-05-03T08:42:34.747Z</time></trkpt><trkpt lat="43.3569567" lon="11.940925"><ele>426.0</ele><time>2026-05-03T08:42:35.753Z</time></trkpt><trkpt lat="43.3569067" lon="11.94087"><ele>426.0</ele><time>2026-05-03T08:42:36.75Z</time></trkpt><trkpt lat="43.3568483" lon="11.9408217"><ele>426.0</ele><time>2026-05-03T08:42:37.751Z</time></trkpt><trkpt lat="43.3567883" lon="11.9407783"><ele>425.71428571428567</ele><time>2026-05-03T08:42:38.752Z</time></trkpt><trkpt lat="43.35673" lon="11.9407317"><ele>425.42857142857144</ele><time>2026-05-03T08:42:39.756Z</time></trkpt><trkpt lat="43.3566767" lon="11.9406817"><ele>425.1428571428571</ele><time>2026-05-03T08:42:40.749Z</time></trkpt><trkpt lat="43.356605" lon="11.9406367"><ele>424.85714285714283</ele><time>2026-05-03T08:42:41.76Z</time></trkpt><trkpt lat="43.35654" lon="11.9405967"><ele>424.57142857142856</ele><time>2026-05-03T08:42:42.755Z</time></trkpt><trkpt lat="43.3564667" lon="11.9405533"><ele>424.2857142857143</ele><time>2026-05-03T08:42:43.751Z</time></trkpt><trkpt lat="43.3563967" lon="11.9404983"><ele>424.0</ele><time>2026-05-03T08:42:44.748Z</time></trkpt><trkpt lat="43.3563333" lon="11.9404483"><ele>421.8571428571429</ele><time>2026-05-03T08:42:45.749Z</time></trkpt><trkpt lat="43.3562767" lon="11.94039"><ele>419.71428571428567</ele><time>2026-05-03T08:42:46.755Z</time></trkpt><trkpt lat="43.3562217" lon="11.940325"><ele>417.57142857142856</ele><time>2026-05-03T08:42:47.749Z</time></trkpt><trkpt lat="43.3561783" lon="11.9402433"><ele>415.42857142857144</ele><time>2026-05-03T08:42:48.757Z</time></trkpt><trkpt lat="43.3561333" lon="11.94016"><ele>413.28571428571433</ele><time>2026-05-03T08:42:49.75Z</time></trkpt><trkpt lat="43.3560833" lon="11.9400833"><ele>411.1428571428571</ele><time>2026-05-03T08:42:50.747Z</time></trkpt><trkpt lat="43.3560417" lon="11.9400033"><ele>409.0</ele><time>2026-05-03T08:42:51.748Z</time></trkpt><trkpt lat="43.3559983" lon="11.9399283"><ele>409.00000000000006</ele><time>2026-05-03T08:42:52.752Z</time></trkpt><trkpt lat="43.355955" lon="11.9398483"><ele>409.0</ele><time>2026-05-03T08:42:53.753Z</time></trkpt><trkpt lat="43.355915" lon="11.9397667"><ele>409.0</ele><time>2026-05-03T08:42:54.768Z</time></trkpt><trkpt lat="43.3558783" lon="11.939695"><ele>409.0</ele><time>2026-05-03T08:42:55.757Z</time></trkpt><trkpt lat="43.3558067" lon="11.9395683"><ele>409.00000000000006</ele><time>2026-05-03T08:42:57.749Z</time></trkpt><trkpt lat="43.3557367" lon="11.9394367"><ele>409.0</ele><time>2026-05-03T08:42:59.752Z</time></trkpt><trkpt lat="43.3556633" lon="11.9392917"><ele>410.57142857142856</ele><time>2026-05-03T08:43:01.761Z</time></trkpt><trkpt lat="43.3556333" lon="11.9392083"><ele>412.14285714285717</ele><time>2026-05-03T08:43:02.75Z</time></trkpt><trkpt lat="43.3556117" lon="11.93912"><ele>413.7142857142857</ele><time>2026-05-03T08:43:03.759Z</time></trkpt><trkpt lat="43.3556" lon="11.9390217"><ele>415.2857142857143</ele><time>2026-05-03T08:43:04.746Z</time></trkpt><trkpt lat="43.3555817" lon="11.93892"><ele>416.8571428571429</ele><time>2026-05-03T08:43:05.749Z</time></trkpt><trkpt lat="43.355575" lon="11.9388217"><ele>418.42857142857144</ele><time>2026-05-03T08:43:06.751Z</time></trkpt><trkpt lat="43.355585" lon="11.93873"><ele>420.0</ele><time>2026-05-03T08:43:07.745Z</time></trkpt><trkpt lat="43.3556033" lon="11.9386317"><ele>420.0</ele><time>2026-05-03T08:43:08.757Z</time></trkpt><trkpt lat="43.35564" lon="11.93854"><ele>420.0</ele><time>2026-05-03T08:43:09.756Z</time></trkpt><trkpt lat="43.3556767" lon="11.9384533"><ele>420.0</ele><time>2026-05-03T08:43:10.752Z</time></trkpt><trkpt lat="43.3557033" lon="11.93837"><ele>420.0</ele><time>2026-05-03T08:43:11.753Z</time></trkpt><trkpt lat="43.3557367" lon="11.93828"><ele>420.0</ele><time>2026-05-03T08:43:12.751Z</time></trkpt><trkpt lat="43.3557567" lon="11.9381933"><ele>420.0</ele><time>2026-05-03T08:43:13.765Z</time></trkpt><trkpt lat="43.3557683" lon="11.9381"><ele>420.0</ele><time>2026-05-03T08:43:14.753Z</time></trkpt><trkpt lat="43.3557683" lon="11.9380067"><ele>419.3333333333333</ele><time>2026-05-03T08:43:15.755Z</time></trkpt><trkpt lat="43.35576" lon="11.937905"><ele>418.66666666666663</ele><time>2026-05-03T08:43:16.753Z</time></trkpt><trkpt lat="43.3557483" lon="11.9378167"><ele>418.0</ele><time>2026-05-03T08:43:17.749Z</time></trkpt><trkpt lat="43.35572" lon="11.9377333"><ele>417.3333333333333</ele><time>2026-05-03T08:43:18.755Z</time></trkpt><trkpt lat="43.355665" lon="11.9376083"><ele>416.66666666666663</ele><time>2026-05-03T08:43:20.746Z</time></trkpt><trkpt lat="43.3556017" lon="11.9375633"><ele>416.0</ele><time>2026-05-03T08:43:21.752Z</time></trkpt><trkpt lat="43.355525" lon="11.937535"><ele>413.85714285714283</ele><time>2026-05-03T08:43:22.749Z</time></trkpt><trkpt lat="43.3554483" lon="11.9375167"><ele>411.7142857142857</ele><time>2026-05-03T08:43:23.755Z</time></trkpt><trkpt lat="43.3553783" lon="11.9375183"><ele>409.57142857142856</ele><time>2026-05-03T08:43:24.753Z</time></trkpt><trkpt lat="43.35531" lon="11.9375283"><ele>407.42857142857144</ele><time>2026-05-03T08:43:25.76Z</time></trkpt><trkpt lat="43.3552383" lon="11.9375467"><ele>405.28571428571433</ele><time>2026-05-03T08:43:26.756Z</time></trkpt><trkpt lat="43.3551717" lon="11.937565"><ele>403.14285714285717</ele><time>2026-05-03T08:43:27.756Z</time></trkpt><trkpt lat="43.355105" lon="11.93759"><ele>401.0</ele><time>2026-05-03T08:43:28.753Z</time></trkpt><trkpt lat="43.35504" lon="11.93761"><ele>398.6</ele><time>2026-05-03T08:43:29.745Z</time></trkpt><trkpt lat="43.3549217" lon="11.9376517"><ele>396.20000000000005</ele><time>2026-05-03T08:43:31.753Z</time></trkpt><trkpt lat="43.3548583" lon="11.93768"><ele>393.79999999999995</ele><time>2026-05-03T08:43:32.75Z</time></trkpt><trkpt lat="43.35479" lon="11.9377067"><ele>391.4</ele><time>2026-05-03T08:43:33.755Z</time></trkpt><trkpt lat="43.3546683" lon="11.93774"><ele>389.0</ele><time>2026-05-03T08:43:35.758Z</time></trkpt><trkpt lat="43.3546017" lon="11.9377383"><ele>388.3333333333333</ele><time>2026-05-03T08:43:36.745Z</time></trkpt><trkpt lat="43.35454" lon="11.9377083"><ele>387.66666666666663</ele><time>2026-05-03T08:43:37.755Z</time></trkpt><trkpt lat="43.3544433" lon="11.9375867"><ele>387.0</ele><time>2026-05-03T08:43:39.75Z</time></trkpt><trkpt lat="43.3544" lon="11.9375117"><ele>386.33333333333337</ele><time>2026-05-03T08:43:40.761Z</time></trkpt><trkpt lat="43.3543617" lon="11.9374283"><ele>385.6666666666667</ele><time>2026-05-03T08:43:41.752Z</time></trkpt><trkpt lat="43.3543267" lon="11.9373333"><ele>385.0</ele><time>2026-05-03T08:43:42.749Z</time></trkpt><trkpt lat="43.354305" lon="11.93723"><ele>385.00000000000006</ele><time>2026-05-03T08:43:43.755Z</time></trkpt><trkpt lat="43.3542967" lon="11.9371233"><ele>385.0</ele><time>2026-05-03T08:43:44.75Z</time></trkpt><trkpt lat="43.354295" lon="11.9370133"><ele>385.0</ele><time>2026-05-03T08:43:45.758Z</time></trkpt><trkpt lat="43.354305" lon="11.9369033"><ele>385.0</ele><time>2026-05-03T08:43:46.76Z</time></trkpt><trkpt lat="43.354315" lon="11.9367983"><ele>385.00000000000006</ele><time>2026-05-03T08:43:47.761Z</time></trkpt><trkpt lat="43.35433" lon="11.9366967"><ele>385.0</ele><time>2026-05-03T08:43:48.743Z</time></trkpt><trkpt lat="43.3543433" lon="11.936595"><ele>385.0</ele><time>2026-05-03T08:43:49.758Z</time></trkpt><trkpt lat="43.354365" lon="11.9365"><ele>385.0</ele><time>2026-05-03T08:43:50.759Z</time></trkpt><trkpt lat="43.3543817" lon="11.9363967"><ele>385.0</ele><time>2026-05-03T08:43:51.756Z</time></trkpt><trkpt lat="43.3543983" lon="11.9363017"><ele>385.0</ele><time>2026-05-03T08:43:52.759Z</time></trkpt><trkpt lat="43.3544" lon="11.9361983"><ele>385.0</ele><time>2026-05-03T08:43:53.748Z</time></trkpt><trkpt lat="43.3544" lon="11.936105"><ele>385.0</ele><time>2026-05-03T08:43:54.751Z</time></trkpt><trkpt lat="43.35439" lon="11.9360033"><ele>385.0</ele><time>2026-05-03T08:43:55.759Z</time></trkpt><trkpt lat="43.3543683" lon="11.93592"><ele>384.7142857142857</ele><time>2026-05-03T08:43:56.747Z</time></trkpt><trkpt lat="43.35433" lon="11.9358283"><ele>384.42857142857144</ele><time>2026-05-03T08:43:57.752Z</time></trkpt><trkpt lat="43.35429" lon="11.9357417"><ele>384.1428571428571</ele><time>2026-05-03T08:43:58.754Z</time></trkpt><trkpt lat="43.3542533" lon="11.9356533"><ele>383.8571428571429</ele><time>2026-05-03T08:43:59.75Z</time></trkpt><trkpt lat="43.3542283" lon="11.9355633"><ele>383.57142857142856</ele><time>2026-05-03T08:44:00.751Z</time></trkpt><trkpt lat="43.3542017" lon="11.93547"><ele>383.2857142857143</ele><time>2026-05-03T08:44:01.748Z</time></trkpt><trkpt lat="43.354195" lon="11.93538"><ele>383.0</ele><time>2026-05-03T08:44:02.756Z</time></trkpt><trkpt lat="43.3542067" lon="11.9352867"><ele>383.0</ele><time>2026-05-03T08:44:03.751Z</time></trkpt><trkpt lat="43.3542233" lon="11.9351883"><ele>383.0</ele><time>2026-05-03T08:44:04.752Z</time></trkpt><trkpt lat="43.354255" lon="11.935105"><ele>383.0</ele><time>2026-05-03T08:44:05.757Z</time></trkpt><trkpt lat="43.354295" lon="11.935035"><ele>383.0</ele><time>2026-05-03T08:44:06.748Z</time></trkpt><trkpt lat="43.3543467" lon="11.93497"><ele>383.0</ele><time>2026-05-03T08:44:07.755Z</time></trkpt><trkpt lat="43.354395" lon="11.9349033"><ele>383.0</ele><time>2026-05-03T08:44:08.761Z</time></trkpt><trkpt lat="43.3544883" lon="11.934795"><ele>382.0</ele><time>2026-05-03T08:44:10.754Z</time></trkpt><trkpt lat="43.354575" lon="11.9346933"><ele>381.0</ele><time>2026-05-03T08:44:12.752Z</time></trkpt><trkpt lat="43.3546483" lon="11.9345583"><ele>380.0</ele><time>2026-05-03T08:44:14.755Z</time></trkpt><trkpt lat="43.35465" lon="11.93442"><ele>379.0</ele><time>2026-05-03T08:44:16.756Z</time></trkpt><trkpt lat="43.35458" lon="11.934295"><ele>379.00000000000006</ele><time>2026-05-03T08:44:18.754Z</time></trkpt><trkpt lat="43.35452" lon="11.9342617"><ele>379.0</ele><time>2026-05-03T08:44:19.75Z</time></trkpt><trkpt lat="43.3544517" lon="11.9342417"><ele>379.0</ele><time>2026-05-03T08:44:20.751Z</time></trkpt><trkpt lat="43.3543817" lon="11.9342167"><ele>379.0</ele><time>2026-05-03T08:44:21.753Z</time></trkpt><trkpt lat="43.354305" lon="11.9341917"><ele>379.0</ele><time>2026-05-03T08:44:22.754Z</time></trkpt><trkpt lat="43.3542317" lon="11.934175"><ele>379.00000000000006</ele><time>2026-05-03T08:44:23.764Z</time></trkpt><trkpt lat="43.3541617" lon="11.9341617"><ele>379.0</ele><time>2026-05-03T08:44:24.754Z</time></trkpt><trkpt lat="43.354095" lon="11.934155"><ele>379.8571428571429</ele><time>2026-05-03T08:44:25.763Z</time></trkpt><trkpt lat="43.3540283" lon="11.9341367"><ele>380.7142857142857</ele><time>2026-05-03T08:44:26.748Z</time></trkpt><trkpt lat="43.35395" lon="11.9341283"><ele>381.57142857142856</ele><time>2026-05-03T08:44:27.751Z</time></trkpt><trkpt lat="43.3538783" lon="11.9341167"><ele>382.42857142857144</ele><time>2026-05-03T08:44:28.758Z</time></trkpt><trkpt lat="43.3538083" lon="11.9340983"><ele>383.2857142857143</ele><time>2026-05-03T08:44:29.751Z</time></trkpt><trkpt lat="43.3537333" lon="11.9340833"><ele>384.14285714285717</ele><time>2026-05-03T08:44:30.752Z</time></trkpt><trkpt lat="43.3536617" lon="11.9340717"><ele>385.0</ele><time>2026-05-03T08:44:31.753Z</time></trkpt><trkpt lat="43.3535917" lon="11.9340583"><ele>383.0</ele><time>2026-05-03T08:44:32.758Z</time></trkpt><trkpt lat="43.3535183" lon="11.9340383"><ele>381.0</ele><time>2026-05-03T08:44:33.762Z</time></trkpt><trkpt lat="43.3534467" lon="11.93402"><ele>379.0</ele><time>2026-05-03T08:44:34.758Z</time></trkpt><trkpt lat="43.353375" lon="11.9340067"><ele>377.0</ele><time>2026-05-03T08:44:35.771Z</time></trkpt><trkpt lat="43.3533" lon="11.9339983"><ele>375.0</ele><time>2026-05-03T08:44:36.746Z</time></trkpt><trkpt lat="43.3532267" lon="11.933985"><ele>373.0</ele><time>2026-05-03T08:44:37.751Z</time></trkpt><trkpt lat="43.3531517" lon="11.9339667"><ele>371.0</ele><time>2026-05-03T08:44:38.758Z</time></trkpt><trkpt lat="43.3530833" lon="11.9339433"><ele>369.2857142857143</ele><time>2026-05-03T08:44:39.751Z</time></trkpt><trkpt lat="43.353015" lon="11.93392"><ele>367.57142857142856</ele><time>2026-05-03T08:44:40.754Z</time></trkpt><trkpt lat="43.35295" lon="11.933895"><ele>365.8571428571429</ele><time>2026-05-03T08:44:41.755Z</time></trkpt><trkpt lat="43.3528833" lon="11.9338517"><ele>364.1428571428571</ele><time>2026-05-03T08:44:42.758Z</time></trkpt><trkpt lat="43.3528283" lon="11.933795"><ele>362.42857142857144</ele><time>2026-05-03T08:44:43.76Z</time></trkpt><trkpt lat="43.35278" lon="11.9337217"><ele>360.7142857142857</ele><time>2026-05-03T08:44:44.758Z</time></trkpt><trkpt lat="43.3527433" lon="11.9336317"><ele>359.0</ele><time>2026-05-03T08:44:45.755Z</time></trkpt><trkpt lat="43.3527117" lon="11.9335333"><ele>359.0</ele><time>2026-05-03T08:44:46.748Z</time></trkpt><trkpt lat="43.3526933" lon="11.9334283"><ele>359.0</ele><time>2026-05-03T08:44:47.748Z</time></trkpt><trkpt lat="43.3526817" lon="11.9333233"><ele>359.0</ele><time>2026-05-03T08:44:48.742Z</time></trkpt><trkpt lat="43.35267" lon="11.933215"><ele>359.0</ele><time>2026-05-03T08:44:49.757Z</time></trkpt><trkpt lat="43.3526583" lon="11.9331167"><ele>359.0</ele><time>2026-05-03T08:44:50.746Z</time></trkpt><trkpt lat="43.3526533" lon="11.9330233"><ele>359.0</ele><time>2026-05-03T08:44:51.749Z</time></trkpt><trkpt lat="43.352665" lon="11.9329367"><ele>359.0</ele><time>2026-05-03T08:44:52.757Z</time></trkpt><trkpt lat="43.3526867" lon="11.93285"><ele>358.6666666666667</ele><time>2026-05-03T08:44:53.757Z</time></trkpt><trkpt lat="43.352725" lon="11.9327583"><ele>358.33333333333337</ele><time>2026-05-03T08:44:54.76Z</time></trkpt><trkpt lat="43.3527683" lon="11.9326667"><ele>358.0</ele><time>2026-05-03T08:44:55.751Z</time></trkpt><trkpt lat="43.3528133" lon="11.93258"><ele>357.6666666666667</ele><time>2026-05-03T08:44:56.749Z</time></trkpt><trkpt lat="43.3528517" lon="11.9324933"><ele>357.3333333333333</ele><time>2026-05-03T08:44:57.743Z</time></trkpt><trkpt lat="43.3528883" lon="11.9323367"><ele>357.0</ele><time>2026-05-03T08:44:59.757Z</time></trkpt><trkpt lat="43.3529067" lon="11.9321633"><ele>357.0</ele><time>2026-05-03T08:45:01.751Z</time></trkpt><trkpt lat="43.352915" lon="11.9319933"><ele>357.0</ele><time>2026-05-03T08:45:03.75Z</time></trkpt><trkpt lat="43.3529367" lon="11.9318333"><ele>357.0</ele><time>2026-05-03T08:45:05.759Z</time></trkpt><trkpt lat="43.3529383" lon="11.9317433"><ele>357.0</ele><time>2026-05-03T08:45:06.749Z</time></trkpt><trkpt lat="43.35294" lon="11.9316467"><ele>357.0</ele><time>2026-05-03T08:45:07.758Z</time></trkpt><trkpt lat="43.352945" lon="11.93155"><ele>357.0</ele><time>2026-05-03T08:45:08.744Z</time></trkpt><trkpt lat="43.35295" lon="11.9314417"><ele>356.2857142857143</ele><time>2026-05-03T08:45:09.745Z</time></trkpt><trkpt lat="43.3529483" lon="11.9313467"><ele>355.57142857142856</ele><time>2026-05-03T08:45:10.762Z</time></trkpt><trkpt lat="43.3529433" lon="11.9312567"><ele>354.8571428571429</ele><time>2026-05-03T08:45:11.76Z</time></trkpt><trkpt lat="43.35295" lon="11.9311633"><ele>354.1428571428571</ele><time>2026-05-03T08:45:12.765Z</time></trkpt><trkpt lat="43.3529533" lon="11.93107"><ele>353.42857142857144</ele><time>2026-05-03T08:45:13.754Z</time></trkpt><trkpt lat="43.352965" lon="11.9309633"><ele>352.7142857142857</ele><time>2026-05-03T08:45:14.757Z</time></trkpt><trkpt lat="43.35298" lon="11.9308683"><ele>352.0</ele><time>2026-05-03T08:45:15.762Z</time></trkpt><trkpt lat="43.352995" lon="11.93077"><ele>352.0</ele><time>2026-05-03T08:45:16.749Z</time></trkpt><trkpt lat="43.3530033" lon="11.9306683"><ele>352.0</ele><time>2026-05-03T08:45:17.758Z</time></trkpt><trkpt lat="43.3530083" lon="11.9305717"><ele>352.0</ele><time>2026-05-03T08:45:18.749Z</time></trkpt><trkpt lat="43.35301" lon="11.9304833"><ele>352.0</ele><time>2026-05-03T08:45:19.751Z</time></trkpt><trkpt lat="43.35302" lon="11.9302917"><ele>352.0</ele><time>2026-05-03T08:45:21.761Z</time></trkpt><trkpt lat="43.3530333" lon="11.9301817"><ele>352.0</ele><time>2026-05-03T08:45:22.752Z</time></trkpt><trkpt lat="43.3530483" lon="11.9300767"><ele>355.8333333333333</ele><time>2026-05-03T08:45:23.762Z</time></trkpt><trkpt lat="43.3530633" lon="11.92997"><ele>359.66666666666663</ele><time>2026-05-03T08:45:24.755Z</time></trkpt><trkpt lat="43.353085" lon="11.929865"><ele>363.5</ele><time>2026-05-03T08:45:25.75Z</time></trkpt><trkpt lat="43.3531067" lon="11.929765"><ele>367.3333333333333</ele><time>2026-05-03T08:45:26.751Z</time></trkpt><trkpt lat="43.35313" lon="11.9296683"><ele>371.1666666666667</ele><time>2026-05-03T08:45:27.744Z</time></trkpt><trkpt lat="43.35315" lon="11.92958"><ele>375.0</ele><time>2026-05-03T08:45:28.752Z</time></trkpt><trkpt lat="43.353175" lon="11.9294183"><ele>375.0</ele><time>2026-05-03T08:45:30.757Z</time></trkpt><trkpt lat="43.3531833" lon="11.9293267"><ele>375.0</ele><time>2026-05-03T08:45:31.761Z</time></trkpt><trkpt lat="43.3531533" lon="11.9291767"><ele>375.0</ele><time>2026-05-03T08:45:33.746Z</time></trkpt><trkpt lat="43.35312" lon="11.929025"><ele>375.0</ele><time>2026-05-03T08:45:35.752Z</time></trkpt><trkpt lat="43.3530683" lon="11.9288917"><ele>375.0</ele><time>2026-05-03T08:45:37.751Z</time></trkpt><trkpt lat="43.3530067" lon="11.928765"><ele>368.75</ele><time>2026-05-03T08:45:39.754Z</time></trkpt><trkpt lat="43.352925" lon="11.9286717"><ele>362.5</ele><time>2026-05-03T08:45:41.759Z</time></trkpt><trkpt lat="43.3528083" lon="11.92865"><ele>356.25</ele><time>2026-05-03T08:45:43.755Z</time></trkpt><trkpt lat="43.3526983" lon="11.9286333"><ele>350.0</ele><time>2026-05-03T08:45:45.754Z</time></trkpt><trkpt lat="43.35258" lon="11.9286417"><ele>350.0</ele><time>2026-05-03T08:45:47.753Z</time></trkpt><trkpt lat="43.3524617" lon="11.9286383"><ele>350.0</ele><time>2026-05-03T08:45:49.762Z</time></trkpt><trkpt lat="43.3523983" lon="11.9286317"><ele>350.0</ele><time>2026-05-03T08:45:50.757Z</time></trkpt><trkpt lat="43.3522783" lon="11.9286067"><ele>350.0</ele><time>2026-05-03T08:45:52.757Z</time></trkpt><trkpt lat="43.3521567" lon="11.928585"><ele>350.0</ele><time>2026-05-03T08:45:54.751Z</time></trkpt><trkpt lat="43.3520283" lon="11.92856"><ele>348.0</ele><time>2026-05-03T08:45:56.752Z</time></trkpt><trkpt lat="43.3519033" lon="11.9285383"><ele>346.0</ele><time>2026-05-03T08:45:58.748Z</time></trkpt><trkpt lat="43.35178" lon="11.92851"><ele>344.0</ele><time>2026-05-03T08:46:00.748Z</time></trkpt><trkpt lat="43.3517133" lon="11.9284933"><ele>342.0</ele><time>2026-05-03T08:46:01.75Z</time></trkpt><trkpt lat="43.3515967" lon="11.9284633"><ele>340.0</ele><time>2026-05-03T08:46:03.752Z</time></trkpt><trkpt lat="43.35148" lon="11.928435"><ele>340.0</ele><time>2026-05-03T08:46:05.748Z</time></trkpt><trkpt lat="43.3514167" lon="11.9284183"><ele>340.0</ele><time>2026-05-03T08:46:06.755Z</time></trkpt><trkpt lat="43.3512983" lon="11.9283733"><ele>340.0</ele><time>2026-05-03T08:46:08.753Z</time></trkpt><trkpt lat="43.3511933" lon="11.92831"><ele>340.0</ele><time>2026-05-03T08:46:10.755Z</time></trkpt><trkpt lat="43.3510833" lon="11.92823"><ele>340.0</ele><time>2026-05-03T08:46:12.757Z</time></trkpt><trkpt lat="43.3510283" lon="11.9281867"><ele>341.8333333333333</ele><time>2026-05-03T08:46:13.75Z</time></trkpt><trkpt lat="43.3509317" lon="11.9280817"><ele>343.66666666666663</ele><time>2026-05-03T08:46:15.752Z</time></trkpt><trkpt lat="43.3508883" lon="11.9280117"><ele>345.5</ele><time>2026-05-03T08:46:16.75Z</time></trkpt><trkpt lat="43.3508483" lon="11.92793"><ele>347.3333333333333</ele><time>2026-05-03T08:46:17.755Z</time></trkpt><trkpt lat="43.3508183" lon="11.927845"><ele>349.1666666666667</ele><time>2026-05-03T08:46:18.752Z</time></trkpt><trkpt lat="43.3507983" lon="11.9277483"><ele>351.0</ele><time>2026-05-03T08:46:19.76Z</time></trkpt><trkpt lat="43.35079" lon="11.9276517"><ele>351.0</ele><time>2026-05-03T08:46:20.748Z</time></trkpt><trkpt lat="43.350795" lon="11.92755"><ele>351.0</ele><time>2026-05-03T08:46:21.75Z</time></trkpt><trkpt lat="43.35081" lon="11.9274533"><ele>351.0</ele><time>2026-05-03T08:46:22.749Z</time></trkpt><trkpt lat="43.3508183" lon="11.9273533"><ele>351.0</ele><time>2026-05-03T08:46:23.754Z</time></trkpt><trkpt lat="43.3508317" lon="11.92725"><ele>351.0</ele><time>2026-05-03T08:46:24.75Z</time></trkpt><trkpt lat="43.35084" lon="11.9271433"><ele>351.0</ele><time>2026-05-03T08:46:25.75Z</time></trkpt><trkpt lat="43.350855" lon="11.927035"><ele>351.00000000000006</ele><time>2026-05-03T08:46:26.749Z</time></trkpt><trkpt lat="43.3508683" lon="11.9269283"><ele>351.0</ele><time>2026-05-03T08:46:27.741Z</time></trkpt><trkpt lat="43.3508833" lon="11.92683"><ele>351.0</ele><time>2026-05-03T08:46:28.753Z</time></trkpt><trkpt lat="43.350895" lon="11.9267283"><ele>351.0</ele><time>2026-05-03T08:46:29.757Z</time></trkpt><trkpt lat="43.3509067" lon="11.9266317"><ele>351.0</ele><time>2026-05-03T08:46:30.751Z</time></trkpt><trkpt lat="43.3509217" lon="11.9265367"><ele>351.00000000000006</ele><time>2026-05-03T08:46:31.755Z</time></trkpt><trkpt lat="43.3509367" lon="11.9264367"><ele>351.0</ele><time>2026-05-03T08:46:32.755Z</time></trkpt><trkpt lat="43.3509517" lon="11.9263467"><ele>350.14285714285717</ele><time>2026-05-03T08:46:33.747Z</time></trkpt><trkpt lat="43.3509767" lon="11.926255"><ele>349.2857142857143</ele><time>2026-05-03T08:46:34.766Z</time></trkpt><trkpt lat="43.3510083" lon="11.926165"><ele>348.42857142857144</ele><time>2026-05-03T08:46:35.749Z</time></trkpt><trkpt lat="43.351035" lon="11.926075"><ele>347.57142857142856</ele><time>2026-05-03T08:46:36.751Z</time></trkpt><trkpt lat="43.3510667" lon="11.92598"><ele>346.7142857142857</ele><time>2026-05-03T08:46:37.757Z</time></trkpt><trkpt lat="43.351095" lon="11.925885"><ele>345.8571428571429</ele><time>2026-05-03T08:46:38.761Z</time></trkpt><trkpt lat="43.3511217" lon="11.9257933"><ele>345.0</ele><time>2026-05-03T08:46:39.75Z</time></trkpt><trkpt lat="43.3511517" lon="11.9257"><ele>344.4</ele><time>2026-05-03T08:46:40.753Z</time></trkpt><trkpt lat="43.3511833" lon="11.9256117"><ele>343.8</ele><time>2026-05-03T08:46:41.749Z</time></trkpt><trkpt lat="43.3512133" lon="11.9255333"><ele>343.20000000000005</ele><time>2026-05-03T08:46:42.751Z</time></trkpt><trkpt lat="43.3512433" lon="11.9253767"><ele>342.6</ele><time>2026-05-03T08:46:44.749Z</time></trkpt><trkpt lat="43.351235" lon="11.9252367"><ele>342.0</ele><time>2026-05-03T08:46:46.751Z</time></trkpt><trkpt lat="43.3511567" lon="11.9251383"><ele>342.0</ele><time>2026-05-03T08:46:48.753Z</time></trkpt><trkpt lat="43.3510533" lon="11.9250967"><ele>342.0</ele><time>2026-05-03T08:46:50.754Z</time></trkpt><trkpt lat="43.350935" lon="11.9250783"><ele>342.0</ele><time>2026-05-03T08:46:52.758Z</time></trkpt><trkpt lat="43.35087" lon="11.92507"><ele>342.0</ele><time>2026-05-03T08:46:53.75Z</time></trkpt><trkpt lat="43.3508067" lon="11.9250683"><ele>342.0</ele><time>2026-05-03T08:46:54.758Z</time></trkpt><trkpt lat="43.35073" lon="11.9250683"><ele>342.0</ele><time>2026-05-03T08:46:55.753Z</time></trkpt><trkpt lat="43.3506583" lon="11.9250767"><ele>341.99999999999994</ele><time>2026-05-03T08:46:56.747Z</time></trkpt><trkpt lat="43.3505917" lon="11.9250983"><ele>342.0</ele><time>2026-05-03T08:46:57.762Z</time></trkpt><trkpt lat="43.35053" lon="11.9251233"><ele>342.0</ele><time>2026-05-03T08:46:58.752Z</time></trkpt><trkpt lat="43.3504667" lon="11.9251483"><ele>342.0</ele><time>2026-05-03T08:46:59.762Z</time></trkpt><trkpt lat="43.3504083" lon="11.9251883"><ele>342.0</ele><time>2026-05-03T08:47:00.755Z</time></trkpt><trkpt lat="43.3503517" lon="11.9252333"><ele>341.99999999999994</ele><time>2026-05-03T08:47:01.755Z</time></trkpt><trkpt lat="43.3502883" lon="11.92529"><ele>342.0</ele><time>2026-05-03T08:47:02.756Z</time></trkpt><trkpt lat="43.3502317" lon="11.92534"><ele>340.5</ele><time>2026-05-03T08:47:03.755Z</time></trkpt><trkpt lat="43.350165" lon="11.9254"><ele>339.0</ele><time>2026-05-03T08:47:04.758Z</time></trkpt><trkpt lat="43.350095" lon="11.9254583"><ele>337.5</ele><time>2026-05-03T08:47:05.752Z</time></trkpt><trkpt lat="43.3500183" lon="11.92551"><ele>336.0</ele><time>2026-05-03T08:47:06.762Z</time></trkpt><trkpt lat="43.3499367" lon="11.9255617"><ele>334.5</ele><time>2026-05-03T08:47:07.756Z</time></trkpt><trkpt lat="43.3498533" lon="11.9256117"><ele>333.0</ele><time>2026-05-03T08:47:08.758Z</time></trkpt><trkpt lat="43.349775" lon="11.9256533"><ele>333.3333333333333</ele><time>2026-05-03T08:47:09.752Z</time></trkpt><trkpt lat="43.3497" lon="11.9256917"><ele>333.6666666666667</ele><time>2026-05-03T08:47:10.75Z</time></trkpt><trkpt lat="43.3496267" lon="11.9257283"><ele>334.0</ele><time>2026-05-03T08:47:11.759Z</time></trkpt><trkpt lat="43.349555" lon="11.9257617"><ele>334.33333333333337</ele><time>2026-05-03T08:47:12.746Z</time></trkpt><trkpt lat="43.3494833" lon="11.925795"><ele>334.6666666666667</ele><time>2026-05-03T08:47:13.777Z</time></trkpt><trkpt lat="43.3494083" lon="11.925815"><ele>335.0</ele><time>2026-05-03T08:47:14.762Z</time></trkpt><trkpt lat="43.3493333" lon="11.925825"><ele>335.0</ele><time>2026-05-03T08:47:15.764Z</time></trkpt><trkpt lat="43.3492567" lon="11.9258283"><ele>335.0</ele><time>2026-05-03T08:47:16.749Z</time></trkpt><trkpt lat="43.3491817" lon="11.9258167"><ele>335.0</ele><time>2026-05-03T08:47:17.752Z</time></trkpt><trkpt lat="43.3491033" lon="11.9258017"><ele>335.0</ele><time>2026-05-03T08:47:18.745Z</time></trkpt><trkpt lat="43.3490267" lon="11.9257733"><ele>335.0</ele><time>2026-05-03T08:47:19.752Z</time></trkpt><trkpt lat="43.3489533" lon="11.9257333"><ele>335.0</ele><time>2026-05-03T08:47:20.751Z</time></trkpt><trkpt lat="43.3488833" lon="11.9256767"><ele>332.85714285714283</ele><time>2026-05-03T08:47:21.749Z</time></trkpt><trkpt lat="43.3488217" lon="11.9256083"><ele>330.7142857142857</ele><time>2026-05-03T08:47:22.751Z</time></trkpt><trkpt lat="43.3487717" lon="11.9255267"><ele>328.57142857142856</ele><time>2026-05-03T08:47:23.749Z</time></trkpt><trkpt lat="43.3487317" lon="11.9254433"><ele>326.42857142857144</ele><time>2026-05-03T08:47:24.75Z</time></trkpt><trkpt lat="43.3487017" lon="11.92536"><ele>324.2857142857143</ele><time>2026-05-03T08:47:25.756Z</time></trkpt><trkpt lat="43.34868" lon="11.9252733"><ele>322.1428571428571</ele><time>2026-05-03T08:47:26.758Z</time></trkpt><trkpt lat="43.348655" lon="11.92519"><ele>320.0</ele><time>2026-05-03T08:47:27.758Z</time></trkpt><trkpt lat="43.348625" lon="11.92511"><ele>322.2857142857143</ele><time>2026-05-03T08:47:28.76Z</time></trkpt><trkpt lat="43.3485867" lon="11.92504"><ele>324.57142857142856</ele><time>2026-05-03T08:47:29.755Z</time></trkpt><trkpt lat="43.3485367" lon="11.9249867"><ele>326.8571428571429</ele><time>2026-05-03T08:47:30.756Z</time></trkpt><trkpt lat="43.3484183" lon="11.9249467"><ele>329.1428571428571</ele><time>2026-05-03T08:47:32.747Z</time></trkpt><trkpt lat="43.348355" lon="11.9249533"><ele>331.42857142857144</ele><time>2026-05-03T08:47:33.762Z</time></trkpt><trkpt lat="43.34829" lon="11.924965"><ele>333.7142857142857</ele><time>2026-05-03T08:47:34.753Z</time></trkpt><trkpt lat="43.3482217" lon="11.92498"><ele>336.0</ele><time>2026-05-03T08:47:35.763Z</time></trkpt><trkpt lat="43.348155" lon="11.9249983"><ele>336.0</ele><time>2026-05-03T08:47:36.751Z</time></trkpt><trkpt lat="43.3480867" lon="11.92502"><ele>336.0</ele><time>2026-05-03T08:47:37.753Z</time></trkpt><trkpt lat="43.3480233" lon="11.9250417"><ele>336.0</ele><time>2026-05-03T08:47:38.748Z</time></trkpt><trkpt lat="43.3479583" lon="11.925065"><ele>336.0</ele><time>2026-05-03T08:47:39.752Z</time></trkpt><trkpt lat="43.3478967" lon="11.9250967"><ele>336.0</ele><time>2026-05-03T08:47:40.744Z</time></trkpt><trkpt lat="43.3478383" lon="11.9251383"><ele>336.0</ele><time>2026-05-03T08:47:41.75Z</time></trkpt><trkpt lat="43.347785" lon="11.92519"><ele>336.0</ele><time>2026-05-03T08:47:42.767Z</time></trkpt><trkpt lat="43.3477317" lon="11.9252483"><ele>333.3333333333333</ele><time>2026-05-03T08:47:43.762Z</time></trkpt><trkpt lat="43.347675" lon="11.925315"><ele>330.6666666666667</ele><time>2026-05-03T08:47:44.765Z</time></trkpt><trkpt lat="43.347615" lon="11.92538"><ele>328.0</ele><time>2026-05-03T08:47:45.745Z</time></trkpt><trkpt lat="43.34755" lon="11.9254367"><ele>325.33333333333337</ele><time>2026-05-03T08:47:46.75Z</time></trkpt><trkpt lat="43.347475" lon="11.9254783"><ele>322.6666666666667</ele><time>2026-05-03T08:47:47.755Z</time></trkpt><trkpt lat="43.3474" lon="11.92549"><ele>320.0</ele><time>2026-05-03T08:47:48.76Z</time></trkpt><trkpt lat="43.3473233" lon="11.9254883"><ele>320.0</ele><time>2026-05-03T08:47:49.754Z</time></trkpt><trkpt lat="43.347245" lon="11.92548"><ele>320.0</ele><time>2026-05-03T08:47:50.767Z</time></trkpt><trkpt lat="43.3471667" lon="11.9254667"><ele>320.0</ele><time>2026-05-03T08:47:51.751Z</time></trkpt><trkpt lat="43.34709" lon="11.92545"><ele>320.0</ele><time>2026-05-03T08:47:52.757Z</time></trkpt><trkpt lat="43.3470167" lon="11.92542"><ele>320.0</ele><time>2026-05-03T08:47:53.755Z</time></trkpt><trkpt lat="43.3469417" lon="11.9253833"><ele>320.0</ele><time>2026-05-03T08:47:54.754Z</time></trkpt><trkpt lat="43.34687" lon="11.925345"><ele>319.0</ele><time>2026-05-03T08:47:55.753Z</time></trkpt><trkpt lat="43.346805" lon="11.9253033"><ele>318.0</ele><time>2026-05-03T08:47:56.755Z</time></trkpt><trkpt lat="43.3467417" lon="11.9252583"><ele>317.0</ele><time>2026-05-03T08:47:57.754Z</time></trkpt><trkpt lat="43.3466767" lon="11.9252167"><ele>316.0</ele><time>2026-05-03T08:47:58.754Z</time></trkpt><trkpt lat="43.3466133" lon="11.925175"><ele>315.0</ele><time>2026-05-03T08:47:59.748Z</time></trkpt><trkpt lat="43.346555" lon="11.9251317"><ele>314.0</ele><time>2026-05-03T08:48:00.76Z</time></trkpt><trkpt lat="43.346445" lon="11.9250483"><ele>314.75</ele><time>2026-05-03T08:48:02.748Z</time></trkpt><trkpt lat="43.3463383" lon="11.9249817"><ele>315.5</ele><time>2026-05-03T08:48:04.758Z</time></trkpt><trkpt lat="43.34624" lon="11.9249267"><ele>316.25</ele><time>2026-05-03T08:48:06.762Z</time></trkpt><trkpt lat="43.346125" lon="11.9248517"><ele>317.0</ele><time>2026-05-03T08:48:08.75Z</time></trkpt><trkpt lat="43.3460217" lon="11.9247783"><ele>317.0</ele><time>2026-05-03T08:48:10.758Z</time></trkpt><trkpt lat="43.3459283" lon="11.9247067"><ele>317.0</ele><time>2026-05-03T08:48:12.759Z</time></trkpt><trkpt lat="43.34583" lon="11.92463"><ele>317.0</ele><time>2026-05-03T08:48:14.748Z</time></trkpt><trkpt lat="43.345735" lon="11.9245533"><ele>317.0</ele><time>2026-05-03T08:48:16.747Z</time></trkpt><trkpt lat="43.3456417" lon="11.9244683"><ele>317.0</ele><time>2026-05-03T08:48:18.749Z</time></trkpt><trkpt lat="43.345555" lon="11.9243633"><ele>317.2</ele><time>2026-05-03T08:48:20.754Z</time></trkpt><trkpt lat="43.34547" lon="11.9242583"><ele>317.4</ele><time>2026-05-03T08:48:22.748Z</time></trkpt><trkpt lat="43.3453867" lon="11.9241633"><ele>317.6</ele><time>2026-05-03T08:48:24.755Z</time></trkpt><trkpt lat="43.3453133" lon="11.9240717"><ele>317.8</ele><time>2026-05-03T08:48:26.76Z</time></trkpt><trkpt lat="43.3452367" lon="11.92397"><ele>318.0</ele><time>2026-05-03T08:48:28.754Z</time></trkpt><trkpt lat="43.345165" lon="11.9238617"><ele>318.0</ele><time>2026-05-03T08:48:30.751Z</time></trkpt><trkpt lat="43.3450983" lon="11.9237467"><ele>318.0</ele><time>2026-05-03T08:48:32.765Z</time></trkpt><trkpt lat="43.3450383" lon="11.9236333"><ele>318.0</ele><time>2026-05-03T08:48:34.752Z</time></trkpt><trkpt lat="43.34497" lon="11.92352"><ele>318.0</ele><time>2026-05-03T08:48:36.752Z</time></trkpt><trkpt lat="43.3448983" lon="11.9234067"><ele>318.0</ele><time>2026-05-03T08:48:38.749Z</time></trkpt><trkpt lat="43.3448233" lon="11.923315"><ele>318.3333333333333</ele><time>2026-05-03T08:48:40.757Z</time></trkpt><trkpt lat="43.3447417" lon="11.9232917"><ele>318.6666666666667</ele><time>2026-05-03T08:48:42.748Z</time></trkpt><trkpt lat="43.3446533" lon="11.92329"><ele>319.0</ele><time>2026-05-03T08:48:44.75Z</time></trkpt><trkpt lat="43.3445717" lon="11.92327"><ele>319.33333333333337</ele><time>2026-05-03T08:48:46.752Z</time></trkpt><trkpt lat="43.34449" lon="11.923255"><ele>319.6666666666667</ele><time>2026-05-03T08:48:48.753Z</time></trkpt><trkpt lat="43.3444133" lon="11.9232433"><ele>320.0</ele><time>2026-05-03T08:48:50.757Z</time></trkpt><trkpt lat="43.3443433" lon="11.9232283"><ele>320.0</ele><time>2026-05-03T08:48:52.754Z</time></trkpt><trkpt lat="43.3442633" lon="11.9232033"><ele>320.0</ele><time>2026-05-03T08:48:56.753Z</time></trkpt><trkpt lat="43.3441967" lon="11.92319"><ele>320.0</ele><time>2026-05-03T08:48:59.756Z</time></trkpt><trkpt lat="43.3441183" lon="11.9231833"><ele>320.0</ele><time>2026-05-03T08:49:02.754Z</time></trkpt><trkpt lat="43.3440367" lon="11.9232133"><ele>320.0</ele><time>2026-05-03T08:49:05.753Z</time></trkpt><trkpt lat="43.3439517" lon="11.9232467"><ele>320.0</ele><time>2026-05-03T08:49:08.754Z</time></trkpt><trkpt lat="43.3438733" lon="11.9232867"><ele>320.1428571428571</ele><time>2026-05-03T08:49:11.762Z</time></trkpt><trkpt lat="43.3438433" lon="11.923395"><ele>320.2857142857143</ele><time>2026-05-03T08:49:14.754Z</time></trkpt><trkpt lat="43.3438467" lon="11.9234867"><ele>320.42857142857144</ele><time>2026-05-03T08:49:16.75Z</time></trkpt><trkpt lat="43.3438333" lon="11.923575"><ele>320.57142857142856</ele><time>2026-05-03T08:49:18.743Z</time></trkpt><trkpt lat="43.3438383" lon="11.9236733"><ele>320.7142857142857</ele><time>2026-05-03T08:49:21.75Z</time></trkpt><trkpt lat="43.3439017" lon="11.9237"><ele>320.85714285714283</ele><time>2026-05-03T08:49:31.752Z</time></trkpt><trkpt lat="43.3439517" lon="11.92362"><ele>321.0</ele><time>2026-05-03T08:49:34.749Z</time></trkpt><trkpt lat="43.3440133" lon="11.9235667"><ele>318.0</ele><time>2026-05-03T08:49:36.755Z</time></trkpt><trkpt lat="43.34409" lon="11.9235217"><ele>315.0</ele><time>2026-05-03T08:49:38.745Z</time></trkpt><trkpt lat="43.3441867" lon="11.9234917"><ele>312.0</ele><time>2026-05-03T08:49:40.755Z</time></trkpt><trkpt lat="43.3442867" lon="11.9235167"><ele>309.0</ele><time>2026-05-03T08:49:42.756Z</time></trkpt><trkpt lat="43.34438" lon="11.9235667"><ele>306.0</ele><time>2026-05-03T08:49:44.748Z</time></trkpt><trkpt lat="43.3444617" lon="11.9236367"><ele>306.0</ele><time>2026-05-03T08:49:46.759Z</time></trkpt><trkpt lat="43.3445317" lon="11.9237283"><ele>306.0</ele><time>2026-05-03T08:49:48.76Z</time></trkpt><trkpt lat="43.3445733" lon="11.923855"><ele>306.0</ele><time>2026-05-03T08:49:50.747Z</time></trkpt><trkpt lat="43.3445633" lon="11.9240067"><ele>306.0</ele><time>2026-05-03T08:49:52.756Z</time></trkpt><trkpt lat="43.344475" lon="11.9241333"><ele>306.0</ele><time>2026-05-03T08:49:54.761Z</time></trkpt><trkpt lat="43.3444017" lon="11.9241767"><ele>306.0</ele><time>2026-05-03T08:49:55.755Z</time></trkpt><trkpt lat="43.34432" lon="11.9242183"><ele>306.0</ele><time>2026-05-03T08:49:56.752Z</time></trkpt><trkpt lat="43.3442283" lon="11.9242617"><ele>306.0</ele><time>2026-05-03T08:49:57.763Z</time></trkpt><trkpt lat="43.34414" lon="11.9242983"><ele>306.0</ele><time>2026-05-03T08:49:58.76Z</time></trkpt><trkpt lat="43.34405" lon="11.9243383"><ele>306.0</ele><time>2026-05-03T08:49:59.76Z</time></trkpt><trkpt lat="43.3439567" lon="11.9243783"><ele>302.8</ele><time>2026-05-03T08:50:00.755Z</time></trkpt><trkpt lat="43.343865" lon="11.9244183"><ele>299.6</ele><time>2026-05-03T08:50:01.751Z</time></trkpt><trkpt lat="43.3437667" lon="11.9244617"><ele>296.4</ele><time>2026-05-03T08:50:02.752Z</time></trkpt><trkpt lat="43.34367" lon="11.924505"><ele>293.2</ele><time>2026-05-03T08:50:03.76Z</time></trkpt><trkpt lat="43.343575" lon="11.9245433"><ele>290.0</ele><time>2026-05-03T08:50:04.759Z</time></trkpt><trkpt lat="43.343485" lon="11.9245783"><ele>290.0</ele><time>2026-05-03T08:50:05.764Z</time></trkpt><trkpt lat="43.3433933" lon="11.9246083"><ele>290.0</ele><time>2026-05-03T08:50:06.762Z</time></trkpt><trkpt lat="43.3433067" lon="11.9246317"><ele>290.0</ele><time>2026-05-03T08:50:07.758Z</time></trkpt><trkpt lat="43.3432167" lon="11.9246533"><ele>290.0</ele><time>2026-05-03T08:50:08.754Z</time></trkpt><trkpt lat="43.3431333" lon="11.9246667"><ele>290.0</ele><time>2026-05-03T08:50:09.752Z</time></trkpt><trkpt lat="43.3430567" lon="11.924685"><ele>290.0</ele><time>2026-05-03T08:50:10.754Z</time></trkpt><trkpt lat="43.3429833" lon="11.9247133"><ele>290.33333333333337</ele><time>2026-05-03T08:50:11.75Z</time></trkpt><trkpt lat="43.3429167" lon="11.9247417"><ele>290.6666666666667</ele><time>2026-05-03T08:50:12.763Z</time></trkpt><trkpt lat="43.342855" lon="11.9247683"><ele>291.0</ele><time>2026-05-03T08:50:13.75Z</time></trkpt><trkpt lat="43.34274" lon="11.92483"><ele>291.3333333333333</ele><time>2026-05-03T08:50:15.753Z</time></trkpt><trkpt lat="43.3426817" lon="11.9248683"><ele>291.66666666666663</ele><time>2026-05-03T08:50:16.758Z</time></trkpt><trkpt lat="43.3426217" lon="11.9249183"><ele>292.0</ele><time>2026-05-03T08:50:17.763Z</time></trkpt><trkpt lat="43.3425683" lon="11.9249883"><ele>290.0</ele><time>2026-05-03T08:50:18.751Z</time></trkpt><trkpt lat="43.342515" lon="11.9250733"><ele>288.0</ele><time>2026-05-03T08:50:19.75Z</time></trkpt><trkpt lat="43.34247" lon="11.9251667"><ele>286.0</ele><time>2026-05-03T08:50:20.761Z</time></trkpt><trkpt lat="43.34243" lon="11.925275"><ele>284.0</ele><time>2026-05-03T08:50:21.758Z</time></trkpt><trkpt lat="43.3423967" lon="11.9253883"><ele>282.0</ele><time>2026-05-03T08:50:22.761Z</time></trkpt><trkpt lat="43.342365" lon="11.9255033"><ele>280.0</ele><time>2026-05-03T08:50:23.756Z</time></trkpt><trkpt lat="43.342335" lon="11.9256217"><ele>280.0</ele><time>2026-05-03T08:50:24.759Z</time></trkpt><trkpt lat="43.3423117" lon="11.9257467"><ele>280.0</ele><time>2026-05-03T08:50:25.753Z</time></trkpt><trkpt lat="43.34229" lon="11.9258667"><ele>280.0</ele><time>2026-05-03T08:50:26.751Z</time></trkpt><trkpt lat="43.342265" lon="11.925985"><ele>280.0</ele><time>2026-05-03T08:50:27.759Z</time></trkpt><trkpt lat="43.3422433" lon="11.9260983"><ele>280.0</ele><time>2026-05-03T08:50:28.769Z</time></trkpt><trkpt lat="43.3422217" lon="11.9262067"><ele>280.0</ele><time>2026-05-03T08:50:29.75Z</time></trkpt><trkpt lat="43.3422" lon="11.9263067"><ele>279.5</ele><time>2026-05-03T08:50:30.755Z</time></trkpt><trkpt lat="43.3421867" lon="11.926395"><ele>279.0</ele><time>2026-05-03T08:50:31.754Z</time></trkpt><trkpt lat="43.3421717" lon="11.92648"><ele>278.5</ele><time>2026-05-03T08:50:32.75Z</time></trkpt><trkpt lat="43.34216" lon="11.9265667"><ele>278.0</ele><time>2026-05-03T08:50:33.751Z</time></trkpt><trkpt lat="43.3421667" lon="11.926725"><ele>277.5</ele><time>2026-05-03T08:50:35.746Z</time></trkpt><trkpt lat="43.3422133" lon="11.9268683"><ele>277.0</ele><time>2026-05-03T08:50:37.746Z</time></trkpt><trkpt lat="43.342295" lon="11.927005"><ele>276.3333333333333</ele><time>2026-05-03T08:50:39.748Z</time></trkpt><trkpt lat="43.3423367" lon="11.927075"><ele>275.66666666666663</ele><time>2026-05-03T08:50:40.755Z</time></trkpt><trkpt lat="43.3423967" lon="11.9271817"><ele>275.0</ele><time>2026-05-03T08:50:42.759Z</time></trkpt><trkpt lat="43.3423867" lon="11.9272717"><ele>274.3333333333333</ele><time>2026-05-03T08:50:44.753Z</time></trkpt><trkpt lat="43.3423217" lon="11.927375"><ele>273.6666666666667</ele><time>2026-05-03T08:50:46.76Z</time></trkpt><trkpt lat="43.3422633" lon="11.9275133"><ele>273.0</ele><time>2026-05-03T08:50:48.748Z</time></trkpt><trkpt lat="43.34223" lon="11.9275967"><ele>271.57142857142856</ele><time>2026-05-03T08:50:49.755Z</time></trkpt><trkpt lat="43.3422067" lon="11.927685"><ele>270.1428571428571</ele><time>2026-05-03T08:50:50.757Z</time></trkpt><trkpt lat="43.3421933" lon="11.9277817"><ele>268.7142857142857</ele><time>2026-05-03T08:50:51.753Z</time></trkpt><trkpt lat="43.34219" lon="11.9278817"><ele>267.2857142857143</ele><time>2026-05-03T08:50:52.75Z</time></trkpt><trkpt lat="43.3421867" lon="11.927975"><ele>265.85714285714283</ele><time>2026-05-03T08:50:53.76Z</time></trkpt><trkpt lat="43.3421883" lon="11.92807"><ele>264.42857142857144</ele><time>2026-05-03T08:50:54.761Z</time></trkpt><trkpt lat="43.3421833" lon="11.928165"><ele>263.0</ele><time>2026-05-03T08:50:55.752Z</time></trkpt><trkpt lat="43.3421817" lon="11.92826"><ele>263.0</ele><time>2026-05-03T08:50:56.765Z</time></trkpt><trkpt lat="43.342175" lon="11.92835"><ele>263.0</ele><time>2026-05-03T08:50:57.752Z</time></trkpt><trkpt lat="43.3421733" lon="11.928445"><ele>263.0</ele><time>2026-05-03T08:50:58.759Z</time></trkpt><trkpt lat="43.342175" lon="11.928535"><ele>263.0</ele><time>2026-05-03T08:50:59.75Z</time></trkpt><trkpt lat="43.3421483" lon="11.9286933"><ele>263.0</ele><time>2026-05-03T08:51:01.755Z</time></trkpt><trkpt lat="43.3420633" lon="11.9287783"><ele>263.0</ele><time>2026-05-03T08:51:03.771Z</time></trkpt><trkpt lat="43.3419467" lon="11.928775"><ele>263.0</ele><time>2026-05-03T08:51:05.758Z</time></trkpt><trkpt lat="43.341835" lon="11.9287867"><ele>263.0</ele><time>2026-05-03T08:51:07.752Z</time></trkpt><trkpt lat="43.341735" lon="11.928805"><ele>263.0</ele><time>2026-05-03T08:51:09.751Z</time></trkpt><trkpt lat="43.3416583" lon="11.92888"><ele>263.0</ele><time>2026-05-03T08:51:11.758Z</time></trkpt><trkpt lat="43.3415983" lon="11.9289783"><ele>263.0</ele><time>2026-05-03T08:51:13.765Z</time></trkpt><trkpt lat="43.34157" lon="11.9290783"><ele>263.0</ele><time>2026-05-03T08:51:15.749Z</time></trkpt><trkpt lat="43.3415533" lon="11.9291883"><ele>263.0</ele><time>2026-05-03T08:51:17.754Z</time></trkpt><trkpt lat="43.341535" lon="11.9293133"><ele>263.0</ele><time>2026-05-03T08:51:19.756Z</time></trkpt><trkpt lat="43.3415117" lon="11.9294417"><ele>263.0</ele><time>2026-05-03T08:51:21.757Z</time></trkpt><trkpt lat="43.3414783" lon="11.9295317"><ele>263.0</ele><time>2026-05-03T08:51:24.747Z</time></trkpt><trkpt lat="43.34143" lon="11.9296217"><ele>263.0</ele><time>2026-05-03T08:51:27.751Z</time></trkpt><trkpt lat="43.3413567" lon="11.9296883"><ele>263.2</ele><time>2026-05-03T08:51:29.746Z</time></trkpt><trkpt lat="43.3412533" lon="11.92975"><ele>263.4</ele><time>2026-05-03T08:51:31.755Z</time></trkpt><trkpt lat="43.3411467" lon="11.9298017"><ele>263.59999999999997</ele><time>2026-05-03T08:51:33.749Z</time></trkpt><trkpt lat="43.341045" lon="11.9298417"><ele>263.8</ele><time>2026-05-03T08:51:35.767Z</time></trkpt><trkpt lat="43.3409483" lon="11.9298767"><ele>264.0</ele><time>2026-05-03T08:51:37.761Z</time></trkpt><trkpt lat="43.3408433" lon="11.92992"><ele>264.0</ele><time>2026-05-03T08:51:39.75Z</time></trkpt><trkpt lat="43.3407533" lon="11.9299617"><ele>264.0</ele><time>2026-05-03T08:51:41.761Z</time></trkpt><trkpt lat="43.3406467" lon="11.9300067"><ele>264.0</ele><time>2026-05-03T08:51:43.761Z</time></trkpt><trkpt lat="43.3405567" lon="11.9300433"><ele>264.0</ele><time>2026-05-03T08:51:45.756Z</time></trkpt><trkpt lat="43.3404617" lon="11.9300983"><ele>264.0</ele><time>2026-05-03T08:51:47.75Z</time></trkpt><trkpt lat="43.3404033" lon="11.930175"><ele>264.0</ele><time>2026-05-03T08:51:49.754Z</time></trkpt><trkpt lat="43.3404133" lon="11.9302917"><ele>264.0</ele><time>2026-05-03T08:51:52.752Z</time></trkpt><trkpt lat="43.34046" lon="11.930375"><ele>264.0</ele><time>2026-05-03T08:51:54.757Z</time></trkpt><trkpt lat="43.340525" lon="11.9304583"><ele>264.0</ele><time>2026-05-03T08:51:56.758Z</time></trkpt><trkpt lat="43.34058" lon="11.93054"><ele>264.0</ele><time>2026-05-03T08:51:58.756Z</time></trkpt><trkpt lat="43.34063" lon="11.9306483"><ele>264.0</ele><time>2026-05-03T08:52:00.753Z</time></trkpt><trkpt lat="43.3406817" lon="11.930755"><ele>264.0</ele><time>2026-05-03T08:52:02.751Z</time></trkpt><trkpt lat="43.3407233" lon="11.9308683"><ele>264.0</ele><time>2026-05-03T08:52:04.769Z</time></trkpt><trkpt lat="43.3407483" lon="11.93098"><ele>264.0</ele><time>2026-05-03T08:52:07.763Z</time></trkpt><trkpt lat="43.3407817" lon="11.931105"><ele>264.0</ele><time>2026-05-03T08:52:10.75Z</time></trkpt><trkpt lat="43.3408117" lon="11.93122"><ele>264.0</ele><time>2026-05-03T08:52:12.754Z</time></trkpt><trkpt lat="43.3408467" lon="11.93137"><ele>264.0</ele><time>2026-05-03T08:52:14.751Z</time></trkpt><trkpt lat="43.34089" lon="11.93154"><ele>264.0</ele><time>2026-05-03T08:52:16.752Z</time></trkpt><trkpt lat="43.3409183" lon="11.931625"><ele>264.0</ele><time>2026-05-03T08:52:17.747Z</time></trkpt><trkpt lat="43.3409433" lon="11.93171"><ele>264.0</ele><time>2026-05-03T08:52:18.762Z</time></trkpt><trkpt lat="43.34097" lon="11.9317967"><ele>264.0</ele><time>2026-05-03T08:52:19.749Z</time></trkpt><trkpt lat="43.340995" lon="11.9318783"><ele>264.0</ele><time>2026-05-03T08:52:20.757Z</time></trkpt><trkpt lat="43.3410133" lon="11.93197"><ele>263.6666666666667</ele><time>2026-05-03T08:52:21.747Z</time></trkpt><trkpt lat="43.341035" lon="11.9320617"><ele>263.3333333333333</ele><time>2026-05-03T08:52:22.758Z</time></trkpt><trkpt lat="43.341055" lon="11.932145"><ele>263.0</ele><time>2026-05-03T08:52:23.75Z</time></trkpt><trkpt lat="43.34108" lon="11.9323117"><ele>262.66666666666663</ele><time>2026-05-03T08:52:25.744Z</time></trkpt><trkpt lat="43.3410867" lon="11.9324033"><ele>262.3333333333333</ele><time>2026-05-03T08:52:26.757Z</time></trkpt><trkpt lat="43.3411" lon="11.9324917"><ele>262.0</ele><time>2026-05-03T08:52:27.755Z</time></trkpt><trkpt lat="43.3411167" lon="11.9325817"><ele>262.0</ele><time>2026-05-03T08:52:28.759Z</time></trkpt><trkpt lat="43.3411583" lon="11.932735"><ele>262.0</ele><time>2026-05-03T08:52:30.754Z</time></trkpt><trkpt lat="43.34119" lon="11.9328167"><ele>262.0</ele><time>2026-05-03T08:52:31.755Z</time></trkpt><trkpt lat="43.34125" lon="11.9329583"><ele>262.0</ele><time>2026-05-03T08:52:33.752Z</time></trkpt><trkpt lat="43.3413167" lon="11.93309"><ele>262.0</ele><time>2026-05-03T08:52:35.755Z</time></trkpt><trkpt lat="43.3413967" lon="11.9332133"><ele>262.0</ele><time>2026-05-03T08:52:37.755Z</time></trkpt><trkpt lat="43.3414583" lon="11.9333383"><ele>262.0</ele><time>2026-05-03T08:52:39.748Z</time></trkpt><trkpt lat="43.3415083" lon="11.9334583"><ele>262.0</ele><time>2026-05-03T08:52:41.753Z</time></trkpt><trkpt lat="43.3415617" lon="11.9335617"><ele>262.0</ele><time>2026-05-03T08:52:43.753Z</time></trkpt><trkpt lat="43.341615" lon="11.9336567"><ele>262.0</ele><time>2026-05-03T08:52:45.75Z</time></trkpt><trkpt lat="43.3416633" lon="11.93375"><ele>262.0</ele><time>2026-05-03T08:52:47.756Z</time></trkpt><trkpt lat="43.34171" lon="11.933835"><ele>262.0</ele><time>2026-05-03T08:52:49.759Z</time></trkpt><trkpt lat="43.34175" lon="11.9339133"><ele>262.0</ele><time>2026-05-03T08:52:51.756Z</time></trkpt><trkpt lat="43.3417883" lon="11.9339833"><ele>262.0</ele><time>2026-05-03T08:52:53.756Z</time></trkpt><trkpt lat="43.3418467" lon="11.9340767"><ele>262.0</ele><time>2026-05-03T08:52:56.746Z</time></trkpt><trkpt lat="43.3419" lon="11.934165"><ele>262.0</ele><time>2026-05-03T08:52:59.75Z</time></trkpt><trkpt lat="43.34197" lon="11.9342533"><ele>262.0</ele><time>2026-05-03T08:53:02.747Z</time></trkpt><trkpt lat="43.342035" lon="11.9343417"><ele>262.0</ele><time>2026-05-03T08:53:05.76Z</time></trkpt><trkpt lat="43.3420817" lon="11.9344"><ele>262.0</ele><time>2026-05-03T08:53:07.758Z</time></trkpt><trkpt lat="43.342155" lon="11.93448"><ele>262.0</ele><time>2026-05-03T08:53:10.754Z</time></trkpt><trkpt lat="43.342205" lon="11.9345433"><ele>262.0</ele><time>2026-05-03T08:53:12.762Z</time></trkpt><trkpt lat="43.34227" lon="11.9346283"><ele>262.0</ele><time>2026-05-03T08:53:15.748Z</time></trkpt><trkpt lat="43.34233" lon="11.9347"><ele>262.3333333333333</ele><time>2026-05-03T08:53:18.754Z</time></trkpt><trkpt lat="43.342395" lon="11.934775"><ele>262.66666666666663</ele><time>2026-05-03T08:53:21.756Z</time></trkpt><trkpt lat="43.3424583" lon="11.9348483"><ele>263.0</ele><time>2026-05-03T08:53:24.753Z</time></trkpt><trkpt lat="43.3425183" lon="11.93493"><ele>263.3333333333333</ele><time>2026-05-03T08:53:27.749Z</time></trkpt><trkpt lat="43.34257" lon="11.9350267"><ele>263.6666666666667</ele><time>2026-05-03T08:53:30.75Z</time></trkpt><trkpt lat="43.3426167" lon="11.93514"><ele>264.0</ele><time>2026-05-03T08:53:33.771Z</time></trkpt><trkpt lat="43.342665" lon="11.935245"><ele>264.3333333333333</ele><time>2026-05-03T08:53:36.746Z</time></trkpt><trkpt lat="43.34269" lon="11.9353467"><ele>264.6666666666667</ele><time>2026-05-03T08:53:39.752Z</time></trkpt><trkpt lat="43.34272" lon="11.93545"><ele>265.0</ele><time>2026-05-03T08:53:42.748Z</time></trkpt><trkpt lat="43.34273" lon="11.9355683"><ele>265.33333333333337</ele><time>2026-05-03T08:53:45.766Z</time></trkpt><trkpt lat="43.3427267" lon="11.935665"><ele>265.6666666666667</ele><time>2026-05-03T08:53:48.744Z</time></trkpt><trkpt lat="43.3427117" lon="11.9357567"><ele>266.0</ele><time>2026-05-03T08:53:51.756Z</time></trkpt><trkpt lat="43.34267" lon="11.9358517"><ele>266.0</ele><time>2026-05-03T08:53:54.75Z</time></trkpt><trkpt lat="43.34264" lon="11.9359583"><ele>266.0</ele><time>2026-05-03T08:53:57.755Z</time></trkpt><trkpt lat="43.34263" lon="11.9360567"><ele>266.0</ele><time>2026-05-03T08:54:00.757Z</time></trkpt><trkpt lat="43.3426283" lon="11.9361633"><ele>266.0</ele><time>2026-05-03T08:54:04.757Z</time></trkpt><trkpt lat="43.34264" lon="11.9362783"><ele>266.0</ele><time>2026-05-03T08:54:07.771Z</time></trkpt><trkpt lat="43.3426367" lon="11.936365"><ele>266.0</ele><time>2026-05-03T08:54:09.747Z</time></trkpt><trkpt lat="43.3426167" lon="11.936455"><ele>266.0</ele><time>2026-05-03T08:54:11.752Z</time></trkpt><trkpt lat="43.3425783" lon="11.93655"><ele>266.0</ele><time>2026-05-03T08:54:13.764Z</time></trkpt><trkpt lat="43.34255" lon="11.9366483"><ele>266.0</ele><time>2026-05-03T08:54:15.76Z</time></trkpt><trkpt lat="43.3425183" lon="11.9367467"><ele>266.0</ele><time>2026-05-03T08:54:17.753Z</time></trkpt><trkpt lat="43.3424933" lon="11.93685"><ele>266.0</ele><time>2026-05-03T08:54:19.757Z</time></trkpt><trkpt lat="43.3424583" lon="11.9369467"><ele>266.0</ele><time>2026-05-03T08:54:21.753Z</time></trkpt><trkpt lat="43.3424267" lon="11.9370467"><ele>266.0</ele><time>2026-05-03T08:54:23.754Z</time></trkpt><trkpt lat="43.3424" lon="11.93715"><ele>265.83333333333337</ele><time>2026-05-03T08:54:25.758Z</time></trkpt><trkpt lat="43.3423717" lon="11.93726"><ele>265.6666666666667</ele><time>2026-05-03T08:54:27.749Z</time></trkpt><trkpt lat="43.342345" lon="11.93736"><ele>265.5</ele><time>2026-05-03T08:54:29.76Z</time></trkpt><trkpt lat="43.342315" lon="11.937475"><ele>265.3333333333333</ele><time>2026-05-03T08:54:31.752Z</time></trkpt><trkpt lat="43.342275" lon="11.9375983"><ele>265.16666666666663</ele><time>2026-05-03T08:54:33.753Z</time></trkpt><trkpt lat="43.342235" lon="11.93771"><ele>265.0</ele><time>2026-05-03T08:54:35.748Z</time></trkpt><trkpt lat="43.3422183" lon="11.9378267"><ele>264.66666666666663</ele><time>2026-05-03T08:54:37.751Z</time></trkpt><trkpt lat="43.342205" lon="11.9379383"><ele>264.3333333333333</ele><time>2026-05-03T08:54:39.749Z</time></trkpt><trkpt lat="43.3422" lon="11.9380433"><ele>264.0</ele><time>2026-05-03T08:54:41.754Z</time></trkpt><trkpt lat="43.34219" lon="11.9381517"><ele>263.6666666666667</ele><time>2026-05-03T08:54:43.756Z</time></trkpt><trkpt lat="43.342175" lon="11.938265"><ele>263.33333333333337</ele><time>2026-05-03T08:54:45.756Z</time></trkpt><trkpt lat="43.3421583" lon="11.9383767"><ele>263.0</ele><time>2026-05-03T08:54:47.751Z</time></trkpt><trkpt lat="43.3421333" lon="11.9384983"><ele>263.0</ele><time>2026-05-03T08:54:49.754Z</time></trkpt><trkpt lat="43.3421117" lon="11.9386067"><ele>263.0</ele><time>2026-05-03T08:54:51.754Z</time></trkpt><trkpt lat="43.3420867" lon="11.9387133"><ele>263.0</ele><time>2026-05-03T08:54:53.753Z</time></trkpt><trkpt lat="43.3420633" lon="11.9388117"><ele>263.0</ele><time>2026-05-03T08:54:55.757Z</time></trkpt><trkpt lat="43.34204" lon="11.9388983"><ele>263.0</ele><time>2026-05-03T08:54:57.754Z</time></trkpt><trkpt lat="43.3420133" lon="11.9390183"><ele>263.0</ele><time>2026-05-03T08:55:00.752Z</time></trkpt><trkpt lat="43.3419783" lon="11.9391333"><ele>263.33333333333337</ele><time>2026-05-03T08:55:03.763Z</time></trkpt><trkpt lat="43.3419367" lon="11.93924"><ele>263.6666666666667</ele><time>2026-05-03T08:55:06.756Z</time></trkpt><trkpt lat="43.3418967" lon="11.9393433"><ele>264.0</ele><time>2026-05-03T08:55:09.748Z</time></trkpt><trkpt lat="43.3418383" lon="11.93944"><ele>264.3333333333333</ele><time>2026-05-03T08:55:12.754Z</time></trkpt><trkpt lat="43.3417867" lon="11.939535"><ele>264.66666666666663</ele><time>2026-05-03T08:55:15.751Z</time></trkpt><trkpt lat="43.3417267" lon="11.9396333"><ele>265.0</ele><time>2026-05-03T08:55:18.756Z</time></trkpt><trkpt lat="43.341675" lon="11.93972"><ele>265.0</ele><time>2026-05-03T08:55:21.759Z</time></trkpt><trkpt lat="43.341625" lon="11.93982"><ele>265.0</ele><time>2026-05-03T08:55:24.758Z</time></trkpt><trkpt lat="43.3415817" lon="11.9399317"><ele>265.0</ele><time>2026-05-03T08:55:27.757Z</time></trkpt><trkpt lat="43.341555" lon="11.9400183"><ele>265.0</ele><time>2026-05-03T08:55:29.755Z</time></trkpt><trkpt lat="43.3415317" lon="11.9401033"><ele>265.0</ele><time>2026-05-03T08:55:31.753Z</time></trkpt><trkpt lat="43.3415167" lon="11.9401933"><ele>265.0</ele><time>2026-05-03T08:55:33.748Z</time></trkpt><trkpt lat="43.3414917" lon="11.940285"><ele>264.99999999999994</ele><time>2026-05-03T08:55:35.751Z</time></trkpt><trkpt lat="43.3414717" lon="11.940375"><ele>265.0</ele><time>2026-05-03T08:55:37.753Z</time></trkpt><trkpt lat="43.341455" lon="11.9404717"><ele>265.0</ele><time>2026-05-03T08:55:39.758Z</time></trkpt><trkpt lat="43.341445" lon="11.940565"><ele>265.0</ele><time>2026-05-03T08:55:41.754Z</time></trkpt><trkpt lat="43.341435" lon="11.9406517"><ele>265.0</ele><time>2026-05-03T08:55:43.756Z</time></trkpt><trkpt lat="43.3414233" lon="11.940775"><ele>264.99999999999994</ele><time>2026-05-03T08:55:46.764Z</time></trkpt><trkpt lat="43.34141" lon="11.94088"><ele>265.0</ele><time>2026-05-03T08:55:49.753Z</time></trkpt><trkpt lat="43.3414083" lon="11.9409683"><ele>264.85714285714283</ele><time>2026-05-03T08:55:51.746Z</time></trkpt><trkpt lat="43.3413983" lon="11.9410817"><ele>264.7142857142857</ele><time>2026-05-03T08:55:54.75Z</time></trkpt><trkpt lat="43.341405" lon="11.9411967"><ele>264.57142857142856</ele><time>2026-05-03T08:55:57.75Z</time></trkpt><trkpt lat="43.3413983" lon="11.9412833"><ele>264.42857142857144</ele><time>2026-05-03T08:55:59.75Z</time></trkpt><trkpt lat="43.3413867" lon="11.9413733"><ele>264.2857142857143</ele><time>2026-05-03T08:56:01.752Z</time></trkpt><trkpt lat="43.341375" lon="11.94146"><ele>264.1428571428571</ele><time>2026-05-03T08:56:03.75Z</time></trkpt><trkpt lat="43.3413683" lon="11.9415683"><ele>264.0</ele><time>2026-05-03T08:56:06.755Z</time></trkpt><trkpt lat="43.341365" lon="11.9417133"><ele>263.59999999999997</ele><time>2026-05-03T08:57:27.743Z</time></trkpt><trkpt lat="43.34133" lon="11.9418067"><ele>263.2</ele><time>2026-05-03T08:57:29.752Z</time></trkpt><trkpt lat="43.3412867" lon="11.941925"><ele>262.79999999999995</ele><time>2026-05-03T08:57:31.749Z</time></trkpt><trkpt lat="43.3412433" lon="11.94206"><ele>262.4</ele><time>2026-05-03T08:57:33.762Z</time></trkpt><trkpt lat="43.3411933" lon="11.9422033"><ele>262.0</ele><time>2026-05-03T08:57:35.755Z</time></trkpt><trkpt lat="43.341145" lon="11.9423483"><ele>262.0</ele><time>2026-05-03T08:57:37.755Z</time></trkpt><trkpt lat="43.3411017" lon="11.94248"><ele>262.0</ele><time>2026-05-03T08:57:39.758Z</time></trkpt><trkpt lat="43.341055" lon="11.9426167"><ele>262.0</ele><time>2026-05-03T08:57:41.752Z</time></trkpt><trkpt lat="43.3410183" lon="11.9427533"><ele>262.0</ele><time>2026-05-03T08:57:43.757Z</time></trkpt><trkpt lat="43.3409717" lon="11.9428867"><ele>262.0</ele><time>2026-05-03T08:57:45.749Z</time></trkpt><trkpt lat="43.3409267" lon="11.94302"><ele>262.0</ele><time>2026-05-03T08:57:47.752Z</time></trkpt><trkpt lat="43.34088" lon="11.9431333"><ele>262.0</ele><time>2026-05-03T08:57:49.754Z</time></trkpt><trkpt lat="43.340805" lon="11.94324"><ele>262.0</ele><time>2026-05-03T08:57:51.755Z</time></trkpt><trkpt lat="43.3407317" lon="11.9433283"><ele>262.0</ele><time>2026-05-03T08:57:53.744Z</time></trkpt><trkpt lat="43.3406617" lon="11.9433967"><ele>262.0</ele><time>2026-05-03T08:57:55.754Z</time></trkpt><trkpt lat="43.3405917" lon="11.9434683"><ele>262.0</ele><time>2026-05-03T08:57:57.75Z</time></trkpt><trkpt lat="43.34052" lon="11.9435533"><ele>262.0</ele><time>2026-05-03T08:57:59.75Z</time></trkpt><trkpt lat="43.3404583" lon="11.9436283"><ele>262.0</ele><time>2026-05-03T08:58:01.756Z</time></trkpt><trkpt lat="43.3403967" lon="11.9437083"><ele>262.0</ele><time>2026-05-03T08:58:03.749Z</time></trkpt><trkpt lat="43.340355" lon="11.9437967"><ele>262.0</ele><time>2026-05-03T08:58:05.751Z</time></trkpt><trkpt lat="43.3403233" lon="11.9439033"><ele>262.0</ele><time>2026-05-03T08:58:07.756Z</time></trkpt><trkpt lat="43.34029" lon="11.9440133"><ele>262.0</ele><time>2026-05-03T08:58:09.754Z</time></trkpt><trkpt lat="43.3402667" lon="11.9441183"><ele>262.0</ele><time>2026-05-03T08:58:11.75Z</time></trkpt><trkpt lat="43.3402483" lon="11.94421"><ele>262.0</ele><time>2026-05-03T08:58:13.753Z</time></trkpt><trkpt lat="43.3402217" lon="11.94432"><ele>262.0</ele><time>2026-05-03T08:58:15.748Z</time></trkpt><trkpt lat="43.340195" lon="11.9444267"><ele>262.0</ele><time>2026-05-03T08:58:17.763Z</time></trkpt><trkpt lat="43.3401683" lon="11.9445367"><ele>262.0</ele><time>2026-05-03T08:58:19.76Z</time></trkpt><trkpt lat="43.3401483" lon="11.9446433"><ele>262.16666666666663</ele><time>2026-05-03T08:58:21.748Z</time></trkpt><trkpt lat="43.3401217" lon="11.9447517"><ele>262.3333333333333</ele><time>2026-05-03T08:58:23.749Z</time></trkpt><trkpt lat="43.34011" lon="11.9448517"><ele>262.5</ele><time>2026-05-03T08:58:25.761Z</time></trkpt><trkpt lat="43.3400917" lon="11.94496"><ele>262.6666666666667</ele><time>2026-05-03T08:58:27.759Z</time></trkpt><trkpt lat="43.340055" lon="11.945075"><ele>262.83333333333337</ele><time>2026-05-03T08:58:29.749Z</time></trkpt><trkpt lat="43.3400217" lon="11.945195"><ele>263.0</ele><time>2026-05-03T08:58:31.752Z</time></trkpt><trkpt lat="43.33999" lon="11.9452933"><ele>263.0</ele><time>2026-05-03T08:58:33.755Z</time></trkpt><trkpt lat="43.339955" lon="11.94539"><ele>263.0</ele><time>2026-05-03T08:58:35.755Z</time></trkpt><trkpt lat="43.3399217" lon="11.9454967"><ele>263.0</ele><time>2026-05-03T08:58:37.747Z</time></trkpt><trkpt lat="43.3398883" lon="11.9455933"><ele>263.0</ele><time>2026-05-03T08:58:39.743Z</time></trkpt><trkpt lat="43.3398617" lon="11.945695"><ele>263.0</ele><time>2026-05-03T08:58:41.757Z</time></trkpt><trkpt lat="43.3398267" lon="11.9457967"><ele>263.0</ele><time>2026-05-03T08:58:43.749Z</time></trkpt><trkpt lat="43.3397867" lon="11.9459083"><ele>263.0</ele><time>2026-05-03T08:58:45.75Z</time></trkpt><trkpt lat="43.3397567" lon="11.94602"><ele>263.0</ele><time>2026-05-03T08:58:47.755Z</time></trkpt><trkpt lat="43.3397267" lon="11.946125"><ele>263.0</ele><time>2026-05-03T08:58:49.755Z</time></trkpt><trkpt lat="43.33969" lon="11.946225"><ele>263.0</ele><time>2026-05-03T08:58:51.75Z</time></trkpt><trkpt lat="43.33966" lon="11.94632"><ele>263.0</ele><time>2026-05-03T08:58:53.752Z</time></trkpt><trkpt lat="43.33963" lon="11.9464117"><ele>263.0</ele><time>2026-05-03T08:58:55.754Z</time></trkpt><trkpt lat="43.3396017" lon="11.9465017"><ele>262.85714285714283</ele><time>2026-05-03T08:58:57.748Z</time></trkpt><trkpt lat="43.3395783" lon="11.9465833"><ele>262.71428571428567</ele><time>2026-05-03T08:58:59.751Z</time></trkpt><trkpt lat="43.33954" lon="11.9466933"><ele>262.57142857142856</ele><time>2026-05-03T08:59:02.75Z</time></trkpt><trkpt lat="43.3395167" lon="11.94678"><ele>262.42857142857144</ele><time>2026-05-03T08:59:05.757Z</time></trkpt><trkpt lat="43.3395033" lon="11.946875"><ele>262.28571428571433</ele><time>2026-05-03T08:59:09.75Z</time></trkpt><trkpt lat="43.33946" lon="11.946945"><ele>262.14285714285717</ele><time>2026-05-03T08:59:13.755Z</time></trkpt><trkpt lat="43.339425" lon="11.9470517"><ele>262.0</ele><time>2026-05-03T08:59:16.757Z</time></trkpt><trkpt lat="43.339385" lon="11.9471533"><ele>262.3333333333333</ele><time>2026-05-03T08:59:20.751Z</time></trkpt><trkpt lat="43.3393633" lon="11.947235"><ele>262.66666666666663</ele><time>2026-05-03T08:59:23.757Z</time></trkpt><trkpt lat="43.3393417" lon="11.9473167"><ele>263.0</ele><time>2026-05-03T08:59:26.753Z</time></trkpt><trkpt lat="43.3393017" lon="11.9474217"><ele>263.3333333333333</ele><time>2026-05-03T08:59:30.754Z</time></trkpt><trkpt lat="43.3392633" lon="11.94754"><ele>263.6666666666667</ele><time>2026-05-03T08:59:33.753Z</time></trkpt><trkpt lat="43.3392333" lon="11.947625"><ele>264.0</ele><time>2026-05-03T08:59:35.749Z</time></trkpt><trkpt lat="43.339195" lon="11.947715"><ele>264.3333333333333</ele><time>2026-05-03T08:59:37.758Z</time></trkpt><trkpt lat="43.3391667" lon="11.947815"><ele>264.6666666666667</ele><time>2026-05-03T08:59:39.757Z</time></trkpt><trkpt lat="43.3391483" lon="11.9479167"><ele>265.0</ele><time>2026-05-03T08:59:41.753Z</time></trkpt><trkpt lat="43.3391133" lon="11.948"><ele>265.33333333333337</ele><time>2026-05-03T08:59:43.758Z</time></trkpt><trkpt lat="43.3390817" lon="11.948095"><ele>265.6666666666667</ele><time>2026-05-03T08:59:45.749Z</time></trkpt><trkpt lat="43.33905" lon="11.9482"><ele>266.0</ele><time>2026-05-03T08:59:47.759Z</time></trkpt><trkpt lat="43.3390133" lon="11.94831"><ele>266.0</ele><time>2026-05-03T08:59:49.753Z</time></trkpt><trkpt lat="43.3389617" lon="11.9484167"><ele>266.0</ele><time>2026-05-03T08:59:51.752Z</time></trkpt><trkpt lat="43.3389067" lon="11.9485217"><ele>266.0</ele><time>2026-05-03T08:59:53.759Z</time></trkpt><trkpt lat="43.3388567" lon="11.948625"><ele>266.0</ele><time>2026-05-03T08:59:55.758Z</time></trkpt><trkpt lat="43.338815" lon="11.9487267"><ele>266.0</ele><time>2026-05-03T08:59:57.757Z</time></trkpt><trkpt lat="43.33877" lon="11.94882"><ele>266.0</ele><time>2026-05-03T08:59:59.746Z</time></trkpt><trkpt lat="43.3387283" lon="11.94891"><ele>266.1666666666667</ele><time>2026-05-03T09:00:01.747Z</time></trkpt><trkpt lat="43.3386967" lon="11.9489983"><ele>266.33333333333337</ele><time>2026-05-03T09:00:03.75Z</time></trkpt><trkpt lat="43.3386733" lon="11.94912"><ele>266.5</ele><time>2026-05-03T09:00:06.767Z</time></trkpt><trkpt lat="43.3386833" lon="11.9492533"><ele>266.6666666666667</ele><time>2026-05-03T09:00:09.755Z</time></trkpt><trkpt lat="43.3387117" lon="11.9493583"><ele>266.8333333333333</ele><time>2026-05-03T09:00:11.754Z</time></trkpt><trkpt lat="43.338765" lon="11.9494583"><ele>267.0</ele><time>2026-05-03T09:00:13.752Z</time></trkpt><trkpt lat="43.3388133" lon="11.94956"><ele>266.6</ele><time>2026-05-03T09:00:15.748Z</time></trkpt><trkpt lat="43.33886" lon="11.9496617"><ele>266.2</ele><time>2026-05-03T09:00:17.761Z</time></trkpt><trkpt lat="43.3388967" lon="11.9497683"><ele>265.8</ele><time>2026-05-03T09:00:19.761Z</time></trkpt><trkpt lat="43.3389567" lon="11.9498733"><ele>265.4</ele><time>2026-05-03T09:00:21.756Z</time></trkpt><trkpt lat="43.33902" lon="11.9499867"><ele>265.0</ele><time>2026-05-03T09:00:23.769Z</time></trkpt><trkpt lat="43.3390667" lon="11.95011"><ele>264.66666666666663</ele><time>2026-05-03T09:00:25.746Z</time></trkpt><trkpt lat="43.339115" lon="11.950235"><ele>264.3333333333333</ele><time>2026-05-03T09:00:27.751Z</time></trkpt><trkpt lat="43.3391567" lon="11.9503433"><ele>264.0</ele><time>2026-05-03T09:00:29.762Z</time></trkpt><trkpt lat="43.3392033" lon="11.9504583"><ele>263.6666666666667</ele><time>2026-05-03T09:00:31.757Z</time></trkpt><trkpt lat="43.3392317" lon="11.9505633"><ele>263.33333333333337</ele><time>2026-05-03T09:00:33.749Z</time></trkpt><trkpt lat="43.339265" lon="11.95066"><ele>263.0</ele><time>2026-05-03T09:00:35.751Z</time></trkpt><trkpt lat="43.339305" lon="11.9507467"><ele>263.0</ele><time>2026-05-03T09:00:37.751Z</time></trkpt><trkpt lat="43.33934" lon="11.9508317"><ele>263.0</ele><time>2026-05-03T09:00:39.753Z</time></trkpt><trkpt lat="43.3393767" lon="11.9509233"><ele>263.0</ele><time>2026-05-03T09:00:41.762Z</time></trkpt><trkpt lat="43.339415" lon="11.9510133"><ele>263.0</ele><time>2026-05-03T09:00:43.761Z</time></trkpt><trkpt lat="43.339445" lon="11.9511067"><ele>263.0</ele><time>2026-05-03T09:00:45.749Z</time></trkpt><trkpt lat="43.3394783" lon="11.9511883"><ele>263.0</ele><time>2026-05-03T09:00:47.757Z</time></trkpt><trkpt lat="43.3395067" lon="11.95127"><ele>263.0</ele><time>2026-05-03T09:00:49.754Z</time></trkpt><trkpt lat="43.3395367" lon="11.951355"><ele>263.2857142857143</ele><time>2026-05-03T09:00:51.754Z</time></trkpt><trkpt lat="43.33957" lon="11.95143"><ele>263.57142857142856</ele><time>2026-05-03T09:00:53.759Z</time></trkpt><trkpt lat="43.3396083" lon="11.9515033"><ele>263.85714285714283</ele><time>2026-05-03T09:00:55.75Z</time></trkpt><trkpt lat="43.3396417" lon="11.9515817"><ele>264.1428571428571</ele><time>2026-05-03T09:00:57.761Z</time></trkpt><trkpt lat="43.3396717" lon="11.9516617"><ele>264.42857142857144</ele><time>2026-05-03T09:00:59.751Z</time></trkpt><trkpt lat="43.3397133" lon="11.95176"><ele>264.71428571428567</ele><time>2026-05-03T09:01:02.76Z</time></trkpt><trkpt lat="43.3397517" lon="11.95187"><ele>265.0</ele><time>2026-05-03T09:01:05.759Z</time></trkpt><trkpt lat="43.3398033" lon="11.9519717"><ele>265.3333333333333</ele><time>2026-05-03T09:01:08.755Z</time></trkpt><trkpt lat="43.3398283" lon="11.95208"><ele>265.66666666666663</ele><time>2026-05-03T09:01:11.757Z</time></trkpt><trkpt lat="43.3398583" lon="11.9521917"><ele>266.0</ele><time>2026-05-03T09:01:14.753Z</time></trkpt><trkpt lat="43.3399017" lon="11.9522883"><ele>266.3333333333333</ele><time>2026-05-03T09:01:17.753Z</time></trkpt><trkpt lat="43.33993" lon="11.9523717"><ele>266.6666666666667</ele><time>2026-05-03T09:01:20.75Z</time></trkpt><trkpt lat="43.3399617" lon="11.95248"><ele>267.0</ele><time>2026-05-03T09:01:23.745Z</time></trkpt><trkpt lat="43.3400067" lon="11.9525617"><ele>267.6666666666667</ele><time>2026-05-03T09:01:25.753Z</time></trkpt><trkpt lat="43.34005" lon="11.9526317"><ele>268.3333333333333</ele><time>2026-05-03T09:01:27.756Z</time></trkpt><trkpt lat="43.3401033" lon="11.9527383"><ele>269.0</ele><time>2026-05-03T09:01:30.755Z</time></trkpt><trkpt lat="43.3401517" lon="11.9528433"><ele>269.66666666666663</ele><time>2026-05-03T09:01:33.752Z</time></trkpt><trkpt lat="43.3401983" lon="11.9529283"><ele>270.3333333333333</ele><time>2026-05-03T09:01:35.749Z</time></trkpt><trkpt lat="43.340245" lon="11.952995"><ele>271.0</ele><time>2026-05-03T09:01:37.761Z</time></trkpt><trkpt lat="43.3402983" lon="11.9530767"><ele>271.0</ele><time>2026-05-03T09:01:40.75Z</time></trkpt><trkpt lat="43.3403367" lon="11.95315"><ele>271.0</ele><time>2026-05-03T09:01:43.753Z</time></trkpt><trkpt lat="43.340375" lon="11.9532217"><ele>271.0</ele><time>2026-05-03T09:01:46.748Z</time></trkpt><trkpt lat="43.3404133" lon="11.9532967"><ele>271.0</ele><time>2026-05-03T09:01:49.751Z</time></trkpt><trkpt lat="43.340465" lon="11.9533733"><ele>271.0</ele><time>2026-05-03T09:01:53.76Z</time></trkpt><trkpt lat="43.3405317" lon="11.95345"><ele>271.0</ele><time>2026-05-03T09:01:57.757Z</time></trkpt><trkpt lat="43.3405783" lon="11.9535117"><ele>271.0</ele><time>2026-05-03T09:01:59.756Z</time></trkpt><trkpt lat="43.3406417" lon="11.953605"><ele>270.66666666666663</ele><time>2026-05-03T09:02:01.752Z</time></trkpt><trkpt lat="43.3407317" lon="11.953715"><ele>270.3333333333333</ele><time>2026-05-03T09:02:03.745Z</time></trkpt><trkpt lat="43.3407867" lon="11.953775"><ele>270.0</ele><time>2026-05-03T09:02:04.755Z</time></trkpt><trkpt lat="43.3408417" lon="11.95383"><ele>269.6666666666667</ele><time>2026-05-03T09:02:05.746Z</time></trkpt><trkpt lat="43.3409" lon="11.9538817"><ele>269.33333333333337</ele><time>2026-05-03T09:02:06.753Z</time></trkpt><trkpt lat="43.340955" lon="11.9539367"><ele>269.0</ele><time>2026-05-03T09:02:07.758Z</time></trkpt><trkpt lat="43.3410083" lon="11.9539967"><ele>269.0</ele><time>2026-05-03T09:02:08.752Z</time></trkpt><trkpt lat="43.3410583" lon="11.9540567"><ele>269.0</ele><time>2026-05-03T09:02:09.76Z</time></trkpt><trkpt lat="43.341145" lon="11.95417"><ele>269.0</ele><time>2026-05-03T09:02:11.754Z</time></trkpt><trkpt lat="43.3411883" lon="11.9542383"><ele>269.0</ele><time>2026-05-03T09:02:12.751Z</time></trkpt><trkpt lat="43.34126" lon="11.954375"><ele>269.0</ele><time>2026-05-03T09:02:14.758Z</time></trkpt><trkpt lat="43.3412917" lon="11.95445"><ele>269.0</ele><time>2026-05-03T09:02:15.75Z</time></trkpt><trkpt lat="43.34137" lon="11.9545717"><ele>268.59999999999997</ele><time>2026-05-03T09:02:17.754Z</time></trkpt><trkpt lat="43.3414417" lon="11.9546867"><ele>268.2</ele><time>2026-05-03T09:02:19.758Z</time></trkpt><trkpt lat="43.34151" lon="11.95481"><ele>267.79999999999995</ele><time>2026-05-03T09:02:21.75Z</time></trkpt><trkpt lat="43.3415733" lon="11.9549233"><ele>267.4</ele><time>2026-05-03T09:02:23.754Z</time></trkpt><trkpt lat="43.3416417" lon="11.95503"><ele>267.0</ele><time>2026-05-03T09:02:25.758Z</time></trkpt><trkpt lat="43.3417067" lon="11.955135"><ele>267.0</ele><time>2026-05-03T09:02:27.756Z</time></trkpt><trkpt lat="43.3417583" lon="11.95525"><ele>267.0</ele><time>2026-05-03T09:02:29.752Z</time></trkpt><trkpt lat="43.3418" lon="11.955365"><ele>267.0</ele><time>2026-05-03T09:02:31.753Z</time></trkpt><trkpt lat="43.3418333" lon="11.955475"><ele>267.0</ele><time>2026-05-03T09:02:33.75Z</time></trkpt><trkpt lat="43.34185" lon="11.955585"><ele>267.0</ele><time>2026-05-03T09:02:35.768Z</time></trkpt><trkpt lat="43.34185" lon="11.9556767"><ele>267.0</ele><time>2026-05-03T09:02:37.758Z</time></trkpt><trkpt lat="43.3418433" lon="11.9557783"><ele>267.0</ele><time>2026-05-03T09:02:39.751Z</time></trkpt><trkpt lat="43.3418267" lon="11.9558833"><ele>267.0</ele><time>2026-05-03T09:02:41.754Z</time></trkpt><trkpt lat="43.3418067" lon="11.9559717"><ele>267.0</ele><time>2026-05-03T09:02:43.749Z</time></trkpt><trkpt lat="43.3417767" lon="11.9560867"><ele>267.0</ele><time>2026-05-03T09:02:46.753Z</time></trkpt><trkpt lat="43.3417483" lon="11.9562017"><ele>267.0</ele><time>2026-05-03T09:02:49.754Z</time></trkpt><trkpt lat="43.3417267" lon="11.9563267"><ele>267.0</ele><time>2026-05-03T09:02:52.756Z</time></trkpt><trkpt lat="43.341715" lon="11.9564517"><ele>267.0</ele><time>2026-05-03T09:02:55.759Z</time></trkpt><trkpt lat="43.341715" lon="11.9565667"><ele>267.0</ele><time>2026-05-03T09:02:58.75Z</time></trkpt><trkpt lat="43.3417217" lon="11.9566717"><ele>267.0</ele><time>2026-05-03T09:03:01.756Z</time></trkpt><trkpt lat="43.3417267" lon="11.9567783"><ele>267.0</ele><time>2026-05-03T09:03:04.744Z</time></trkpt><trkpt lat="43.3417333" lon="11.95689"><ele>267.0</ele><time>2026-05-03T09:03:07.749Z</time></trkpt><trkpt lat="43.3417317" lon="11.957"><ele>267.0</ele><time>2026-05-03T09:03:10.746Z</time></trkpt><trkpt lat="43.34172" lon="11.957105"><ele>267.0</ele><time>2026-05-03T09:03:13.752Z</time></trkpt><trkpt lat="43.34171" lon="11.95722"><ele>267.0</ele><time>2026-05-03T09:03:16.748Z</time></trkpt><trkpt lat="43.3417033" lon="11.9573283"><ele>267.0</ele><time>2026-05-03T09:03:19.756Z</time></trkpt><trkpt lat="43.3416967" lon="11.957445"><ele>267.0</ele><time>2026-05-03T09:03:22.75Z</time></trkpt><trkpt lat="43.3416983" lon="11.957545"><ele>267.0</ele><time>2026-05-03T09:03:25.753Z</time></trkpt><trkpt lat="43.3416883" lon="11.9576683"><ele>267.0</ele><time>2026-05-03T09:03:28.747Z</time></trkpt><trkpt lat="43.3416883" lon="11.95779"><ele>267.0</ele><time>2026-05-03T09:03:31.756Z</time></trkpt><trkpt lat="43.3416833" lon="11.9579133"><ele>267.0</ele><time>2026-05-03T09:03:34.752Z</time></trkpt><trkpt lat="43.3416783" lon="11.958045"><ele>267.0</ele><time>2026-05-03T09:03:37.759Z</time></trkpt><trkpt lat="43.3416717" lon="11.9581367"><ele>267.0</ele><time>2026-05-03T09:03:39.754Z</time></trkpt><trkpt lat="43.3416583" lon="11.95823"><ele>267.0</ele><time>2026-05-03T09:03:41.752Z</time></trkpt><trkpt lat="43.34165" lon="11.958355"><ele>267.0</ele><time>2026-05-03T09:03:44.751Z</time></trkpt><trkpt lat="43.341645" lon="11.9584767"><ele>267.5</ele><time>2026-05-03T09:03:47.754Z</time></trkpt><trkpt lat="43.3416283" lon="11.9585883"><ele>268.0</ele><time>2026-05-03T09:03:50.749Z</time></trkpt><trkpt lat="43.3416133" lon="11.9587033"><ele>268.5</ele><time>2026-05-03T09:03:53.753Z</time></trkpt><trkpt lat="43.3415817" lon="11.9588067"><ele>269.0</ele><time>2026-05-03T09:03:56.766Z</time></trkpt><trkpt lat="43.341545" lon="11.9589017"><ele>269.5</ele><time>2026-05-03T09:03:59.759Z</time></trkpt><trkpt lat="43.3415083" lon="11.958985"><ele>270.0</ele><time>2026-05-03T09:04:02.752Z</time></trkpt><trkpt lat="43.341465" lon="11.9590817"><ele>270.0</ele><time>2026-05-03T09:04:05.757Z</time></trkpt><trkpt lat="43.3414217" lon="11.9591767"><ele>270.0</ele><time>2026-05-03T09:04:08.747Z</time></trkpt><trkpt lat="43.3413867" lon="11.9592817"><ele>270.0</ele><time>2026-05-03T09:04:11.752Z</time></trkpt><trkpt lat="43.3413617" lon="11.959395"><ele>270.0</ele><time>2026-05-03T09:04:14.757Z</time></trkpt><trkpt lat="43.3413483" lon="11.9595217"><ele>270.0</ele><time>2026-05-03T09:04:17.754Z</time></trkpt><trkpt lat="43.3413517" lon="11.9596467"><ele>270.0</ele><time>2026-05-03T09:04:20.755Z</time></trkpt><trkpt lat="43.3413517" lon="11.959775"><ele>270.5</ele><time>2026-05-03T09:04:23.75Z</time></trkpt><trkpt lat="43.3413517" lon="11.959865"><ele>271.0</ele><time>2026-05-03T09:04:25.757Z</time></trkpt><trkpt lat="43.3413567" lon="11.9599883"><ele>271.5</ele><time>2026-05-03T09:04:28.757Z</time></trkpt><trkpt lat="43.3413583" lon="11.960115"><ele>272.0</ele><time>2026-05-03T09:04:31.75Z</time></trkpt><trkpt lat="43.341355" lon="11.9602433"><ele>272.5</ele><time>2026-05-03T09:04:34.751Z</time></trkpt><trkpt lat="43.3413633" lon="11.960365"><ele>273.0</ele><time>2026-05-03T09:04:37.757Z</time></trkpt><trkpt lat="43.341375" lon="11.9604683"><ele>273.0</ele><time>2026-05-03T09:04:40.755Z</time></trkpt><trkpt lat="43.341385" lon="11.96058"><ele>273.0</ele><time>2026-05-03T09:04:43.746Z</time></trkpt><trkpt lat="43.3414033" lon="11.9606883"><ele>273.0</ele><time>2026-05-03T09:04:46.76Z</time></trkpt><trkpt lat="43.3414333" lon="11.9608033"><ele>273.0</ele><time>2026-05-03T09:04:49.749Z</time></trkpt><trkpt lat="43.3414767" lon="11.960915"><ele>273.0</ele><time>2026-05-03T09:04:52.75Z</time></trkpt><trkpt lat="43.341505" lon="11.9609933"><ele>273.0</ele><time>2026-05-03T09:04:54.751Z</time></trkpt><trkpt lat="43.3415367" lon="11.96109"><ele>273.0</ele><time>2026-05-03T09:04:57.756Z</time></trkpt><trkpt lat="43.341585" lon="11.961165"><ele>273.0</ele><time>2026-05-03T09:05:00.752Z</time></trkpt><trkpt lat="43.3416283" lon="11.9612533"><ele>273.0</ele><time>2026-05-03T09:05:03.756Z</time></trkpt><trkpt lat="43.3416783" lon="11.961355"><ele>273.0</ele><time>2026-05-03T09:05:06.75Z</time></trkpt><trkpt lat="43.3417217" lon="11.9614283"><ele>273.0</ele><time>2026-05-03T09:05:08.752Z</time></trkpt><trkpt lat="43.3417617" lon="11.9614983"><ele>273.0</ele><time>2026-05-03T09:05:10.758Z</time></trkpt><trkpt lat="43.341805" lon="11.96157"><ele>273.0</ele><time>2026-05-03T09:05:13.765Z</time></trkpt><trkpt lat="43.3418683" lon="11.961635"><ele>273.5</ele><time>2026-05-03T09:05:16.75Z</time></trkpt><trkpt lat="43.3419083" lon="11.96171"><ele>274.0</ele><time>2026-05-03T09:05:18.75Z</time></trkpt><trkpt lat="43.3419617" lon="11.9618067"><ele>274.5</ele><time>2026-05-03T09:05:21.748Z</time></trkpt><trkpt lat="43.342005" lon="11.96189"><ele>275.0</ele><time>2026-05-03T09:05:24.755Z</time></trkpt><trkpt lat="43.3420417" lon="11.961965"><ele>275.5</ele><time>2026-05-03T09:05:27.754Z</time></trkpt><trkpt lat="43.3420883" lon="11.96205"><ele>276.0</ele><time>2026-05-03T09:05:30.75Z</time></trkpt><trkpt lat="43.342135" lon="11.9621517"><ele>276.0</ele><time>2026-05-03T09:05:33.75Z</time></trkpt><trkpt lat="43.3421533" lon="11.9622367"><ele>276.0</ele><time>2026-05-03T09:05:36.752Z</time></trkpt><trkpt lat="43.3421917" lon="11.962335"><ele>276.0</ele><time>2026-05-03T09:05:40.751Z</time></trkpt><trkpt lat="43.3422133" lon="11.9624467"><ele>276.0</ele><time>2026-05-03T09:05:43.752Z</time></trkpt><trkpt lat="43.3422433" lon="11.962575"><ele>276.0</ele><time>2026-05-03T09:05:46.753Z</time></trkpt><trkpt lat="43.3422733" lon="11.9626917"><ele>276.0</ele><time>2026-05-03T09:05:48.752Z</time></trkpt><trkpt lat="43.342305" lon="11.9628233"><ele>275.5</ele><time>2026-05-03T09:05:50.748Z</time></trkpt><trkpt lat="43.3423283" lon="11.9629933"><ele>275.0</ele><time>2026-05-03T09:05:52.747Z</time></trkpt><trkpt lat="43.3423483" lon="11.9631433"><ele>274.5</ele><time>2026-05-03T09:05:54.757Z</time></trkpt><trkpt lat="43.34238" lon="11.963295"><ele>274.0</ele><time>2026-05-03T09:05:56.752Z</time></trkpt><trkpt lat="43.342405" lon="11.963445"><ele>273.8</ele><time>2026-05-03T09:05:58.747Z</time></trkpt><trkpt lat="43.3424233" lon="11.9635967"><ele>273.59999999999997</ele><time>2026-05-03T09:06:00.756Z</time></trkpt><trkpt lat="43.3424383" lon="11.963745"><ele>273.4</ele><time>2026-05-03T09:06:02.757Z</time></trkpt><trkpt lat="43.34245" lon="11.9638917"><ele>273.2</ele><time>2026-05-03T09:06:04.747Z</time></trkpt><trkpt lat="43.3424667" lon="11.9640333"><ele>273.0</ele><time>2026-05-03T09:06:06.749Z</time></trkpt><trkpt lat="43.3424883" lon="11.964165"><ele>273.3333333333333</ele><time>2026-05-03T09:06:08.751Z</time></trkpt><trkpt lat="43.3425067" lon="11.9642933"><ele>273.6666666666667</ele><time>2026-05-03T09:06:10.77Z</time></trkpt><trkpt lat="43.342535" lon="11.9644067"><ele>274.0</ele><time>2026-05-03T09:06:12.75Z</time></trkpt><trkpt lat="43.3425567" lon="11.9645133"><ele>274.33333333333337</ele><time>2026-05-03T09:06:14.759Z</time></trkpt><trkpt lat="43.342585" lon="11.96461"><ele>274.6666666666667</ele><time>2026-05-03T09:06:16.757Z</time></trkpt><trkpt lat="43.3426233" lon="11.9647017"><ele>275.0</ele><time>2026-05-03T09:06:18.76Z</time></trkpt><trkpt lat="43.342655" lon="11.964795"><ele>275.0</ele><time>2026-05-03T09:06:20.756Z</time></trkpt><trkpt lat="43.34269" lon="11.964885"><ele>275.0</ele><time>2026-05-03T09:06:22.755Z</time></trkpt><trkpt lat="43.342715" lon="11.9649733"><ele>275.0</ele><time>2026-05-03T09:06:24.757Z</time></trkpt><trkpt lat="43.3427517" lon="11.9650633"><ele>275.0</ele><time>2026-05-03T09:06:26.758Z</time></trkpt><trkpt lat="43.3427883" lon="11.9651417"><ele>275.0</ele><time>2026-05-03T09:06:28.758Z</time></trkpt><trkpt lat="43.3428283" lon="11.9652183"><ele>275.0</ele><time>2026-05-03T09:06:30.753Z</time></trkpt><trkpt lat="43.342875" lon="11.9653233"><ele>275.0</ele><time>2026-05-03T09:06:33.749Z</time></trkpt><trkpt lat="43.3429083" lon="11.96541"><ele>275.1666666666667</ele><time>2026-05-03T09:06:36.757Z</time></trkpt><trkpt lat="43.342925" lon="11.9655133"><ele>275.33333333333337</ele><time>2026-05-03T09:06:39.741Z</time></trkpt><trkpt lat="43.3429533" lon="11.9656067"><ele>275.5</ele><time>2026-05-03T09:06:42.751Z</time></trkpt><trkpt lat="43.3429783" lon="11.9656983"><ele>275.6666666666667</ele><time>2026-05-03T09:06:45.75Z</time></trkpt><trkpt lat="43.3430017" lon="11.9658017"><ele>275.8333333333333</ele><time>2026-05-03T09:06:48.757Z</time></trkpt><trkpt lat="43.343015" lon="11.9658983"><ele>276.0</ele><time>2026-05-03T09:06:51.757Z</time></trkpt><trkpt lat="43.3430583" lon="11.9660017"><ele>276.0</ele><time>2026-05-03T09:06:54.758Z</time></trkpt><trkpt lat="43.3431033" lon="11.9661117"><ele>276.0</ele><time>2026-05-03T09:06:57.767Z</time></trkpt><trkpt lat="43.3431367" lon="11.96621"><ele>276.0</ele><time>2026-05-03T09:07:00.753Z</time></trkpt><trkpt lat="43.3431683" lon="11.9663017"><ele>276.0</ele><time>2026-05-03T09:07:03.751Z</time></trkpt><trkpt lat="43.343185" lon="11.9663917"><ele>276.0</ele><time>2026-05-03T09:07:06.756Z</time></trkpt><trkpt lat="43.3432167" lon="11.966485"><ele>276.0</ele><time>2026-05-03T09:07:09.764Z</time></trkpt><trkpt lat="43.34324" lon="11.966585"><ele>276.0</ele><time>2026-05-03T09:07:12.765Z</time></trkpt><trkpt lat="43.343265" lon="11.96668"><ele>276.0</ele><time>2026-05-03T09:07:15.764Z</time></trkpt><trkpt lat="43.34329" lon="11.966775"><ele>276.0</ele><time>2026-05-03T09:07:18.76Z</time></trkpt><trkpt lat="43.3433183" lon="11.9668717"><ele>276.0</ele><time>2026-05-03T09:07:21.751Z</time></trkpt><trkpt lat="43.343355" lon="11.9669667"><ele>276.0</ele><time>2026-05-03T09:07:24.755Z</time></trkpt><trkpt lat="43.3433683" lon="11.9670783"><ele>276.0</ele><time>2026-05-03T09:07:27.755Z</time></trkpt><trkpt lat="43.3433917" lon="11.9671767"><ele>276.1666666666667</ele><time>2026-05-03T09:07:30.755Z</time></trkpt><trkpt lat="43.343415" lon="11.9672767"><ele>276.3333333333333</ele><time>2026-05-03T09:07:33.763Z</time></trkpt><trkpt lat="43.3434433" lon="11.9673667"><ele>276.5</ele><time>2026-05-03T09:07:36.752Z</time></trkpt><trkpt lat="43.3434517" lon="11.9674717"><ele>276.66666666666663</ele><time>2026-05-03T09:07:39.749Z</time></trkpt><trkpt lat="43.3434617" lon="11.9675783"><ele>276.8333333333333</ele><time>2026-05-03T09:07:42.751Z</time></trkpt><trkpt lat="43.34349" lon="11.967675"><ele>277.0</ele><time>2026-05-03T09:07:45.747Z</time></trkpt><trkpt lat="43.3435083" lon="11.9677783"><ele>277.16666666666663</ele><time>2026-05-03T09:07:48.749Z</time></trkpt><trkpt lat="43.3435383" lon="11.9678833"><ele>277.3333333333333</ele><time>2026-05-03T09:07:51.751Z</time></trkpt><trkpt lat="43.343555" lon="11.9679683"><ele>277.5</ele><time>2026-05-03T09:07:53.759Z</time></trkpt><trkpt lat="43.3435767" lon="11.968095"><ele>277.6666666666667</ele><time>2026-05-03T09:07:56.755Z</time></trkpt><trkpt lat="43.3435933" lon="11.9682167"><ele>277.83333333333337</ele><time>2026-05-03T09:07:59.755Z</time></trkpt><trkpt lat="43.343615" lon="11.96833"><ele>278.0</ele><time>2026-05-03T09:08:02.765Z</time></trkpt><trkpt lat="43.3436233" lon="11.96845"><ele>278.1666666666667</ele><time>2026-05-03T09:08:05.754Z</time></trkpt><trkpt lat="43.343635" lon="11.9685667"><ele>278.33333333333337</ele><time>2026-05-03T09:08:08.754Z</time></trkpt><trkpt lat="43.3436517" lon="11.96869"><ele>278.5</ele><time>2026-05-03T09:08:11.754Z</time></trkpt><trkpt lat="43.3436717" lon="11.9688033"><ele>278.6666666666667</ele><time>2026-05-03T09:08:14.752Z</time></trkpt><trkpt lat="43.343695" lon="11.9689183"><ele>278.8333333333333</ele><time>2026-05-03T09:08:17.76Z</time></trkpt><trkpt lat="43.343715" lon="11.969015"><ele>279.0</ele><time>2026-05-03T09:08:20.754Z</time></trkpt><trkpt lat="43.3437383" lon="11.9691067"><ele>278.6666666666667</ele><time>2026-05-03T09:08:23.747Z</time></trkpt><trkpt lat="43.3437617" lon="11.9692083"><ele>278.3333333333333</ele><time>2026-05-03T09:08:26.751Z</time></trkpt><trkpt lat="43.34378" lon="11.9693083"><ele>278.0</ele><time>2026-05-03T09:08:29.752Z</time></trkpt><trkpt lat="43.3438067" lon="11.9694083"><ele>277.66666666666663</ele><time>2026-05-03T09:08:32.754Z</time></trkpt><trkpt lat="43.34384" lon="11.9695167"><ele>277.3333333333333</ele><time>2026-05-03T09:08:35.749Z</time></trkpt><trkpt lat="43.343865" lon="11.9696067"><ele>277.0</ele><time>2026-05-03T09:08:38.755Z</time></trkpt><trkpt lat="43.3438817" lon="11.969715"><ele>277.0</ele><time>2026-05-03T09:08:41.761Z</time></trkpt><trkpt lat="43.3438933" lon="11.9698283"><ele>277.0</ele><time>2026-05-03T09:08:44.753Z</time></trkpt><trkpt lat="43.343915" lon="11.969935"><ele>277.0</ele><time>2026-05-03T09:08:47.75Z</time></trkpt><trkpt lat="43.34392" lon="11.9700467"><ele>277.0</ele><time>2026-05-03T09:08:50.757Z</time></trkpt><trkpt lat="43.343925" lon="11.97016"><ele>277.0</ele><time>2026-05-03T09:08:53.748Z</time></trkpt><trkpt lat="43.3439267" lon="11.97026"><ele>277.0</ele><time>2026-05-03T09:08:56.751Z</time></trkpt><trkpt lat="43.3439283" lon="11.9703583"><ele>277.5</ele><time>2026-05-03T09:08:59.759Z</time></trkpt><trkpt lat="43.3439317" lon="11.9704733"><ele>278.0</ele><time>2026-05-03T09:09:02.75Z</time></trkpt><trkpt lat="43.3439417" lon="11.9705617"><ele>278.5</ele><time>2026-05-03T09:09:04.761Z</time></trkpt><trkpt lat="43.3439533" lon="11.97068"><ele>279.0</ele><time>2026-05-03T09:09:07.759Z</time></trkpt><trkpt lat="43.3439717" lon="11.9707967"><ele>279.5</ele><time>2026-05-03T09:09:10.75Z</time></trkpt><trkpt lat="43.3439833" lon="11.9709"><ele>280.0</ele><time>2026-05-03T09:09:13.752Z</time></trkpt><trkpt lat="43.344005" lon="11.9709833"><ele>281.3333333333333</ele><time>2026-05-03T09:09:16.751Z</time></trkpt><trkpt lat="43.3440367" lon="11.9710817"><ele>282.66666666666663</ele><time>2026-05-03T09:09:20.753Z</time></trkpt><trkpt lat="43.3440633" lon="11.9711733"><ele>284.0</ele><time>2026-05-03T09:09:24.766Z</time></trkpt><trkpt lat="43.34409" lon="11.9712667"><ele>285.3333333333333</ele><time>2026-05-03T09:09:28.757Z</time></trkpt><trkpt lat="43.3441233" lon="11.9713683"><ele>286.6666666666667</ele><time>2026-05-03T09:09:32.746Z</time></trkpt><trkpt lat="43.344155" lon="11.9714617"><ele>288.0</ele><time>2026-05-03T09:09:35.754Z</time></trkpt><trkpt lat="43.3441933" lon="11.97156"><ele>288.00000000000006</ele><time>2026-05-03T09:09:38.753Z</time></trkpt><trkpt lat="43.3442233" lon="11.9716517"><ele>288.0</ele><time>2026-05-03T09:09:41.758Z</time></trkpt><trkpt lat="43.34425" lon="11.971755"><ele>288.0</ele><time>2026-05-03T09:09:45.748Z</time></trkpt><trkpt lat="43.3442733" lon="11.9718383"><ele>288.0</ele><time>2026-05-03T09:09:48.753Z</time></trkpt><trkpt lat="43.3443017" lon="11.97193"><ele>288.0</ele><time>2026-05-03T09:09:51.747Z</time></trkpt><trkpt lat="43.34433" lon="11.9720133"><ele>288.00000000000006</ele><time>2026-05-03T09:09:54.762Z</time></trkpt><trkpt lat="43.3443683" lon="11.9720967"><ele>288.0</ele><time>2026-05-03T09:09:57.747Z</time></trkpt><trkpt lat="43.3444083" lon="11.9721767"><ele>288.00000000000006</ele><time>2026-05-03T09:10:00.762Z</time></trkpt><trkpt lat="43.3444267" lon="11.9722667"><ele>288.0</ele><time>2026-05-03T09:10:03.749Z</time></trkpt><trkpt lat="43.34445" lon="11.9723567"><ele>288.0</ele><time>2026-05-03T09:10:06.756Z</time></trkpt><trkpt lat="43.34447" lon="11.9724733"><ele>288.0</ele><time>2026-05-03T09:10:09.761Z</time></trkpt><trkpt lat="43.3444867" lon="11.972565"><ele>288.0</ele><time>2026-05-03T09:10:11.758Z</time></trkpt><trkpt lat="43.3445033" lon="11.97266"><ele>288.00000000000006</ele><time>2026-05-03T09:10:13.753Z</time></trkpt><trkpt lat="43.3445167" lon="11.97275"><ele>288.0</ele><time>2026-05-03T09:10:15.754Z</time></trkpt><trkpt lat="43.3445333" lon="11.9728367"><ele>289.0</ele><time>2026-05-03T09:10:17.756Z</time></trkpt><trkpt lat="43.3445633" lon="11.97295"><ele>290.0</ele><time>2026-05-03T09:10:20.752Z</time></trkpt><trkpt lat="43.3446033" lon="11.9730733"><ele>291.0</ele><time>2026-05-03T09:10:23.757Z</time></trkpt><trkpt lat="43.344635" lon="11.9731533"><ele>292.0</ele><time>2026-05-03T09:10:25.748Z</time></trkpt><trkpt lat="43.3446533" lon="11.9732617"><ele>293.0</ele><time>2026-05-03T09:10:28.757Z</time></trkpt><trkpt lat="43.3446733" lon="11.9733733"><ele>294.0</ele><time>2026-05-03T09:10:31.757Z</time></trkpt><trkpt lat="43.344705" lon="11.97348"><ele>293.0</ele><time>2026-05-03T09:10:34.753Z</time></trkpt><trkpt lat="43.34474" lon="11.97358"><ele>292.0</ele><time>2026-05-03T09:10:37.751Z</time></trkpt><trkpt lat="43.3447833" lon="11.973675"><ele>291.0</ele><time>2026-05-03T09:10:40.76Z</time></trkpt><trkpt lat="43.3448283" lon="11.9737717"><ele>290.0</ele><time>2026-05-03T09:10:43.75Z</time></trkpt><trkpt lat="43.3448667" lon="11.973875"><ele>289.0</ele><time>2026-05-03T09:10:46.757Z</time></trkpt><trkpt lat="43.3449017" lon="11.97398"><ele>288.0</ele><time>2026-05-03T09:10:49.769Z</time></trkpt><trkpt lat="43.3449167" lon="11.9740983"><ele>288.0</ele><time>2026-05-03T09:10:52.755Z</time></trkpt><trkpt lat="43.344935" lon="11.9741833"><ele>288.0</ele><time>2026-05-03T09:10:54.757Z</time></trkpt><trkpt lat="43.3449583" lon="11.9742833"><ele>288.0</ele><time>2026-05-03T09:10:56.751Z</time></trkpt><trkpt lat="43.3449783" lon="11.9743983"><ele>288.0</ele><time>2026-05-03T09:10:58.752Z</time></trkpt><trkpt lat="43.3450217" lon="11.974535"><ele>288.0</ele><time>2026-05-03T09:11:00.753Z</time></trkpt><trkpt lat="43.345105" lon="11.9746317"><ele>288.0</ele><time>2026-05-03T09:11:02.758Z</time></trkpt><trkpt lat="43.34519" lon="11.97472"><ele>287.8</ele><time>2026-05-03T09:11:04.762Z</time></trkpt><trkpt lat="43.3452717" lon="11.974805"><ele>287.6</ele><time>2026-05-03T09:11:06.757Z</time></trkpt><trkpt lat="43.345365" lon="11.97489"><ele>287.4</ele><time>2026-05-03T09:11:08.75Z</time></trkpt><trkpt lat="43.3454417" lon="11.97497"><ele>287.2</ele><time>2026-05-03T09:11:10.751Z</time></trkpt><trkpt lat="43.3455167" lon="11.9750417"><ele>287.0</ele><time>2026-05-03T09:11:12.747Z</time></trkpt><trkpt lat="43.3455733" lon="11.97511"><ele>286.83333333333337</ele><time>2026-05-03T09:11:14.76Z</time></trkpt><trkpt lat="43.34564" lon="11.975185"><ele>286.6666666666667</ele><time>2026-05-03T09:11:16.75Z</time></trkpt><trkpt lat="43.345695" lon="11.975265"><ele>286.5</ele><time>2026-05-03T09:11:18.755Z</time></trkpt><trkpt lat="43.3457417" lon="11.9753367"><ele>286.3333333333333</ele><time>2026-05-03T09:11:20.756Z</time></trkpt><trkpt lat="43.3457933" lon="11.97543"><ele>286.16666666666663</ele><time>2026-05-03T09:11:22.761Z</time></trkpt><trkpt lat="43.3458383" lon="11.975525"><ele>286.0</ele><time>2026-05-03T09:11:24.753Z</time></trkpt><trkpt lat="43.34587" lon="11.9756033"><ele>286.0</ele><time>2026-05-03T09:11:26.753Z</time></trkpt><trkpt lat="43.345905" lon="11.9756767"><ele>286.0</ele><time>2026-05-03T09:11:28.756Z</time></trkpt><trkpt lat="43.3459567" lon="11.9757783"><ele>286.0</ele><time>2026-05-03T09:11:31.767Z</time></trkpt><trkpt lat="43.346" lon="11.97586"><ele>286.0</ele><time>2026-05-03T09:11:34.751Z</time></trkpt><trkpt lat="43.34605" lon="11.975935"><ele>286.0</ele><time>2026-05-03T09:12:17.75Z</time></trkpt><trkpt lat="43.3460933" lon="11.9760467"><ele>286.0</ele><time>2026-05-03T09:12:20.755Z</time></trkpt><trkpt lat="43.3461267" lon="11.9761467"><ele>285.8333333333333</ele><time>2026-05-03T09:12:22.756Z</time></trkpt><trkpt lat="43.3461517" lon="11.9762267"><ele>285.66666666666663</ele><time>2026-05-03T09:12:24.76Z</time></trkpt><trkpt lat="43.3461733" lon="11.97631"><ele>285.5</ele><time>2026-05-03T09:12:26.763Z</time></trkpt><trkpt lat="43.3462067" lon="11.97643"><ele>285.3333333333333</ele><time>2026-05-03T09:12:29.749Z</time></trkpt><trkpt lat="43.346225" lon="11.97655"><ele>285.1666666666667</ele><time>2026-05-03T09:12:32.756Z</time></trkpt><trkpt lat="43.3462583" lon="11.976655"><ele>285.0</ele><time>2026-05-03T09:12:35.764Z</time></trkpt><trkpt lat="43.346275" lon="11.9767817"><ele>285.0</ele><time>2026-05-03T09:12:38.755Z</time></trkpt><trkpt lat="43.346295" lon="11.9769067"><ele>285.0</ele><time>2026-05-03T09:12:41.761Z</time></trkpt><trkpt lat="43.34632" lon="11.9770183"><ele>285.0</ele><time>2026-05-03T09:12:44.76Z</time></trkpt><trkpt lat="43.3463533" lon="11.9771133"><ele>285.0</ele><time>2026-05-03T09:12:47.753Z</time></trkpt><trkpt lat="43.34639" lon="11.9772033"><ele>285.0</ele><time>2026-05-03T09:12:50.753Z</time></trkpt><trkpt lat="43.3464267" lon="11.9772867"><ele>285.0</ele><time>2026-05-03T09:12:53.758Z</time></trkpt><trkpt lat="43.3464567" lon="11.9773733"><ele>284.85714285714283</ele><time>2026-05-03T09:12:56.755Z</time></trkpt><trkpt lat="43.34648" lon="11.97746"><ele>284.7142857142857</ele><time>2026-05-03T09:12:59.749Z</time></trkpt><trkpt lat="43.34651" lon="11.97755"><ele>284.57142857142856</ele><time>2026-05-03T09:13:02.755Z</time></trkpt><trkpt lat="43.3465433" lon="11.9776267"><ele>284.42857142857144</ele><time>2026-05-03T09:13:05.766Z</time></trkpt><trkpt lat="43.34657" lon="11.9777183"><ele>284.2857142857143</ele><time>2026-05-03T09:13:08.748Z</time></trkpt><trkpt lat="43.3466033" lon="11.97782"><ele>284.1428571428571</ele><time>2026-05-03T09:13:11.754Z</time></trkpt><trkpt lat="43.3466467" lon="11.9779183"><ele>284.0</ele><time>2026-05-03T09:13:14.765Z</time></trkpt><trkpt lat="43.3466917" lon="11.9780133"><ele>284.5</ele><time>2026-05-03T09:13:17.763Z</time></trkpt><trkpt lat="43.3467433" lon="11.9780883"><ele>285.0</ele><time>2026-05-03T09:13:20.757Z</time></trkpt><trkpt lat="43.3467883" lon="11.9781817"><ele>285.5</ele><time>2026-05-03T09:13:23.756Z</time></trkpt><trkpt lat="43.3468167" lon="11.97826"><ele>286.0</ele><time>2026-05-03T09:13:25.761Z</time></trkpt><trkpt lat="43.3468683" lon="11.9783667"><ele>286.5</ele><time>2026-05-03T09:13:28.755Z</time></trkpt><trkpt lat="43.3469067" lon="11.978445"><ele>287.0</ele><time>2026-05-03T09:13:31.757Z</time></trkpt><trkpt lat="43.346955" lon="11.97853"><ele>287.0</ele><time>2026-05-03T09:13:34.749Z</time></trkpt><trkpt lat="43.347005" lon="11.9786183"><ele>287.0</ele><time>2026-05-03T09:13:36.757Z</time></trkpt><trkpt lat="43.3470617" lon="11.9787267"><ele>287.0</ele><time>2026-05-03T09:13:38.752Z</time></trkpt><trkpt lat="43.3471167" lon="11.97884"><ele>287.0</ele><time>2026-05-03T09:13:40.758Z</time></trkpt><trkpt lat="43.3471667" lon="11.978965"><ele>287.0</ele><time>2026-05-03T09:13:42.759Z</time></trkpt><trkpt lat="43.3472217" lon="11.97908"><ele>286.6</ele><time>2026-05-03T09:13:44.757Z</time></trkpt><trkpt lat="43.3472733" lon="11.9792067"><ele>286.2</ele><time>2026-05-03T09:13:46.756Z</time></trkpt><trkpt lat="43.34732" lon="11.9793317"><ele>285.8</ele><time>2026-05-03T09:13:48.754Z</time></trkpt><trkpt lat="43.3473667" lon="11.9794383"><ele>285.4</ele><time>2026-05-03T09:13:50.751Z</time></trkpt><trkpt lat="43.3474183" lon="11.9795483"><ele>285.0</ele><time>2026-05-03T09:13:52.749Z</time></trkpt><trkpt lat="43.3474733" lon="11.9796467"><ele>285.0</ele><time>2026-05-03T09:13:54.75Z</time></trkpt><trkpt lat="43.3475217" lon="11.9797433"><ele>285.0</ele><time>2026-05-03T09:13:56.755Z</time></trkpt><trkpt lat="43.3475617" lon="11.9798333"><ele>285.0</ele><time>2026-05-03T09:13:58.758Z</time></trkpt><trkpt lat="43.3476" lon="11.9799217"><ele>285.0</ele><time>2026-05-03T09:14:00.751Z</time></trkpt><trkpt lat="43.3476433" lon="11.9800067"><ele>285.0</ele><time>2026-05-03T09:14:02.769Z</time></trkpt><trkpt lat="43.34769" lon="11.9800733"><ele>285.0</ele><time>2026-05-03T09:14:04.757Z</time></trkpt><trkpt lat="43.34773" lon="11.98015"><ele>285.0</ele><time>2026-05-03T09:14:06.751Z</time></trkpt><trkpt lat="43.347795" lon="11.980245"><ele>285.0</ele><time>2026-05-03T09:14:09.758Z</time></trkpt><trkpt lat="43.34784" lon="11.9803117"><ele>285.0</ele><time>2026-05-03T09:14:11.755Z</time></trkpt><trkpt lat="43.3478917" lon="11.9804017"><ele>285.0</ele><time>2026-05-03T09:14:14.748Z</time></trkpt><trkpt lat="43.3479533" lon="11.9804867"><ele>285.0</ele><time>2026-05-03T09:14:17.756Z</time></trkpt><trkpt lat="43.3480167" lon="11.9805783"><ele>285.0</ele><time>2026-05-03T09:14:20.762Z</time></trkpt><trkpt lat="43.34807" lon="11.98068"><ele>285.0</ele><time>2026-05-03T09:14:23.755Z</time></trkpt><trkpt lat="43.3481183" lon="11.9807867"><ele>285.0</ele><time>2026-05-03T09:14:26.758Z</time></trkpt><trkpt lat="43.348175" lon="11.9808767"><ele>285.0</ele><time>2026-05-03T09:14:29.749Z</time></trkpt><trkpt lat="43.34823" lon="11.9809683"><ele>285.0</ele><time>2026-05-03T09:14:32.749Z</time></trkpt><trkpt lat="43.34828" lon="11.98107"><ele>285.0</ele><time>2026-05-03T09:14:35.745Z</time></trkpt><trkpt lat="43.34832" lon="11.981165"><ele>285.0</ele><time>2026-05-03T09:14:38.753Z</time></trkpt><trkpt lat="43.3483633" lon="11.9812517"><ele>285.0</ele><time>2026-05-03T09:14:41.741Z</time></trkpt><trkpt lat="43.3484183" lon="11.9813433"><ele>285.0</ele><time>2026-05-03T09:14:44.754Z</time></trkpt><trkpt lat="43.3484733" lon="11.9814417"><ele>285.0</ele><time>2026-05-03T09:14:47.757Z</time></trkpt><trkpt lat="43.348515" lon="11.9815083"><ele>285.0</ele><time>2026-05-03T09:14:49.75Z</time></trkpt><trkpt lat="43.3485717" lon="11.9815983"><ele>285.0</ele><time>2026-05-03T09:14:52.762Z</time></trkpt><trkpt lat="43.348625" lon="11.9816967"><ele>285.0</ele><time>2026-05-03T09:14:55.764Z</time></trkpt><trkpt lat="43.3486583" lon="11.981805"><ele>285.0</ele><time>2026-05-03T09:14:58.747Z</time></trkpt><trkpt lat="43.3486933" lon="11.9818983"><ele>285.3333333333333</ele><time>2026-05-03T09:15:01.749Z</time></trkpt><trkpt lat="43.34872" lon="11.98198"><ele>285.6666666666667</ele><time>2026-05-03T09:15:03.753Z</time></trkpt><trkpt lat="43.3487383" lon="11.982075"><ele>286.0</ele><time>2026-05-03T09:15:05.759Z</time></trkpt><trkpt lat="43.3487567" lon="11.9821683"><ele>286.33333333333337</ele><time>2026-05-03T09:15:07.766Z</time></trkpt><trkpt lat="43.3487783" lon="11.9822533"><ele>286.6666666666667</ele><time>2026-05-03T09:15:09.761Z</time></trkpt><trkpt lat="43.348815" lon="11.9823667"><ele>287.0</ele><time>2026-05-03T09:15:12.759Z</time></trkpt><trkpt lat="43.34886" lon="11.9824817"><ele>287.14285714285717</ele><time>2026-05-03T09:15:15.756Z</time></trkpt><trkpt lat="43.3489" lon="11.9825667"><ele>287.2857142857143</ele><time>2026-05-03T09:15:17.761Z</time></trkpt><trkpt lat="43.3489383" lon="11.9826667"><ele>287.42857142857144</ele><time>2026-05-03T09:15:20.744Z</time></trkpt><trkpt lat="43.3489767" lon="11.9827383"><ele>287.57142857142856</ele><time>2026-05-03T09:15:23.747Z</time></trkpt><trkpt lat="43.3490067" lon="11.9828317"><ele>287.7142857142857</ele><time>2026-05-03T09:15:27.755Z</time></trkpt><trkpt lat="43.3490467" lon="11.982905"><ele>287.8571428571429</ele><time>2026-05-03T09:15:30.759Z</time></trkpt><trkpt lat="43.3490733" lon="11.983015"><ele>288.0</ele><time>2026-05-03T09:15:34.762Z</time></trkpt><trkpt lat="43.349105" lon="11.9831167"><ele>288.00000000000006</ele><time>2026-05-03T09:15:38.754Z</time></trkpt><trkpt lat="43.3491267" lon="11.9832167"><ele>288.0</ele><time>2026-05-03T09:15:42.753Z</time></trkpt><trkpt lat="43.3491383" lon="11.9833117"><ele>288.0</ele><time>2026-05-03T09:15:46.749Z</time></trkpt><trkpt lat="43.3491567" lon="11.983395"><ele>288.0</ele><time>2026-05-03T09:15:49.751Z</time></trkpt><trkpt lat="43.3491683" lon="11.983485"><ele>288.0</ele><time>2026-05-03T09:15:52.75Z</time></trkpt><trkpt lat="43.3491917" lon="11.9835733"><ele>288.00000000000006</ele><time>2026-05-03T09:15:55.752Z</time></trkpt><trkpt lat="43.3492017" lon="11.9836667"><ele>288.0</ele><time>2026-05-03T09:15:58.755Z</time></trkpt><trkpt lat="43.349225" lon="11.9837583"><ele>288.3333333333333</ele><time>2026-05-03T09:16:01.756Z</time></trkpt><trkpt lat="43.349235" lon="11.9838483"><ele>288.6666666666667</ele><time>2026-05-03T09:16:04.762Z</time></trkpt><trkpt lat="43.3492533" lon="11.9839433"><ele>289.0</ele><time>2026-05-03T09:16:07.751Z</time></trkpt><trkpt lat="43.3492633" lon="11.984035"><ele>289.33333333333337</ele><time>2026-05-03T09:16:09.757Z</time></trkpt><trkpt lat="43.3492783" lon="11.98417"><ele>289.6666666666667</ele><time>2026-05-03T09:16:11.752Z</time></trkpt><trkpt lat="43.3492783" lon="11.9843383"><ele>290.0</ele><time>2026-05-03T09:16:13.755Z</time></trkpt><trkpt lat="43.3492817" lon="11.9844283"><ele>290.0</ele><time>2026-05-03T09:16:14.757Z</time></trkpt><trkpt lat="43.3492817" lon="11.984515"><ele>290.0</ele><time>2026-05-03T09:16:15.755Z</time></trkpt><trkpt lat="43.3492833" lon="11.9846033"><ele>290.0</ele><time>2026-05-03T09:16:16.751Z</time></trkpt><trkpt lat="43.3492867" lon="11.98476"><ele>290.0</ele><time>2026-05-03T09:16:18.755Z</time></trkpt><trkpt lat="43.349315" lon="11.9849"><ele>290.0</ele><time>2026-05-03T09:16:20.752Z</time></trkpt><trkpt lat="43.3493583" lon="11.98503"><ele>291.2</ele><time>2026-05-03T09:16:22.752Z</time></trkpt><trkpt lat="43.3493933" lon="11.985165"><ele>292.4</ele><time>2026-05-03T09:16:24.758Z</time></trkpt><trkpt lat="43.3494317" lon="11.9852933"><ele>293.6</ele><time>2026-05-03T09:16:26.758Z</time></trkpt><trkpt lat="43.3494567" lon="11.9854133"><ele>294.8</ele><time>2026-05-03T09:16:28.754Z</time></trkpt><trkpt lat="43.34948" lon="11.9855233"><ele>296.0</ele><time>2026-05-03T09:16:30.754Z</time></trkpt><trkpt lat="43.3494883" lon="11.9856217"><ele>296.0</ele><time>2026-05-03T09:16:32.747Z</time></trkpt><trkpt lat="43.3495017" lon="11.9857167"><ele>296.0</ele><time>2026-05-03T09:16:34.758Z</time></trkpt><trkpt lat="43.3495217" lon="11.98582"><ele>296.0</ele><time>2026-05-03T09:16:37.753Z</time></trkpt><trkpt lat="43.3495433" lon="11.9859083"><ele>296.0</ele><time>2026-05-03T09:16:40.758Z</time></trkpt><trkpt lat="43.3495617" lon="11.9859917"><ele>296.0</ele><time>2026-05-03T09:16:43.755Z</time></trkpt><trkpt lat="43.3496" lon="11.986075"><ele>296.0</ele><time>2026-05-03T09:16:46.759Z</time></trkpt><trkpt lat="43.3496133" lon="11.9861633"><ele>296.0</ele><time>2026-05-03T09:16:49.761Z</time></trkpt><trkpt lat="43.3496433" lon="11.986265"><ele>296.0</ele><time>2026-05-03T09:16:53.755Z</time></trkpt><trkpt lat="43.3496633" lon="11.9863717"><ele>296.0</ele><time>2026-05-03T09:16:57.751Z</time></trkpt><trkpt lat="43.3496883" lon="11.9864767"><ele>296.0</ele><time>2026-05-03T09:17:01.759Z</time></trkpt><trkpt lat="43.349715" lon="11.9865783"><ele>296.0</ele><time>2026-05-03T09:17:05.755Z</time></trkpt><trkpt lat="43.34974" lon="11.9866817"><ele>296.0</ele><time>2026-05-03T09:17:09.759Z</time></trkpt><trkpt lat="43.349765" lon="11.98679"><ele>296.0</ele><time>2026-05-03T09:17:13.75Z</time></trkpt><trkpt lat="43.3498" lon="11.9868933"><ele>296.0</ele><time>2026-05-03T09:17:17.758Z</time></trkpt><trkpt lat="43.3498117" lon="11.9870083"><ele>296.0</ele><time>2026-05-03T09:17:21.755Z</time></trkpt><trkpt lat="43.3498283" lon="11.9871183"><ele>296.0</ele><time>2026-05-03T09:17:24.755Z</time></trkpt><trkpt lat="43.3498483" lon="11.9872067"><ele>296.0</ele><time>2026-05-03T09:17:26.759Z</time></trkpt><trkpt lat="43.3498583" lon="11.9872933"><ele>296.0</ele><time>2026-05-03T09:17:28.751Z</time></trkpt><trkpt lat="43.34986" lon="11.9873817"><ele>296.0</ele><time>2026-05-03T09:17:30.758Z</time></trkpt><trkpt lat="43.3498667" lon="11.98747"><ele>296.0</ele><time>2026-05-03T09:17:32.771Z</time></trkpt><trkpt lat="43.3498817" lon="11.98759"><ele>296.1666666666667</ele><time>2026-05-03T09:17:35.759Z</time></trkpt><trkpt lat="43.3499033" lon="11.9876983"><ele>296.33333333333337</ele><time>2026-05-03T09:17:38.761Z</time></trkpt><trkpt lat="43.3499317" lon="11.9877883"><ele>296.5</ele><time>2026-05-03T09:17:41.749Z</time></trkpt><trkpt lat="43.3499633" lon="11.9878933"><ele>296.6666666666667</ele><time>2026-05-03T09:17:44.752Z</time></trkpt><trkpt lat="43.3499867" lon="11.9879867"><ele>296.8333333333333</ele><time>2026-05-03T09:17:47.756Z</time></trkpt><trkpt lat="43.350025" lon="11.9880833"><ele>297.0</ele><time>2026-05-03T09:17:50.753Z</time></trkpt><trkpt lat="43.3500617" lon="11.98818"><ele>297.0</ele><time>2026-05-03T09:17:53.758Z</time></trkpt><trkpt lat="43.35009" lon="11.9882617"><ele>297.0</ele><time>2026-05-03T09:17:55.758Z</time></trkpt><trkpt lat="43.3501183" lon="11.98836"><ele>297.0</ele><time>2026-05-03T09:17:57.755Z</time></trkpt><trkpt lat="43.350165" lon="11.9884417"><ele>297.0</ele><time>2026-05-03T09:17:59.748Z</time></trkpt><trkpt lat="43.3502317" lon="11.9885"><ele>297.0</ele><time>2026-05-03T09:18:01.755Z</time></trkpt><trkpt lat="43.3502967" lon="11.988525"><ele>297.0</ele><time>2026-05-03T09:18:03.75Z</time></trkpt><trkpt lat="43.35037" lon="11.9886017"><ele>297.3333333333333</ele><time>2026-05-03T09:18:06.758Z</time></trkpt><trkpt lat="43.3504433" lon="11.98866"><ele>297.6666666666667</ele><time>2026-05-03T09:18:09.756Z</time></trkpt><trkpt lat="43.3505083" lon="11.9886817"><ele>298.0</ele><time>2026-05-03T09:18:11.76Z</time></trkpt><trkpt lat="43.3505933" lon="11.9887117"><ele>298.33333333333337</ele><time>2026-05-03T09:18:13.761Z</time></trkpt><trkpt lat="43.350675" lon="11.98875"><ele>298.6666666666667</ele><time>2026-05-03T09:18:15.752Z</time></trkpt><trkpt lat="43.3507517" lon="11.988775"><ele>299.0</ele><time>2026-05-03T09:18:17.759Z</time></trkpt><trkpt lat="43.350845" lon="11.9887567"><ele>295.0</ele><time>2026-05-03T09:18:20.744Z</time></trkpt><trkpt lat="43.35091" lon="11.988755"><ele>295.0</ele><time>2026-05-03T09:18:38.754Z</time></trkpt><trkpt lat="43.350965" lon="11.988705"><ele>295.0</ele><time>2026-05-03T09:18:42.75Z</time></trkpt></trkseg></trk></gpx>